<?xml version='1.0' encoding='UTF-8'?><gpx version="1.1" creator="JPX - https://github.com/jenetics/jpx" xmlns="http://www.topografix.com/GPX/1/1"><trk><trkseg><trkpt lat="43.6789099" lon="10.942575"><ele>128.99999999999997</ele><time>2026-03-28T15:14:00.851Z</time></trkpt><trkpt lat="43.6788429" lon="10.9425677"><ele>129.0</ele><time>2026-03-28T15:14:06.862Z</time></trkpt><trkpt lat="43.6787886" lon="10.9425043"><ele>129.0</ele><time>2026-03-28T15:14:12.863Z</time></trkpt><trkpt lat="43.6787363" lon="10.942452"><ele>129.0</ele><time>2026-03-28T15:14:19.801Z</time></trkpt><trkpt lat="43.6786976" lon="10.9423786"><ele>129.0</ele><time>2026-03-28T15:14:24.827Z</time></trkpt><trkpt lat="43.6786559" lon="10.9422912"><ele>128.99999999999997</ele><time>2026-03-28T15:14:32.863Z</time></trkpt><trkpt lat="43.678604" lon="10.9422297"><ele>129.0</ele><time>2026-03-28T15:14:38.862Z</time></trkpt><trkpt lat="43.6785479" lon="10.9421648"><ele>128.42857142857142</ele><time>2026-03-28T15:14:45.945Z</time></trkpt><trkpt lat="43.6785216" lon="10.9420853"><ele>127.85714285714286</ele><time>2026-03-28T15:14:52.862Z</time></trkpt><trkpt lat="43.6784792" lon="10.9420155"><ele>127.28571428571428</ele><time>2026-03-28T15:14:58.862Z</time></trkpt><trkpt lat="43.6785414" lon="10.9420624"><ele>126.71428571428571</ele><time>2026-03-28T15:15:16.863Z</time></trkpt><trkpt lat="43.6785849" lon="10.9421319"><ele>126.14285714285714</ele><time>2026-03-28T15:15:23.862Z</time></trkpt><trkpt lat="43.6786367" lon="10.942201"><ele>125.57142857142857</ele><time>2026-03-28T15:15:31.862Z</time></trkpt><trkpt lat="43.6786798" lon="10.9422868"><ele>125.0</ele><time>2026-03-28T15:15:38.862Z</time></trkpt><trkpt lat="43.6787265" lon="10.9423667"><ele>125.0</ele><time>2026-03-28T15:15:44.796Z</time></trkpt><trkpt lat="43.6787614" lon="10.9424408"><ele>125.0</ele><time>2026-03-28T15:15:49.872Z</time></trkpt><trkpt lat="43.6788045" lon="10.942506"><ele>125.0</ele><time>2026-03-28T15:15:54.863Z</time></trkpt><trkpt lat="43.6788674" lon="10.9425639"><ele>125.0</ele><time>2026-03-28T15:16:00.862Z</time></trkpt><trkpt lat="43.6789314" lon="10.9425901"><ele>125.0</ele><time>2026-03-28T15:16:05.862Z</time></trkpt><trkpt lat="43.6789975" lon="10.9426151"><ele>125.0</ele><time>2026-03-28T15:16:19.863Z</time></trkpt><trkpt lat="43.6790428" lon="10.9426984"><ele>125.0</ele><time>2026-03-28T15:16:24.765Z</time></trkpt><trkpt lat="43.6790641" lon="10.9427968"><ele>125.57142857142857</ele><time>2026-03-28T15:16:30.862Z</time></trkpt><trkpt lat="43.6790938" lon="10.9428808"><ele>126.14285714285714</ele><time>2026-03-28T15:16:35.862Z</time></trkpt><trkpt lat="43.6791311" lon="10.9429514"><ele>126.71428571428571</ele><time>2026-03-28T15:16:40.862Z</time></trkpt><trkpt lat="43.6791916" lon="10.9429878"><ele>127.28571428571428</ele><time>2026-03-28T15:16:50.7Z</time></trkpt><trkpt lat="43.6792367" lon="10.9430719"><ele>127.85714285714286</ele><time>2026-03-28T15:16:53.681Z</time></trkpt><trkpt lat="43.6792824" lon="10.9431432"><ele>128.42857142857142</ele><time>2026-03-28T15:16:57.758Z</time></trkpt><trkpt lat="43.679333" lon="10.9432101"><ele>129.0</ele><time>2026-03-28T15:17:02.773Z</time></trkpt><trkpt lat="43.6793898" lon="10.9432657"><ele>128.7142857142857</ele><time>2026-03-28T15:17:06.799Z</time></trkpt><trkpt lat="43.6794572" lon="10.9433002"><ele>128.42857142857142</ele><time>2026-03-28T15:17:10.793Z</time></trkpt><trkpt lat="43.6795139" lon="10.9433428"><ele>128.14285714285714</ele><time>2026-03-28T15:17:14.801Z</time></trkpt><trkpt lat="43.6795808" lon="10.9433514"><ele>127.85714285714285</ele><time>2026-03-28T15:17:18.875Z</time></trkpt><trkpt lat="43.6796405" lon="10.9433855"><ele>127.57142857142856</ele><time>2026-03-28T15:17:22.858Z</time></trkpt><trkpt lat="43.6797125" lon="10.9434202"><ele>127.28571428571429</ele><time>2026-03-28T15:17:27.848Z</time></trkpt><trkpt lat="43.6797746" lon="10.9434802"><ele>127.0</ele><time>2026-03-28T15:17:32.848Z</time></trkpt><trkpt lat="43.6798278" lon="10.9435561"><ele>127.0</ele><time>2026-03-28T15:17:37.848Z</time></trkpt><trkpt lat="43.6798636" lon="10.9436323"><ele>127.0</ele><time>2026-03-28T15:17:42.849Z</time></trkpt><trkpt lat="43.6799093" lon="10.9436977"><ele>127.0</ele><time>2026-03-28T15:17:47.848Z</time></trkpt><trkpt lat="43.6799714" lon="10.9437185"><ele>127.0</ele><time>2026-03-28T15:17:52.848Z</time></trkpt><trkpt lat="43.6800434" lon="10.943723"><ele>127.0</ele><time>2026-03-28T15:17:58.848Z</time></trkpt><trkpt lat="43.6801099" lon="10.9437523"><ele>127.0</ele><time>2026-03-28T15:18:02.876Z</time></trkpt><trkpt lat="43.6801637" lon="10.9437007"><ele>127.0</ele><time>2026-03-28T15:18:07.848Z</time></trkpt><trkpt lat="43.6802276" lon="10.9436856"><ele>127.0</ele><time>2026-03-28T15:18:12.851Z</time></trkpt><trkpt lat="43.6802931" lon="10.9436695"><ele>127.0</ele><time>2026-03-28T15:18:17.921Z</time></trkpt><trkpt lat="43.6803637" lon="10.9436387"><ele>127.0</ele><time>2026-03-28T15:18:23.849Z</time></trkpt><trkpt lat="43.6804209" lon="10.9435918"><ele>127.0</ele><time>2026-03-28T15:18:28.849Z</time></trkpt><trkpt lat="43.6804027" lon="10.9437274"><ele>127.0</ele><time>2026-03-28T15:21:53.852Z</time></trkpt><trkpt lat="43.6803346" lon="10.9437344"><ele>127.0</ele><time>2026-03-28T15:21:59.854Z</time></trkpt><trkpt lat="43.6802738" lon="10.9437762"><ele>127.0</ele><time>2026-03-28T15:22:05.764Z</time></trkpt><trkpt lat="43.6802051" lon="10.9437849"><ele>127.00000000000001</ele><time>2026-03-28T15:22:13.855Z</time></trkpt><trkpt lat="43.6801387" lon="10.9437825"><ele>127.0</ele><time>2026-03-28T15:22:17.864Z</time></trkpt><trkpt lat="43.6800739" lon="10.9437828"><ele>127.0</ele><time>2026-03-28T15:22:25.861Z</time></trkpt><trkpt lat="43.6799783" lon="10.9437429"><ele>127.0</ele><time>2026-03-28T15:22:31.854Z</time></trkpt><trkpt lat="43.6799188" lon="10.9437125"><ele>127.00000000000001</ele><time>2026-03-28T15:22:36.855Z</time></trkpt><trkpt lat="43.6798505" lon="10.9436401"><ele>127.0</ele><time>2026-03-28T15:22:42.855Z</time></trkpt><trkpt lat="43.6797818" lon="10.9435368"><ele>127.0</ele><time>2026-03-28T15:22:50.854Z</time></trkpt><trkpt lat="43.6797255" lon="10.9434823"><ele>127.0</ele><time>2026-03-28T15:22:57.854Z</time></trkpt><trkpt lat="43.6796712" lon="10.9434243"><ele>127.0</ele><time>2026-03-28T15:23:03.855Z</time></trkpt><trkpt lat="43.6796273" lon="10.9433571"><ele>127.0</ele><time>2026-03-28T15:23:08.855Z</time></trkpt><trkpt lat="43.6795783" lon="10.9432894"><ele>127.0</ele><time>2026-03-28T15:23:14.854Z</time></trkpt><trkpt lat="43.6795323" lon="10.9432217"><ele>127.0</ele><time>2026-03-28T15:23:19.855Z</time></trkpt><trkpt lat="43.6794502" lon="10.9431427"><ele>127.0</ele><time>2026-03-28T15:23:24.854Z</time></trkpt><trkpt lat="43.6793955" lon="10.9430969"><ele>127.39999999999999</ele><time>2026-03-28T15:23:30.854Z</time></trkpt><trkpt lat="43.6792951" lon="10.9430476"><ele>127.79999999999998</ele><time>2026-03-28T15:23:40.855Z</time></trkpt><trkpt lat="43.6791856" lon="10.9429333"><ele>128.2</ele><time>2026-03-28T15:23:52.854Z</time></trkpt><trkpt lat="43.6791195" lon="10.9428705"><ele>128.6</ele><time>2026-03-28T15:24:05.855Z</time></trkpt><trkpt lat="43.6790598" lon="10.942806"><ele>129.0</ele><time>2026-03-28T15:24:10.831Z</time></trkpt><trkpt lat="43.6790284" lon="10.9427137"><ele>128.99999999999997</ele><time>2026-03-28T15:24:14.781Z</time></trkpt><trkpt lat="43.6789917" lon="10.9426391"><ele>129.0</ele><time>2026-03-28T15:24:18.854Z</time></trkpt><trkpt lat="43.6789264" lon="10.9426106"><ele>129.0</ele><time>2026-03-28T15:24:27.854Z</time></trkpt><trkpt lat="43.6788647" lon="10.9425614"><ele>129.0</ele><time>2026-03-28T15:24:34.855Z</time></trkpt><trkpt lat="43.6788041" lon="10.9425145"><ele>129.0</ele><time>2026-03-28T15:24:41.854Z</time></trkpt><trkpt lat="43.6787415" lon="10.9424757"><ele>128.99999999999997</ele><time>2026-03-28T15:24:47.757Z</time></trkpt><trkpt lat="43.6786976" lon="10.9424047"><ele>129.0</ele><time>2026-03-28T15:24:52.854Z</time></trkpt><trkpt lat="43.6786493" lon="10.9423249"><ele>128.42857142857142</ele><time>2026-03-28T15:24:57.855Z</time></trkpt><trkpt lat="43.6786042" lon="10.9422506"><ele>127.85714285714286</ele><time>2026-03-28T15:25:02.759Z</time></trkpt><trkpt lat="43.6785607" lon="10.9421848"><ele>127.28571428571428</ele><time>2026-03-28T15:25:07.855Z</time></trkpt><trkpt lat="43.6785171" lon="10.9420979"><ele>126.71428571428571</ele><time>2026-03-28T15:25:13.855Z</time></trkpt><trkpt lat="43.6784719" lon="10.9420247"><ele>126.14285714285714</ele><time>2026-03-28T15:25:19.854Z</time></trkpt><trkpt lat="43.6784228" lon="10.9419634"><ele>125.57142857142857</ele><time>2026-03-28T15:25:25.854Z</time></trkpt><trkpt lat="43.6783701" lon="10.9418956"><ele>125.0</ele><time>2026-03-28T15:25:31.85Z</time></trkpt><trkpt lat="43.6783174" lon="10.9418335"><ele>125.42857142857142</ele><time>2026-03-28T15:25:37.855Z</time></trkpt><trkpt lat="43.6782592" lon="10.9417818"><ele>125.85714285714286</ele><time>2026-03-28T15:25:45.854Z</time></trkpt><trkpt lat="43.6782053" lon="10.9417006"><ele>126.28571428571428</ele><time>2026-03-28T15:25:51.859Z</time></trkpt><trkpt lat="43.6781552" lon="10.9416359"><ele>126.71428571428571</ele><time>2026-03-28T15:25:56.854Z</time></trkpt><trkpt lat="43.6781006" lon="10.9415697"><ele>127.14285714285714</ele><time>2026-03-28T15:26:01.854Z</time></trkpt><trkpt lat="43.6780508" lon="10.9415097"><ele>127.57142857142857</ele><time>2026-03-28T15:26:06.826Z</time></trkpt><trkpt lat="43.677985" lon="10.9414643"><ele>128.0</ele><time>2026-03-28T15:26:12.855Z</time></trkpt><trkpt lat="43.677926" lon="10.9414257"><ele>128.0</ele><time>2026-03-28T15:26:18.854Z</time></trkpt><trkpt lat="43.6778689" lon="10.9413865"><ele>127.99999999999999</ele><time>2026-03-28T15:26:23.855Z</time></trkpt><trkpt lat="43.6778136" lon="10.9413404"><ele>128.0</ele><time>2026-03-28T15:26:28.863Z</time></trkpt><trkpt lat="43.677756" lon="10.9412976"><ele>128.0</ele><time>2026-03-28T15:26:34.854Z</time></trkpt><trkpt lat="43.6776901" lon="10.9412437"><ele>127.99999999999999</ele><time>2026-03-28T15:26:41.855Z</time></trkpt><trkpt lat="43.6776353" lon="10.9411969"><ele>128.0</ele><time>2026-03-28T15:26:45.855Z</time></trkpt><trkpt lat="43.6775744" lon="10.9411698"><ele>128.0</ele><time>2026-03-28T15:26:51.854Z</time></trkpt><trkpt lat="43.6775043" lon="10.9411544"><ele>128.0</ele><time>2026-03-28T15:26:57.854Z</time></trkpt><trkpt lat="43.6774406" lon="10.9411388"><ele>127.99999999999999</ele><time>2026-03-28T15:27:03.854Z</time></trkpt><trkpt lat="43.6773736" lon="10.9411601"><ele>128.0</ele><time>2026-03-28T15:27:10.854Z</time></trkpt><trkpt lat="43.6773114" lon="10.941134"><ele>128.0</ele><time>2026-03-28T15:27:17.854Z</time></trkpt><trkpt lat="43.6773068" lon="10.9410408"><ele>127.99999999999999</ele><time>2026-03-28T15:27:22.855Z</time></trkpt><trkpt lat="43.6772972" lon="10.9409393"><ele>128.0</ele><time>2026-03-28T15:27:27.855Z</time></trkpt><trkpt lat="43.6772727" lon="10.9408499"><ele>128.0</ele><time>2026-03-28T15:27:32.854Z</time></trkpt><trkpt lat="43.6772381" lon="10.9407727"><ele>128.0</ele><time>2026-03-28T15:27:37.854Z</time></trkpt><trkpt lat="43.6772084" lon="10.9406947"><ele>127.99999999999999</ele><time>2026-03-28T15:27:42.855Z</time></trkpt><trkpt lat="43.6771766" lon="10.9406035"><ele>128.0</ele><time>2026-03-28T15:27:47.854Z</time></trkpt><trkpt lat="43.6771475" lon="10.9405242"><ele>128.0</ele><time>2026-03-28T15:27:51.854Z</time></trkpt><trkpt lat="43.6771132" lon="10.9404361"><ele>127.99999999999999</ele><time>2026-03-28T15:27:56.854Z</time></trkpt><trkpt lat="43.6770892" lon="10.9403428"><ele>128.0</ele><time>2026-03-28T15:28:01.854Z</time></trkpt><trkpt lat="43.677065" lon="10.9402589"><ele>128.0</ele><time>2026-03-28T15:28:06.854Z</time></trkpt><trkpt lat="43.6770342" lon="10.9401726"><ele>128.0</ele><time>2026-03-28T15:28:11.854Z</time></trkpt><trkpt lat="43.6770061" lon="10.9400933"><ele>127.99999999999999</ele><time>2026-03-28T15:28:16.855Z</time></trkpt><trkpt lat="43.6769734" lon="10.9400039"><ele>128.0</ele><time>2026-03-28T15:28:22.854Z</time></trkpt><trkpt lat="43.6769489" lon="10.9399237"><ele>128.0</ele><time>2026-03-28T15:28:28.855Z</time></trkpt><trkpt lat="43.6769101" lon="10.9398526"><ele>127.99999999999999</ele><time>2026-03-28T15:28:35.857Z</time></trkpt><trkpt lat="43.6768671" lon="10.9397582"><ele>128.0</ele><time>2026-03-28T15:36:19.86Z</time></trkpt><trkpt lat="43.6768215" lon="10.9396863"><ele>128.0</ele><time>2026-03-28T15:36:26.859Z</time></trkpt><trkpt lat="43.676794" lon="10.9396078"><ele>127.85714285714285</ele><time>2026-03-28T15:36:29.859Z</time></trkpt><trkpt lat="43.6767573" lon="10.9395222"><ele>127.7142857142857</ele><time>2026-03-28T15:36:34.859Z</time></trkpt><trkpt lat="43.6767307" lon="10.9394283"><ele>127.57142857142857</ele><time>2026-03-28T15:36:40.859Z</time></trkpt><trkpt lat="43.6766981" lon="10.9393462"><ele>127.42857142857142</ele><time>2026-03-28T15:36:46.86Z</time></trkpt><trkpt lat="43.6766659" lon="10.9392528"><ele>127.28571428571428</ele><time>2026-03-28T15:36:52.86Z</time></trkpt><trkpt lat="43.67666" lon="10.9391653"><ele>127.14285714285714</ele><time>2026-03-28T15:36:57.859Z</time></trkpt><trkpt lat="43.6765954" lon="10.9391017"><ele>127.0</ele><time>2026-03-28T15:37:03.859Z</time></trkpt><trkpt lat="43.6765463" lon="10.9390446"><ele>126.28571428571429</ele><time>2026-03-28T15:37:09.804Z</time></trkpt><trkpt lat="43.676502" lon="10.9389735"><ele>125.57142857142856</ele><time>2026-03-28T15:37:12.859Z</time></trkpt><trkpt lat="43.6764652" lon="10.9388947"><ele>124.85714285714285</ele><time>2026-03-28T15:37:19.827Z</time></trkpt><trkpt lat="43.6764119" lon="10.9388215"><ele>124.14285714285714</ele><time>2026-03-28T15:37:24.859Z</time></trkpt><trkpt lat="43.6763864" lon="10.9387408"><ele>123.42857142857142</ele><time>2026-03-28T15:37:32.868Z</time></trkpt><trkpt lat="43.6763433" lon="10.9386604"><ele>122.7142857142857</ele><time>2026-03-28T15:37:38.142Z</time></trkpt><trkpt lat="43.6762993" lon="10.9385898"><ele>121.99999999999999</ele><time>2026-03-28T15:37:41.859Z</time></trkpt><trkpt lat="43.6762382" lon="10.938524"><ele>121.99999999999999</ele><time>2026-03-28T15:37:46.859Z</time></trkpt><trkpt lat="43.6761868" lon="10.9384554"><ele>122.0</ele><time>2026-03-28T15:37:52.881Z</time></trkpt><trkpt lat="43.6761447" lon="10.9383731"><ele>121.99999999999999</ele><time>2026-03-28T15:37:58.859Z</time></trkpt><trkpt lat="43.676108" lon="10.9382994"><ele>121.99999999999999</ele><time>2026-03-28T15:38:03.87Z</time></trkpt><trkpt lat="43.6760704" lon="10.9382185"><ele>122.0</ele><time>2026-03-28T15:38:09.86Z</time></trkpt><trkpt lat="43.6760354" lon="10.938125"><ele>121.99999999999999</ele><time>2026-03-28T15:38:15.888Z</time></trkpt><trkpt lat="43.676024" lon="10.9380281"><ele>121.99999999999999</ele><time>2026-03-28T15:38:21.86Z</time></trkpt><trkpt lat="43.6760432" lon="10.9379431"><ele>120.99999999999999</ele><time>2026-03-28T15:38:27.859Z</time></trkpt><trkpt lat="43.676086" lon="10.9378636"><ele>120.0</ele><time>2026-03-28T15:38:35.86Z</time></trkpt><trkpt lat="43.6761127" lon="10.9377614"><ele>118.99999999999999</ele><time>2026-03-28T15:38:41.859Z</time></trkpt><trkpt lat="43.6761251" lon="10.9376542"><ele>117.99999999999999</ele><time>2026-03-28T15:38:46.258Z</time></trkpt><trkpt lat="43.6761065" lon="10.9375545"><ele>117.0</ele><time>2026-03-28T15:38:50.481Z</time></trkpt><trkpt lat="43.6761315" lon="10.9374549"><ele>115.99999999999999</ele><time>2026-03-28T15:38:55.793Z</time></trkpt><trkpt lat="43.6761604" lon="10.937367"><ele>114.99999999999999</ele><time>2026-03-28T15:39:00.853Z</time></trkpt><trkpt lat="43.6761829" lon="10.9372798"><ele>112.85714285714285</ele><time>2026-03-28T15:39:05.801Z</time></trkpt><trkpt lat="43.6761852" lon="10.9371816"><ele>110.71428571428571</ele><time>2026-03-28T15:39:11.862Z</time></trkpt><trkpt lat="43.6762252" lon="10.9371094"><ele>108.57142857142857</ele><time>2026-03-28T15:39:16.853Z</time></trkpt><trkpt lat="43.6762556" lon="10.9370292"><ele>106.42857142857142</ele><time>2026-03-28T15:39:21.853Z</time></trkpt><trkpt lat="43.6762833" lon="10.9369471"><ele>104.28571428571428</ele><time>2026-03-28T15:39:26.829Z</time></trkpt><trkpt lat="43.6763086" lon="10.9368635"><ele>102.14285714285715</ele><time>2026-03-28T15:39:31.853Z</time></trkpt><trkpt lat="43.6763331" lon="10.9367783"><ele>100.0</ele><time>2026-03-28T15:39:36.834Z</time></trkpt><trkpt lat="43.676356" lon="10.9366955"><ele>99.57142857142858</ele><time>2026-03-28T15:39:41.74Z</time></trkpt><trkpt lat="43.6763904" lon="10.9366163"><ele>99.14285714285714</ele><time>2026-03-28T15:39:46.853Z</time></trkpt><trkpt lat="43.6764257" lon="10.9365376"><ele>98.71428571428572</ele><time>2026-03-28T15:39:51.855Z</time></trkpt><trkpt lat="43.6764454" lon="10.9364535"><ele>98.28571428571429</ele><time>2026-03-28T15:39:56.862Z</time></trkpt><trkpt lat="43.6764617" lon="10.9363541"><ele>97.85714285714286</ele><time>2026-03-28T15:40:02.853Z</time></trkpt><trkpt lat="43.67648" lon="10.9362681"><ele>97.42857142857143</ele><time>2026-03-28T15:40:08.863Z</time></trkpt><trkpt lat="43.6765008" lon="10.9361791"><ele>97.0</ele><time>2026-03-28T15:40:15.853Z</time></trkpt><trkpt lat="43.6765419" lon="10.9361015"><ele>97.0</ele><time>2026-03-28T15:40:21.853Z</time></trkpt><trkpt lat="43.6765839" lon="10.9360311"><ele>97.0</ele><time>2026-03-28T15:40:26.853Z</time></trkpt><trkpt lat="43.6766166" lon="10.9359522"><ele>97.0</ele><time>2026-03-28T15:40:31.761Z</time></trkpt><trkpt lat="43.6766568" lon="10.93586"><ele>97.0</ele><time>2026-03-28T15:40:36.853Z</time></trkpt><trkpt lat="43.6767046" lon="10.9357818"><ele>97.0</ele><time>2026-03-28T15:40:41.854Z</time></trkpt><trkpt lat="43.6767733" lon="10.9357229"><ele>97.0</ele><time>2026-03-28T15:41:03.853Z</time></trkpt><trkpt lat="43.6768424" lon="10.9356821"><ele>97.0</ele><time>2026-03-28T15:41:08.853Z</time></trkpt><trkpt lat="43.6769053" lon="10.9356549"><ele>95.0</ele><time>2026-03-28T15:41:13.86Z</time></trkpt><trkpt lat="43.676972" lon="10.9356102"><ele>93.0</ele><time>2026-03-28T15:41:19.853Z</time></trkpt><trkpt lat="43.6770442" lon="10.9356081"><ele>91.0</ele><time>2026-03-28T15:41:25.876Z</time></trkpt><trkpt lat="43.6771129" lon="10.9355711"><ele>89.0</ele><time>2026-03-28T15:41:38.821Z</time></trkpt><trkpt lat="43.6771885" lon="10.9355708"><ele>87.0</ele><time>2026-03-28T15:41:43.852Z</time></trkpt><trkpt lat="43.6772574" lon="10.935566"><ele>85.0</ele><time>2026-03-28T15:41:49.849Z</time></trkpt><trkpt lat="43.6773235" lon="10.9355718"><ele>83.0</ele><time>2026-03-28T15:41:57.853Z</time></trkpt><trkpt lat="43.6772508" lon="10.9355412"><ele>83.0</ele><time>2026-03-28T15:43:16.855Z</time></trkpt><trkpt lat="43.6771863" lon="10.9355553"><ele>83.0</ele><time>2026-03-28T15:43:21.854Z</time></trkpt><trkpt lat="43.6771174" lon="10.9355705"><ele>83.0</ele><time>2026-03-28T15:43:26.854Z</time></trkpt><trkpt lat="43.6770443" lon="10.9355902"><ele>83.0</ele><time>2026-03-28T15:43:32.855Z</time></trkpt><trkpt lat="43.6769717" lon="10.9356"><ele>83.0</ele><time>2026-03-28T15:43:38.853Z</time></trkpt><trkpt lat="43.6769061" lon="10.9356114"><ele>83.0</ele><time>2026-03-28T15:43:43.769Z</time></trkpt><trkpt lat="43.6768422" lon="10.9356273"><ele>83.0</ele><time>2026-03-28T15:43:48.843Z</time></trkpt><trkpt lat="43.6767785" lon="10.9356472"><ele>84.42857142857143</ele><time>2026-03-28T15:43:53.854Z</time></trkpt><trkpt lat="43.6767129" lon="10.935655"><ele>85.85714285714286</ele><time>2026-03-28T15:43:58.853Z</time></trkpt><trkpt lat="43.6767187" lon="10.935567"><ele>87.28571428571429</ele><time>2026-03-28T15:44:03.854Z</time></trkpt><trkpt lat="43.6767481" lon="10.9354744"><ele>88.71428571428572</ele><time>2026-03-28T15:44:08.862Z</time></trkpt><trkpt lat="43.6767749" lon="10.9353889"><ele>90.14285714285714</ele><time>2026-03-28T15:44:13.853Z</time></trkpt><trkpt lat="43.6767976" lon="10.9353014"><ele>91.57142857142858</ele><time>2026-03-28T15:44:18.854Z</time></trkpt><trkpt lat="43.6768106" lon="10.9352074"><ele>93.0</ele><time>2026-03-28T15:44:23.86Z</time></trkpt><trkpt lat="43.676823" lon="10.9351124"><ele>92.00000000000001</ele><time>2026-03-28T15:44:28.853Z</time></trkpt><trkpt lat="43.6768339" lon="10.9350217"><ele>91.0</ele><time>2026-03-28T15:44:33.854Z</time></trkpt><trkpt lat="43.676847" lon="10.9349326"><ele>90.0</ele><time>2026-03-28T15:44:38.853Z</time></trkpt><trkpt lat="43.6768571" lon="10.9348457"><ele>89.0</ele><time>2026-03-28T15:44:43.853Z</time></trkpt><trkpt lat="43.6768668" lon="10.9347582"><ele>88.0</ele><time>2026-03-28T15:44:48.853Z</time></trkpt><trkpt lat="43.6768565" lon="10.9346588"><ele>87.00000000000001</ele><time>2026-03-28T15:44:54.853Z</time></trkpt><trkpt lat="43.6768417" lon="10.9345654"><ele>86.0</ele><time>2026-03-28T15:45:00.853Z</time></trkpt><trkpt lat="43.676822" lon="10.9344827"><ele>86.00000000000001</ele><time>2026-03-28T15:45:05.853Z</time></trkpt><trkpt lat="43.676809" lon="10.9343807"><ele>86.0</ele><time>2026-03-28T15:45:11.853Z</time></trkpt><trkpt lat="43.6767977" lon="10.9342932"><ele>86.0</ele><time>2026-03-28T15:45:17.853Z</time></trkpt><trkpt lat="43.6768098" lon="10.9341925"><ele>86.0</ele><time>2026-03-28T15:45:22.762Z</time></trkpt><trkpt lat="43.6767979" lon="10.9340935"><ele>86.0</ele><time>2026-03-28T15:45:27.853Z</time></trkpt><trkpt lat="43.6767913" lon="10.9340001"><ele>86.00000000000001</ele><time>2026-03-28T15:45:32.853Z</time></trkpt><trkpt lat="43.6767691" lon="10.9339166"><ele>86.0</ele><time>2026-03-28T15:45:37.802Z</time></trkpt><trkpt lat="43.676757" lon="10.9338159"><ele>84.57142857142858</ele><time>2026-03-28T15:45:43.821Z</time></trkpt><trkpt lat="43.6767611" lon="10.9337192"><ele>83.14285714285714</ele><time>2026-03-28T15:45:48.853Z</time></trkpt><trkpt lat="43.6767671" lon="10.9336273"><ele>81.71428571428572</ele><time>2026-03-28T15:45:53.825Z</time></trkpt><trkpt lat="43.6767628" lon="10.9335218"><ele>80.28571428571429</ele><time>2026-03-28T15:45:59.822Z</time></trkpt><trkpt lat="43.6767686" lon="10.9334224"><ele>78.85714285714286</ele><time>2026-03-28T15:46:04.854Z</time></trkpt><trkpt lat="43.6767685" lon="10.9333231"><ele>77.42857142857143</ele><time>2026-03-28T15:46:09.876Z</time></trkpt><trkpt lat="43.6767684" lon="10.9332269"><ele>76.0</ele><time>2026-03-28T15:46:14.886Z</time></trkpt><trkpt lat="43.6767635" lon="10.9331293"><ele>75.57142857142857</ele><time>2026-03-28T15:46:19.853Z</time></trkpt><trkpt lat="43.6767541" lon="10.9330307"><ele>75.14285714285715</ele><time>2026-03-28T15:46:24.863Z</time></trkpt><trkpt lat="43.6767448" lon="10.9329394"><ele>74.71428571428572</ele><time>2026-03-28T15:46:29.84Z</time></trkpt><trkpt lat="43.6767327" lon="10.9328491"><ele>74.28571428571428</ele><time>2026-03-28T15:46:34.854Z</time></trkpt><trkpt lat="43.6767238" lon="10.9327534"><ele>73.85714285714286</ele><time>2026-03-28T15:46:39.881Z</time></trkpt><trkpt lat="43.6767142" lon="10.9326649"><ele>73.42857142857143</ele><time>2026-03-28T15:46:44.779Z</time></trkpt><trkpt lat="43.6766965" lon="10.9325689"><ele>73.0</ele><time>2026-03-28T15:46:49.853Z</time></trkpt><trkpt lat="43.6766714" lon="10.932482"><ele>72.42857142857143</ele><time>2026-03-28T15:46:54.854Z</time></trkpt><trkpt lat="43.6766432" lon="10.9323981"><ele>71.85714285714286</ele><time>2026-03-28T15:46:59.853Z</time></trkpt><trkpt lat="43.6766192" lon="10.9323119"><ele>71.28571428571429</ele><time>2026-03-28T15:47:04.853Z</time></trkpt><trkpt lat="43.6765864" lon="10.9322265"><ele>70.71428571428572</ele><time>2026-03-28T15:47:09.771Z</time></trkpt><trkpt lat="43.6765564" lon="10.9321358"><ele>70.14285714285715</ele><time>2026-03-28T15:47:15.777Z</time></trkpt><trkpt lat="43.6765139" lon="10.9320659"><ele>69.57142857142857</ele><time>2026-03-28T15:47:21.853Z</time></trkpt><trkpt lat="43.6764802" lon="10.9319717"><ele>69.0</ele><time>2026-03-28T15:47:27.854Z</time></trkpt><trkpt lat="43.676459" lon="10.931885"><ele>69.0</ele><time>2026-03-28T15:47:32.853Z</time></trkpt><trkpt lat="43.6764347" lon="10.9317971"><ele>69.0</ele><time>2026-03-28T15:47:38.853Z</time></trkpt><trkpt lat="43.6764042" lon="10.9317187"><ele>69.0</ele><time>2026-03-28T15:47:43.854Z</time></trkpt><trkpt lat="43.6763688" lon="10.9316393"><ele>69.0</ele><time>2026-03-28T15:47:48.854Z</time></trkpt><trkpt lat="43.6763345" lon="10.9315563"><ele>69.0</ele><time>2026-03-28T15:47:54.854Z</time></trkpt><trkpt lat="43.6763186" lon="10.9314716"><ele>69.0</ele><time>2026-03-28T15:47:59.854Z</time></trkpt><trkpt lat="43.6762937" lon="10.931387"><ele>69.0</ele><time>2026-03-28T15:48:05.854Z</time></trkpt><trkpt lat="43.6762557" lon="10.9313014"><ele>68.0</ele><time>2026-03-28T15:48:11.853Z</time></trkpt><trkpt lat="43.6762201" lon="10.9312271"><ele>67.0</ele><time>2026-03-28T15:48:16.856Z</time></trkpt><trkpt lat="43.6761708" lon="10.9311486"><ele>66.0</ele><time>2026-03-28T15:48:22.883Z</time></trkpt><trkpt lat="43.676126" lon="10.931084"><ele>65.0</ele><time>2026-03-28T15:48:27.854Z</time></trkpt><trkpt lat="43.6760744" lon="10.931012"><ele>64.0</ele><time>2026-03-28T15:48:33.853Z</time></trkpt><trkpt lat="43.6760233" lon="10.9309437"><ele>63.0</ele><time>2026-03-28T15:48:39.832Z</time></trkpt><trkpt lat="43.6759623" lon="10.9308874"><ele>62.0</ele><time>2026-03-28T15:48:45.854Z</time></trkpt><trkpt lat="43.675917" lon="10.9308245"><ele>60.85714285714286</ele><time>2026-03-28T15:48:50.859Z</time></trkpt><trkpt lat="43.6758695" lon="10.930742"><ele>59.71428571428572</ele><time>2026-03-28T15:48:56.866Z</time></trkpt><trkpt lat="43.6758138" lon="10.9306801"><ele>58.57142857142857</ele><time>2026-03-28T15:49:02.852Z</time></trkpt><trkpt lat="43.6757706" lon="10.9306161"><ele>57.42857142857143</ele><time>2026-03-28T15:49:07.89Z</time></trkpt><trkpt lat="43.6757243" lon="10.9305557"><ele>56.285714285714285</ele><time>2026-03-28T15:49:12.853Z</time></trkpt><trkpt lat="43.6757032" lon="10.9304622"><ele>55.14285714285714</ele><time>2026-03-28T15:49:18.853Z</time></trkpt><trkpt lat="43.6756901" lon="10.9303646"><ele>54.0</ele><time>2026-03-28T15:49:23.852Z</time></trkpt><trkpt lat="43.6757011" lon="10.9302758"><ele>54.0</ele><time>2026-03-28T15:49:27.803Z</time></trkpt><trkpt lat="43.6757159" lon="10.9301858"><ele>54.0</ele><time>2026-03-28T15:49:32.852Z</time></trkpt><trkpt lat="43.6757392" lon="10.9300925"><ele>54.0</ele><time>2026-03-28T15:49:37.853Z</time></trkpt><trkpt lat="43.6757592" lon="10.9299954"><ele>54.0</ele><time>2026-03-28T15:49:42.832Z</time></trkpt><trkpt lat="43.6757825" lon="10.9299043"><ele>54.0</ele><time>2026-03-28T15:49:47.77Z</time></trkpt><trkpt lat="43.6757902" lon="10.9298076"><ele>54.0</ele><time>2026-03-28T15:49:52.852Z</time></trkpt><trkpt lat="43.6758009" lon="10.9297112"><ele>54.0</ele><time>2026-03-28T15:49:57.862Z</time></trkpt><trkpt lat="43.6758207" lon="10.9296226"><ele>52.42857142857143</ele><time>2026-03-28T15:50:02.894Z</time></trkpt><trkpt lat="43.6758361" lon="10.9295363"><ele>50.857142857142854</ele><time>2026-03-28T15:50:07.875Z</time></trkpt><trkpt lat="43.6758566" lon="10.9294462"><ele>49.28571428571429</ele><time>2026-03-28T15:50:12.881Z</time></trkpt><trkpt lat="43.6758719" lon="10.9293591"><ele>47.714285714285715</ele><time>2026-03-28T15:50:17.853Z</time></trkpt><trkpt lat="43.6758808" lon="10.9292682"><ele>46.142857142857146</ele><time>2026-03-28T15:50:22.853Z</time></trkpt><trkpt lat="43.6758886" lon="10.9291697"><ele>44.57142857142858</ele><time>2026-03-28T15:50:28.852Z</time></trkpt><trkpt lat="43.6758812" lon="10.9290669"><ele>43.0</ele><time>2026-03-28T15:50:34.852Z</time></trkpt><trkpt lat="43.6758987" lon="10.9289814"><ele>42.57142857142858</ele><time>2026-03-28T15:50:39.852Z</time></trkpt><trkpt lat="43.6759041" lon="10.9288776"><ele>42.142857142857146</ele><time>2026-03-28T15:50:46.852Z</time></trkpt><trkpt lat="43.675896" lon="10.9287783"><ele>41.714285714285715</ele><time>2026-03-28T15:50:52.852Z</time></trkpt><trkpt lat="43.6758974" lon="10.9286906"><ele>41.28571428571429</ele><time>2026-03-28T15:50:57.853Z</time></trkpt><trkpt lat="43.6759004" lon="10.9285862"><ele>40.85714285714286</ele><time>2026-03-28T15:51:03.852Z</time></trkpt><trkpt lat="43.6759007" lon="10.9284849"><ele>40.42857142857143</ele><time>2026-03-28T15:51:09.852Z</time></trkpt><trkpt lat="43.675895" lon="10.9283977"><ele>40.0</ele><time>2026-03-28T15:51:14.852Z</time></trkpt><trkpt lat="43.6758718" lon="10.9282996"><ele>39.857142857142854</ele><time>2026-03-28T15:51:20.852Z</time></trkpt><trkpt lat="43.6758616" lon="10.9281996"><ele>39.714285714285715</ele><time>2026-03-28T15:51:26.852Z</time></trkpt><trkpt lat="43.675878" lon="10.9281134"><ele>39.57142857142857</ele><time>2026-03-28T15:51:31.852Z</time></trkpt><trkpt lat="43.6759151" lon="10.9280423"><ele>39.42857142857143</ele><time>2026-03-28T15:51:36.852Z</time></trkpt><trkpt lat="43.6759706" lon="10.9279931"><ele>39.285714285714285</ele><time>2026-03-28T15:51:41.853Z</time></trkpt><trkpt lat="43.6760228" lon="10.9279396"><ele>39.142857142857146</ele><time>2026-03-28T15:51:46.852Z</time></trkpt><trkpt lat="43.6760756" lon="10.9278921"><ele>39.0</ele><time>2026-03-28T15:51:51.853Z</time></trkpt><trkpt lat="43.6761336" lon="10.9278331"><ele>39.0</ele><time>2026-03-28T15:51:57.852Z</time></trkpt><trkpt lat="43.6761892" lon="10.9277629"><ele>39.0</ele><time>2026-03-28T15:52:03.852Z</time></trkpt><trkpt lat="43.6762359" lon="10.9277001"><ele>39.0</ele><time>2026-03-28T15:52:08.852Z</time></trkpt><trkpt lat="43.6762887" lon="10.9276302"><ele>39.0</ele><time>2026-03-28T15:52:14.853Z</time></trkpt><trkpt lat="43.6763345" lon="10.9275519"><ele>39.0</ele><time>2026-03-28T15:52:20.852Z</time></trkpt><trkpt lat="43.6763754" lon="10.9274787"><ele>39.0</ele><time>2026-03-28T15:52:25.852Z</time></trkpt><trkpt lat="43.6764277" lon="10.9274083"><ele>39.0</ele><time>2026-03-28T15:52:31.853Z</time></trkpt><trkpt lat="43.6764673" lon="10.9273394"><ele>39.0</ele><time>2026-03-28T15:52:36.852Z</time></trkpt><trkpt lat="43.676513" lon="10.9272628"><ele>39.0</ele><time>2026-03-28T15:52:42.852Z</time></trkpt><trkpt lat="43.6765506" lon="10.927192"><ele>39.0</ele><time>2026-03-28T15:52:47.852Z</time></trkpt><trkpt lat="43.6766005" lon="10.9271185"><ele>39.0</ele><time>2026-03-28T15:52:53.852Z</time></trkpt><trkpt lat="43.6766508" lon="10.9270443"><ele>39.0</ele><time>2026-03-28T15:52:59.852Z</time></trkpt><trkpt lat="43.6767035" lon="10.9269695"><ele>39.0</ele><time>2026-03-28T15:53:05.852Z</time></trkpt><trkpt lat="43.6767516" lon="10.9268901"><ele>39.0</ele><time>2026-03-28T15:53:11.852Z</time></trkpt><trkpt lat="43.6767941" lon="10.9268199"><ele>39.0</ele><time>2026-03-28T15:53:17.852Z</time></trkpt><trkpt lat="43.6768447" lon="10.9267488"><ele>39.0</ele><time>2026-03-28T15:53:23.852Z</time></trkpt><trkpt lat="43.6768862" lon="10.9266757"><ele>39.0</ele><time>2026-03-28T15:53:29.852Z</time></trkpt><trkpt lat="43.6769315" lon="10.9265958"><ele>39.0</ele><time>2026-03-28T15:53:35.852Z</time></trkpt><trkpt lat="43.6769632" lon="10.9265158"><ele>39.0</ele><time>2026-03-28T15:53:40.852Z</time></trkpt><trkpt lat="43.6770031" lon="10.92644"><ele>39.0</ele><time>2026-03-28T15:53:46.852Z</time></trkpt><trkpt lat="43.6770509" lon="10.9263638"><ele>39.0</ele><time>2026-03-28T15:53:52.853Z</time></trkpt><trkpt lat="43.6770951" lon="10.9262839"><ele>39.285714285714285</ele><time>2026-03-28T15:53:58.852Z</time></trkpt><trkpt lat="43.6771344" lon="10.9261972"><ele>39.57142857142857</ele><time>2026-03-28T15:54:04.852Z</time></trkpt><trkpt lat="43.6771745" lon="10.9261281"><ele>39.857142857142854</ele><time>2026-03-28T15:54:09.853Z</time></trkpt><trkpt lat="43.6772135" lon="10.9260593"><ele>40.14285714285714</ele><time>2026-03-28T15:54:14.852Z</time></trkpt><trkpt lat="43.6772522" lon="10.9259778"><ele>40.42857142857143</ele><time>2026-03-28T15:54:20.852Z</time></trkpt><trkpt lat="43.6773022" lon="10.9259035"><ele>40.71428571428571</ele><time>2026-03-28T15:54:26.852Z</time></trkpt><trkpt lat="43.6773295" lon="10.9258142"><ele>41.0</ele><time>2026-03-28T15:54:33.852Z</time></trkpt><trkpt lat="43.6773447" lon="10.9257163"><ele>41.14285714285714</ele><time>2026-03-28T15:54:39.852Z</time></trkpt><trkpt lat="43.6773618" lon="10.9256254"><ele>41.285714285714285</ele><time>2026-03-28T15:54:45.852Z</time></trkpt><trkpt lat="43.6773855" lon="10.9255378"><ele>41.42857142857143</ele><time>2026-03-28T15:54:51.852Z</time></trkpt><trkpt lat="43.6774149" lon="10.9254485"><ele>41.57142857142857</ele><time>2026-03-28T15:54:57.852Z</time></trkpt><trkpt lat="43.6774421" lon="10.9253569"><ele>41.714285714285715</ele><time>2026-03-28T15:55:03.852Z</time></trkpt><trkpt lat="43.6774615" lon="10.925261"><ele>41.857142857142854</ele><time>2026-03-28T15:55:09.852Z</time></trkpt><trkpt lat="43.6774714" lon="10.9251587"><ele>42.0</ele><time>2026-03-28T15:55:15.852Z</time></trkpt><trkpt lat="43.6774916" lon="10.9250718"><ele>41.857142857142854</ele><time>2026-03-28T15:55:21.852Z</time></trkpt><trkpt lat="43.6775083" lon="10.9249799"><ele>41.714285714285715</ele><time>2026-03-28T15:55:27.852Z</time></trkpt><trkpt lat="43.6775322" lon="10.9248854"><ele>41.57142857142857</ele><time>2026-03-28T15:55:33.852Z</time></trkpt><trkpt lat="43.6775445" lon="10.9247923"><ele>41.42857142857143</ele><time>2026-03-28T15:55:38.853Z</time></trkpt><trkpt lat="43.6775629" lon="10.9247067"><ele>41.285714285714285</ele><time>2026-03-28T15:55:44.853Z</time></trkpt><trkpt lat="43.6775762" lon="10.9246132"><ele>41.14285714285714</ele><time>2026-03-28T15:55:50.852Z</time></trkpt><trkpt lat="43.6775966" lon="10.9245156"><ele>41.0</ele><time>2026-03-28T15:55:57.852Z</time></trkpt><trkpt lat="43.6776082" lon="10.9244242"><ele>40.99999999999999</ele><time>2026-03-28T15:56:02.852Z</time></trkpt><trkpt lat="43.6776258" lon="10.9243298"><ele>41.0</ele><time>2026-03-28T15:56:07.853Z</time></trkpt><trkpt lat="43.6776408" lon="10.924241"><ele>41.0</ele><time>2026-03-28T15:56:12.852Z</time></trkpt><trkpt lat="43.6776463" lon="10.9241397"><ele>41.0</ele><time>2026-03-28T15:56:18.852Z</time></trkpt><trkpt lat="43.6776621" lon="10.9240539"><ele>41.0</ele><time>2026-03-28T15:56:23.853Z</time></trkpt><trkpt lat="43.677683" lon="10.9239598"><ele>40.99999999999999</ele><time>2026-03-28T15:56:30.852Z</time></trkpt><trkpt lat="43.6776892" lon="10.9238583"><ele>41.0</ele><time>2026-03-28T15:56:35.852Z</time></trkpt><trkpt lat="43.6777103" lon="10.9237705"><ele>41.14285714285714</ele><time>2026-03-28T15:56:40.853Z</time></trkpt><trkpt lat="43.6777302" lon="10.9236729"><ele>41.285714285714285</ele><time>2026-03-28T15:56:46.852Z</time></trkpt><trkpt lat="43.6777502" lon="10.9235899"><ele>41.42857142857143</ele><time>2026-03-28T15:56:51.852Z</time></trkpt><trkpt lat="43.6777589" lon="10.9235021"><ele>41.57142857142857</ele><time>2026-03-28T15:56:56.853Z</time></trkpt><trkpt lat="43.6777624" lon="10.923409"><ele>41.714285714285715</ele><time>2026-03-28T15:57:01.852Z</time></trkpt><trkpt lat="43.6777824" lon="10.9233094"><ele>41.857142857142854</ele><time>2026-03-28T15:57:07.852Z</time></trkpt><trkpt lat="43.6777953" lon="10.9232226"><ele>42.0</ele><time>2026-03-28T15:57:12.853Z</time></trkpt><trkpt lat="43.6778163" lon="10.9231294"><ele>42.57142857142857</ele><time>2026-03-28T15:57:17.852Z</time></trkpt><trkpt lat="43.677834" lon="10.9230436"><ele>43.14285714285714</ele><time>2026-03-28T15:57:22.853Z</time></trkpt><trkpt lat="43.6778565" lon="10.9229576"><ele>43.714285714285715</ele><time>2026-03-28T15:57:27.853Z</time></trkpt><trkpt lat="43.6778814" lon="10.9228702"><ele>44.285714285714285</ele><time>2026-03-28T15:57:32.853Z</time></trkpt><trkpt lat="43.677907" lon="10.9227845"><ele>44.857142857142854</ele><time>2026-03-28T15:57:37.852Z</time></trkpt><trkpt lat="43.6779473" lon="10.922698"><ele>45.42857142857143</ele><time>2026-03-28T15:57:43.852Z</time></trkpt><trkpt lat="43.6779817" lon="10.9226081"><ele>46.0</ele><time>2026-03-28T15:57:49.853Z</time></trkpt><trkpt lat="43.6780029" lon="10.9225215"><ele>46.0</ele><time>2026-03-28T15:57:56.852Z</time></trkpt><trkpt lat="43.678045" lon="10.9224521"><ele>46.0</ele><time>2026-03-28T15:58:00.853Z</time></trkpt><trkpt lat="43.6780835" lon="10.922383"><ele>46.0</ele><time>2026-03-28T15:58:06.852Z</time></trkpt><trkpt lat="43.6781205" lon="10.9222924"><ele>46.0</ele><time>2026-03-28T15:58:11.852Z</time></trkpt><trkpt lat="43.678157" lon="10.9222021"><ele>46.0</ele><time>2026-03-28T15:58:17.853Z</time></trkpt><trkpt lat="43.6781929" lon="10.9221274"><ele>46.0</ele><time>2026-03-28T15:58:22.852Z</time></trkpt><trkpt lat="43.6782153" lon="10.9220437"><ele>46.0</ele><time>2026-03-28T15:58:27.852Z</time></trkpt><trkpt lat="43.6782546" lon="10.9219705"><ele>46.0</ele><time>2026-03-28T15:58:32.853Z</time></trkpt><trkpt lat="43.678281" lon="10.9218862"><ele>46.0</ele><time>2026-03-28T15:58:37.852Z</time></trkpt><trkpt lat="43.6783111" lon="10.9218002"><ele>46.0</ele><time>2026-03-28T15:58:43.852Z</time></trkpt><trkpt lat="43.6783538" lon="10.9217356"><ele>46.0</ele><time>2026-03-28T15:58:48.852Z</time></trkpt><trkpt lat="43.6783928" lon="10.9216556"><ele>46.0</ele><time>2026-03-28T15:58:54.861Z</time></trkpt><trkpt lat="43.6784278" lon="10.9215714"><ele>46.0</ele><time>2026-03-28T15:59:00.857Z</time></trkpt><trkpt lat="43.6784559" lon="10.9214894"><ele>46.0</ele><time>2026-03-28T15:59:06.853Z</time></trkpt><trkpt lat="43.6785086" lon="10.9214203"><ele>45.85714285714286</ele><time>2026-03-28T15:59:12.852Z</time></trkpt><trkpt lat="43.6785623" lon="10.921365"><ele>45.71428571428571</ele><time>2026-03-28T15:59:19.86Z</time></trkpt><trkpt lat="43.6786122" lon="10.9213007"><ele>45.57142857142857</ele><time>2026-03-28T15:59:24.858Z</time></trkpt><trkpt lat="43.6786635" lon="10.9212495"><ele>45.42857142857143</ele><time>2026-03-28T15:59:29.859Z</time></trkpt><trkpt lat="43.6787235" lon="10.9212057"><ele>45.28571428571429</ele><time>2026-03-28T15:59:34.858Z</time></trkpt><trkpt lat="43.6787916" lon="10.9211796"><ele>45.14285714285714</ele><time>2026-03-28T15:59:40.858Z</time></trkpt><trkpt lat="43.6788531" lon="10.9212329"><ele>45.0</ele><time>2026-03-28T15:59:46.859Z</time></trkpt><trkpt lat="43.6788997" lon="10.9212957"><ele>45.0</ele><time>2026-03-28T15:59:51.858Z</time></trkpt><trkpt lat="43.6789392" lon="10.9213659"><ele>45.0</ele><time>2026-03-28T15:59:56.858Z</time></trkpt><trkpt lat="43.6789755" lon="10.9214518"><ele>45.0</ele><time>2026-03-28T16:00:02.858Z</time></trkpt><trkpt lat="43.6790106" lon="10.9215317"><ele>45.0</ele><time>2026-03-28T16:00:08.858Z</time></trkpt><trkpt lat="43.6790467" lon="10.9216137"><ele>45.0</ele><time>2026-03-28T16:00:14.859Z</time></trkpt><trkpt lat="43.6790834" lon="10.9216932"><ele>45.0</ele><time>2026-03-28T16:00:20.858Z</time></trkpt><trkpt lat="43.6791194" lon="10.921777"><ele>45.0</ele><time>2026-03-28T16:00:26.858Z</time></trkpt><trkpt lat="43.6791613" lon="10.9218453"><ele>45.857142857142854</ele><time>2026-03-28T16:00:31.858Z</time></trkpt><trkpt lat="43.6791987" lon="10.9219354"><ele>46.714285714285715</ele><time>2026-03-28T16:00:37.858Z</time></trkpt><trkpt lat="43.6792246" lon="10.922031"><ele>47.57142857142857</ele><time>2026-03-28T16:00:43.858Z</time></trkpt><trkpt lat="43.6792309" lon="10.9221328"><ele>48.42857142857143</ele><time>2026-03-28T16:00:49.858Z</time></trkpt><trkpt lat="43.6792286" lon="10.9222271"><ele>49.28571428571429</ele><time>2026-03-28T16:00:55.858Z</time></trkpt><trkpt lat="43.6792182" lon="10.9223228"><ele>50.142857142857146</ele><time>2026-03-28T16:01:01.858Z</time></trkpt><trkpt lat="43.6792072" lon="10.9224148"><ele>51.0</ele><time>2026-03-28T16:01:07.858Z</time></trkpt><trkpt lat="43.6791979" lon="10.9225125"><ele>51.42857142857143</ele><time>2026-03-28T16:01:13.858Z</time></trkpt><trkpt lat="43.6791932" lon="10.922609"><ele>51.85714285714286</ele><time>2026-03-28T16:01:19.858Z</time></trkpt><trkpt lat="43.6791892" lon="10.9227086"><ele>52.285714285714285</ele><time>2026-03-28T16:01:25.859Z</time></trkpt><trkpt lat="43.6791845" lon="10.9228082"><ele>52.714285714285715</ele><time>2026-03-28T16:01:31.858Z</time></trkpt><trkpt lat="43.6791748" lon="10.9229033"><ele>53.14285714285714</ele><time>2026-03-28T16:01:37.858Z</time></trkpt><trkpt lat="43.6791721" lon="10.9229997"><ele>53.57142857142857</ele><time>2026-03-28T16:01:43.858Z</time></trkpt><trkpt lat="43.679165" lon="10.9230884"><ele>54.0</ele><time>2026-03-28T16:01:48.858Z</time></trkpt><trkpt lat="43.6791583" lon="10.9231919"><ele>54.0</ele><time>2026-03-28T16:01:54.859Z</time></trkpt><trkpt lat="43.6791494" lon="10.9232913"><ele>54.0</ele><time>2026-03-28T16:02:00.858Z</time></trkpt><trkpt lat="43.6791456" lon="10.9233914"><ele>54.0</ele><time>2026-03-28T16:02:06.858Z</time></trkpt><trkpt lat="43.6791423" lon="10.9234935"><ele>54.0</ele><time>2026-03-28T16:02:12.858Z</time></trkpt><trkpt lat="43.679134" lon="10.9235868"><ele>54.0</ele><time>2026-03-28T16:02:18.859Z</time></trkpt><trkpt lat="43.6791334" lon="10.9236868"><ele>54.0</ele><time>2026-03-28T16:02:24.858Z</time></trkpt><trkpt lat="43.679132" lon="10.9237845"><ele>54.0</ele><time>2026-03-28T16:02:30.859Z</time></trkpt><trkpt lat="43.6791319" lon="10.9238781"><ele>54.57142857142857</ele><time>2026-03-28T16:02:36.858Z</time></trkpt><trkpt lat="43.6791363" lon="10.9239753"><ele>55.14285714285714</ele><time>2026-03-28T16:02:42.858Z</time></trkpt><trkpt lat="43.6791355" lon="10.9240779"><ele>55.71428571428572</ele><time>2026-03-28T16:02:48.858Z</time></trkpt><trkpt lat="43.6791395" lon="10.9241799"><ele>56.28571428571429</ele><time>2026-03-28T16:02:54.858Z</time></trkpt><trkpt lat="43.6791503" lon="10.9242793"><ele>56.85714285714286</ele><time>2026-03-28T16:03:00.858Z</time></trkpt><trkpt lat="43.6791589" lon="10.9243756"><ele>57.42857142857144</ele><time>2026-03-28T16:03:06.858Z</time></trkpt><trkpt lat="43.6791646" lon="10.9244714"><ele>58.00000000000001</ele><time>2026-03-28T16:03:12.858Z</time></trkpt><trkpt lat="43.6791652" lon="10.9245668"><ele>58.85714285714286</ele><time>2026-03-28T16:03:18.858Z</time></trkpt><trkpt lat="43.6791708" lon="10.9246618"><ele>59.714285714285715</ele><time>2026-03-28T16:03:24.858Z</time></trkpt><trkpt lat="43.6791697" lon="10.9247564"><ele>60.57142857142857</ele><time>2026-03-28T16:03:30.858Z</time></trkpt><trkpt lat="43.6791586" lon="10.9248502"><ele>61.42857142857143</ele><time>2026-03-28T16:03:36.858Z</time></trkpt><trkpt lat="43.6791607" lon="10.924945"><ele>62.28571428571428</ele><time>2026-03-28T16:03:42.858Z</time></trkpt><trkpt lat="43.6791733" lon="10.9250413"><ele>63.14285714285714</ele><time>2026-03-28T16:03:48.858Z</time></trkpt><trkpt lat="43.6791806" lon="10.9251332"><ele>64.0</ele><time>2026-03-28T16:03:54.858Z</time></trkpt><trkpt lat="43.6791979" lon="10.9252267"><ele>64.57142857142857</ele><time>2026-03-28T16:04:00.858Z</time></trkpt><trkpt lat="43.6792151" lon="10.9253157"><ele>65.14285714285714</ele><time>2026-03-28T16:04:06.859Z</time></trkpt><trkpt lat="43.6792363" lon="10.9254093"><ele>65.71428571428571</ele><time>2026-03-28T16:04:12.858Z</time></trkpt><trkpt lat="43.6792585" lon="10.9255058"><ele>66.28571428571428</ele><time>2026-03-28T16:04:18.858Z</time></trkpt><trkpt lat="43.679281" lon="10.9255944"><ele>66.85714285714286</ele><time>2026-03-28T16:04:24.858Z</time></trkpt><trkpt lat="43.6793027" lon="10.9256907"><ele>67.42857142857142</ele><time>2026-03-28T16:04:30.859Z</time></trkpt><trkpt lat="43.6793186" lon="10.9257823"><ele>68.0</ele><time>2026-03-28T16:04:36.849Z</time></trkpt><trkpt lat="43.6793448" lon="10.9258736"><ele>68.28571428571428</ele><time>2026-03-28T16:04:42.858Z</time></trkpt><trkpt lat="43.679362" lon="10.9259575"><ele>68.57142857142857</ele><time>2026-03-28T16:04:47.883Z</time></trkpt><trkpt lat="43.679386" lon="10.9260444"><ele>68.85714285714286</ele><time>2026-03-28T16:04:52.858Z</time></trkpt><trkpt lat="43.6794101" lon="10.9261378"><ele>69.14285714285714</ele><time>2026-03-28T16:04:58.833Z</time></trkpt><trkpt lat="43.6794373" lon="10.9262268"><ele>69.42857142857143</ele><time>2026-03-28T16:05:04.863Z</time></trkpt><trkpt lat="43.6794629" lon="10.9263187"><ele>69.71428571428571</ele><time>2026-03-28T16:05:10.859Z</time></trkpt><trkpt lat="43.6794905" lon="10.9264146"><ele>70.0</ele><time>2026-03-28T16:05:16.859Z</time></trkpt><trkpt lat="43.6795241" lon="10.9265001"><ele>71.0</ele><time>2026-03-28T16:05:22.858Z</time></trkpt><trkpt lat="43.6795602" lon="10.9265817"><ele>72.0</ele><time>2026-03-28T16:05:28.858Z</time></trkpt><trkpt lat="43.6795991" lon="10.9266618"><ele>73.0</ele><time>2026-03-28T16:05:34.858Z</time></trkpt><trkpt lat="43.6796408" lon="10.9267422"><ele>74.0</ele><time>2026-03-28T16:05:40.858Z</time></trkpt><trkpt lat="43.6796865" lon="10.9268326"><ele>75.0</ele><time>2026-03-28T16:05:46.853Z</time></trkpt><trkpt lat="43.6797299" lon="10.9269097"><ele>76.0</ele><time>2026-03-28T16:05:52.859Z</time></trkpt><trkpt lat="43.6797674" lon="10.9269845"><ele>77.0</ele><time>2026-03-28T16:05:57.859Z</time></trkpt><trkpt lat="43.6798063" lon="10.9270588"><ele>77.28571428571429</ele><time>2026-03-28T16:06:02.858Z</time></trkpt><trkpt lat="43.6798324" lon="10.9271404"><ele>77.57142857142857</ele><time>2026-03-28T16:06:07.858Z</time></trkpt><trkpt lat="43.6798577" lon="10.927238"><ele>77.85714285714286</ele><time>2026-03-28T16:06:13.859Z</time></trkpt><trkpt lat="43.6798801" lon="10.9273363"><ele>78.14285714285714</ele><time>2026-03-28T16:06:19.858Z</time></trkpt><trkpt lat="43.6799049" lon="10.9274302"><ele>78.42857142857143</ele><time>2026-03-28T16:06:25.859Z</time></trkpt><trkpt lat="43.6799288" lon="10.9275111"><ele>78.71428571428572</ele><time>2026-03-28T16:06:30.858Z</time></trkpt><trkpt lat="43.6799595" lon="10.9275995"><ele>79.0</ele><time>2026-03-28T16:06:36.858Z</time></trkpt><trkpt lat="43.6799908" lon="10.9276878"><ele>79.00000000000001</ele><time>2026-03-28T16:06:42.859Z</time></trkpt><trkpt lat="43.6800235" lon="10.9277735"><ele>79.0</ele><time>2026-03-28T16:06:48.859Z</time></trkpt><trkpt lat="43.6800553" lon="10.9278604"><ele>79.0</ele><time>2026-03-28T16:06:54.858Z</time></trkpt><trkpt lat="43.6800868" lon="10.9279389"><ele>79.0</ele><time>2026-03-28T16:06:59.858Z</time></trkpt><trkpt lat="43.6801198" lon="10.9280293"><ele>79.0</ele><time>2026-03-28T16:07:05.858Z</time></trkpt><trkpt lat="43.6801616" lon="10.928112"><ele>79.00000000000001</ele><time>2026-03-28T16:07:11.858Z</time></trkpt><trkpt lat="43.6801983" lon="10.9281864"><ele>79.0</ele><time>2026-03-28T16:07:16.858Z</time></trkpt><trkpt lat="43.6802327" lon="10.9282598"><ele>79.42857142857143</ele><time>2026-03-28T16:07:21.858Z</time></trkpt><trkpt lat="43.6802744" lon="10.9283411"><ele>79.85714285714286</ele><time>2026-03-28T16:07:27.858Z</time></trkpt><trkpt lat="43.6803199" lon="10.9284122"><ele>80.28571428571428</ele><time>2026-03-28T16:07:33.858Z</time></trkpt><trkpt lat="43.6803701" lon="10.9284811"><ele>80.71428571428572</ele><time>2026-03-28T16:07:39.858Z</time></trkpt><trkpt lat="43.6804163" lon="10.9285523"><ele>81.14285714285714</ele><time>2026-03-28T16:07:45.858Z</time></trkpt><trkpt lat="43.6804618" lon="10.9286262"><ele>81.57142857142857</ele><time>2026-03-28T16:07:51.859Z</time></trkpt><trkpt lat="43.6805026" lon="10.9287008"><ele>82.0</ele><time>2026-03-28T16:07:57.859Z</time></trkpt><trkpt lat="43.6805473" lon="10.9287827"><ele>81.99999999999999</ele><time>2026-03-28T16:08:03.858Z</time></trkpt><trkpt lat="43.6805907" lon="10.9288646"><ele>82.0</ele><time>2026-03-28T16:08:09.858Z</time></trkpt><trkpt lat="43.6806291" lon="10.9289532"><ele>82.0</ele><time>2026-03-28T16:08:15.858Z</time></trkpt><trkpt lat="43.6806702" lon="10.9290358"><ele>82.0</ele><time>2026-03-28T16:08:21.858Z</time></trkpt><trkpt lat="43.6807029" lon="10.9291255"><ele>82.0</ele><time>2026-03-28T16:08:27.858Z</time></trkpt><trkpt lat="43.6807421" lon="10.9292114"><ele>81.99999999999999</ele><time>2026-03-28T16:08:33.858Z</time></trkpt><trkpt lat="43.6807812" lon="10.9292967"><ele>82.0</ele><time>2026-03-28T16:08:39.858Z</time></trkpt><trkpt lat="43.680824" lon="10.9293817"><ele>81.99999999999999</ele><time>2026-03-28T16:08:45.859Z</time></trkpt><trkpt lat="43.6808673" lon="10.9294642"><ele>82.0</ele><time>2026-03-28T16:08:51.858Z</time></trkpt><trkpt lat="43.6809069" lon="10.9295347"><ele>82.0</ele><time>2026-03-28T16:08:56.858Z</time></trkpt><trkpt lat="43.6809559" lon="10.9296129"><ele>82.0</ele><time>2026-03-28T16:09:02.858Z</time></trkpt><trkpt lat="43.6810027" lon="10.9296879"><ele>82.0</ele><time>2026-03-28T16:09:08.858Z</time></trkpt><trkpt lat="43.6810518" lon="10.9297674"><ele>81.99999999999999</ele><time>2026-03-28T16:09:14.858Z</time></trkpt><trkpt lat="43.6810975" lon="10.9298494"><ele>82.0</ele><time>2026-03-28T16:09:20.858Z</time></trkpt><trkpt lat="43.681141" lon="10.9299347"><ele>82.28571428571428</ele><time>2026-03-28T16:09:26.858Z</time></trkpt><trkpt lat="43.6811865" lon="10.9300173"><ele>82.57142857142857</ele><time>2026-03-28T16:09:33.857Z</time></trkpt><trkpt lat="43.6812242" lon="10.9300875"><ele>82.85714285714286</ele><time>2026-03-28T16:09:38.865Z</time></trkpt><trkpt lat="43.6812613" lon="10.9301608"><ele>83.14285714285714</ele><time>2026-03-28T16:09:43.858Z</time></trkpt><trkpt lat="43.681303" lon="10.9302442"><ele>83.42857142857143</ele><time>2026-03-28T16:09:49.858Z</time></trkpt><trkpt lat="43.6813438" lon="10.9303147"><ele>83.71428571428571</ele><time>2026-03-28T16:09:54.857Z</time></trkpt><trkpt lat="43.6813875" lon="10.9303838"><ele>84.0</ele><time>2026-03-28T16:09:59.858Z</time></trkpt><trkpt lat="43.6814325" lon="10.9304619"><ele>84.85714285714286</ele><time>2026-03-28T16:10:05.858Z</time></trkpt><trkpt lat="43.681472" lon="10.9305352"><ele>85.71428571428572</ele><time>2026-03-28T16:10:11.857Z</time></trkpt><trkpt lat="43.6815174" lon="10.9306194"><ele>86.57142857142857</ele><time>2026-03-28T16:10:17.857Z</time></trkpt><trkpt lat="43.6815663" lon="10.9306971"><ele>87.42857142857143</ele><time>2026-03-28T16:10:23.858Z</time></trkpt><trkpt lat="43.6816078" lon="10.9307629"><ele>88.28571428571429</ele><time>2026-03-28T16:10:28.858Z</time></trkpt><trkpt lat="43.681656" lon="10.9308421"><ele>89.14285714285714</ele><time>2026-03-28T16:10:34.857Z</time></trkpt><trkpt lat="43.6816974" lon="10.9309084"><ele>90.0</ele><time>2026-03-28T16:10:39.858Z</time></trkpt><trkpt lat="43.681735" lon="10.9309879"><ele>90.28571428571428</ele><time>2026-03-28T16:10:45.857Z</time></trkpt><trkpt lat="43.6817757" lon="10.9310629"><ele>90.57142857142858</ele><time>2026-03-28T16:10:51.857Z</time></trkpt><trkpt lat="43.6818132" lon="10.9311335"><ele>90.85714285714286</ele><time>2026-03-28T16:10:56.857Z</time></trkpt><trkpt lat="43.6818571" lon="10.931201"><ele>91.14285714285714</ele><time>2026-03-28T16:11:01.857Z</time></trkpt><trkpt lat="43.6818939" lon="10.9312756"><ele>91.42857142857142</ele><time>2026-03-28T16:11:06.857Z</time></trkpt><trkpt lat="43.6819327" lon="10.9313465"><ele>91.71428571428572</ele><time>2026-03-28T16:11:11.857Z</time></trkpt><trkpt lat="43.6819671" lon="10.9314201"><ele>92.0</ele><time>2026-03-28T16:11:18.86Z</time></trkpt><trkpt lat="43.6819941" lon="10.9315159"><ele>93.28571428571429</ele><time>2026-03-28T16:11:23.857Z</time></trkpt><trkpt lat="43.6820248" lon="10.9315978"><ele>94.57142857142857</ele><time>2026-03-28T16:11:29.857Z</time></trkpt><trkpt lat="43.6820594" lon="10.9316814"><ele>95.85714285714286</ele><time>2026-03-28T16:11:35.862Z</time></trkpt><trkpt lat="43.6820993" lon="10.9317611"><ele>97.14285714285714</ele><time>2026-03-28T16:11:41.858Z</time></trkpt><trkpt lat="43.6821413" lon="10.9318349"><ele>98.42857142857142</ele><time>2026-03-28T16:11:47.857Z</time></trkpt><trkpt lat="43.6821764" lon="10.9319172"><ele>99.71428571428571</ele><time>2026-03-28T16:11:53.857Z</time></trkpt><trkpt lat="43.6822179" lon="10.9319998"><ele>101.0</ele><time>2026-03-28T16:11:59.878Z</time></trkpt><trkpt lat="43.6822634" lon="10.932078"><ele>101.85714285714286</ele><time>2026-03-28T16:12:05.857Z</time></trkpt><trkpt lat="43.6823093" lon="10.9321552"><ele>102.71428571428571</ele><time>2026-03-28T16:12:11.857Z</time></trkpt><trkpt lat="43.6823563" lon="10.932239"><ele>103.57142857142858</ele><time>2026-03-28T16:12:17.874Z</time></trkpt><trkpt lat="43.6824005" lon="10.9323075"><ele>104.42857142857143</ele><time>2026-03-28T16:12:23.857Z</time></trkpt><trkpt lat="43.6824528" lon="10.9323735"><ele>105.28571428571429</ele><time>2026-03-28T16:12:29.778Z</time></trkpt><trkpt lat="43.6825096" lon="10.9324395"><ele>106.14285714285715</ele><time>2026-03-28T16:12:35.857Z</time></trkpt><trkpt lat="43.6825586" lon="10.9324957"><ele>107.0</ele><time>2026-03-28T16:12:40.893Z</time></trkpt><trkpt lat="43.6826264" lon="10.9325431"><ele>105.71428571428572</ele><time>2026-03-28T16:12:46.857Z</time></trkpt><trkpt lat="43.682686" lon="10.9325744"><ele>104.42857142857143</ele><time>2026-03-28T16:12:51.876Z</time></trkpt><trkpt lat="43.6827459" lon="10.9326097"><ele>103.14285714285714</ele><time>2026-03-28T16:12:56.857Z</time></trkpt><trkpt lat="43.6828117" lon="10.9326594"><ele>101.85714285714286</ele><time>2026-03-28T16:13:02.857Z</time></trkpt><trkpt lat="43.6828749" lon="10.932711"><ele>100.57142857142857</ele><time>2026-03-28T16:13:08.858Z</time></trkpt><trkpt lat="43.6829221" lon="10.9327706"><ele>99.28571428571429</ele><time>2026-03-28T16:13:13.857Z</time></trkpt><trkpt lat="43.6829615" lon="10.9328389"><ele>98.0</ele><time>2026-03-28T16:13:18.858Z</time></trkpt><trkpt lat="43.6830022" lon="10.9329241"><ele>100.85714285714286</ele><time>2026-03-28T16:13:24.857Z</time></trkpt><trkpt lat="43.6830492" lon="10.9329996"><ele>103.71428571428572</ele><time>2026-03-28T16:13:30.857Z</time></trkpt><trkpt lat="43.6830983" lon="10.9330713"><ele>106.57142857142857</ele><time>2026-03-28T16:13:36.857Z</time></trkpt><trkpt lat="43.6831454" lon="10.9331439"><ele>109.42857142857143</ele><time>2026-03-28T16:13:42.857Z</time></trkpt><trkpt lat="43.6832033" lon="10.9331998"><ele>112.28571428571429</ele><time>2026-03-28T16:13:48.857Z</time></trkpt><trkpt lat="43.6832671" lon="10.933241"><ele>115.14285714285714</ele><time>2026-03-28T16:13:54.858Z</time></trkpt><trkpt lat="43.6833329" lon="10.9332691"><ele>118.0</ele><time>2026-03-28T16:14:00.857Z</time></trkpt><trkpt lat="43.6833961" lon="10.9332854"><ele>118.0</ele><time>2026-03-28T16:14:06.857Z</time></trkpt><trkpt lat="43.6834582" lon="10.9333025"><ele>118.0</ele><time>2026-03-28T16:14:12.857Z</time></trkpt><trkpt lat="43.6835271" lon="10.933319"><ele>118.0</ele><time>2026-03-28T16:14:18.857Z</time></trkpt><trkpt lat="43.6835865" lon="10.9333589"><ele>118.0</ele><time>2026-03-28T16:14:24.873Z</time></trkpt><trkpt lat="43.6836397" lon="10.9334061"><ele>118.0</ele><time>2026-03-28T16:14:30.76Z</time></trkpt><trkpt lat="43.6836969" lon="10.9334653"><ele>118.0</ele><time>2026-03-28T16:14:38.858Z</time></trkpt><trkpt lat="43.6837531" lon="10.9335137"><ele>118.0</ele><time>2026-03-28T16:14:44.858Z</time></trkpt><trkpt lat="43.6838068" lon="10.9335641"><ele>118.14285714285714</ele><time>2026-03-28T16:14:50.857Z</time></trkpt><trkpt lat="43.6838747" lon="10.9335965"><ele>118.28571428571429</ele><time>2026-03-28T16:14:57.874Z</time></trkpt><trkpt lat="43.6839342" lon="10.9336358"><ele>118.42857142857143</ele><time>2026-03-28T16:15:03.857Z</time></trkpt><trkpt lat="43.6839991" lon="10.9336833"><ele>118.57142857142857</ele><time>2026-03-28T16:15:09.857Z</time></trkpt><trkpt lat="43.684055" lon="10.9337397"><ele>118.71428571428572</ele><time>2026-03-28T16:15:15.858Z</time></trkpt><trkpt lat="43.6841154" lon="10.933791"><ele>118.85714285714286</ele><time>2026-03-28T16:15:21.864Z</time></trkpt><trkpt lat="43.6841627" lon="10.9338537"><ele>119.0</ele><time>2026-03-28T16:15:27.857Z</time></trkpt><trkpt lat="43.684205" lon="10.9339356"><ele>119.0</ele><time>2026-03-28T16:15:32.858Z</time></trkpt><trkpt lat="43.6842423" lon="10.9340153"><ele>119.0</ele><time>2026-03-28T16:15:37.857Z</time></trkpt><trkpt lat="43.6842912" lon="10.9340827"><ele>119.0</ele><time>2026-03-28T16:15:41.848Z</time></trkpt><trkpt lat="43.6843362" lon="10.9341499"><ele>119.0</ele><time>2026-03-28T16:15:45.857Z</time></trkpt><trkpt lat="43.684377" lon="10.9342298"><ele>119.0</ele><time>2026-03-28T16:15:49.836Z</time></trkpt><trkpt lat="43.6844201" lon="10.9343228"><ele>119.0</ele><time>2026-03-28T16:15:54.893Z</time></trkpt><trkpt lat="43.6844617" lon="10.9344048"><ele>119.0</ele><time>2026-03-28T16:16:00.857Z</time></trkpt><trkpt lat="43.6844949" lon="10.9344827"><ele>118.42857142857143</ele><time>2026-03-28T16:16:05.857Z</time></trkpt><trkpt lat="43.6845258" lon="10.9345703"><ele>117.85714285714286</ele><time>2026-03-28T16:16:10.857Z</time></trkpt><trkpt lat="43.6845563" lon="10.9346601"><ele>117.28571428571428</ele><time>2026-03-28T16:16:15.858Z</time></trkpt><trkpt lat="43.6845897" lon="10.934746"><ele>116.71428571428571</ele><time>2026-03-28T16:16:20.857Z</time></trkpt><trkpt lat="43.6846197" lon="10.9348227"><ele>116.14285714285714</ele><time>2026-03-28T16:16:25.857Z</time></trkpt><trkpt lat="43.6846532" lon="10.9349008"><ele>115.57142857142856</ele><time>2026-03-28T16:16:30.857Z</time></trkpt><trkpt lat="43.6846877" lon="10.934979"><ele>114.99999999999999</ele><time>2026-03-28T16:16:35.857Z</time></trkpt><trkpt lat="43.6847315" lon="10.935063"><ele>114.99999999999999</ele><time>2026-03-28T16:16:41.857Z</time></trkpt><trkpt lat="43.6847946" lon="10.935061"><ele>115.0</ele><time>2026-03-28T16:16:46.857Z</time></trkpt><trkpt lat="43.6848465" lon="10.9349945"><ele>114.99999999999999</ele><time>2026-03-28T16:16:51.857Z</time></trkpt><trkpt lat="43.6848951" lon="10.9349192"><ele>114.99999999999999</ele><time>2026-03-28T16:16:57.857Z</time></trkpt><trkpt lat="43.6849399" lon="10.9348425"><ele>115.0</ele><time>2026-03-28T16:17:03.857Z</time></trkpt><trkpt lat="43.6849876" lon="10.9347734"><ele>114.99999999999999</ele><time>2026-03-28T16:17:09.857Z</time></trkpt><trkpt lat="43.6850408" lon="10.9347101"><ele>114.99999999999999</ele><time>2026-03-28T16:17:15.858Z</time></trkpt><trkpt lat="43.6850918" lon="10.9346382"><ele>114.99999999999999</ele><time>2026-03-28T16:17:21.857Z</time></trkpt><trkpt lat="43.685138" lon="10.9345771"><ele>115.0</ele><time>2026-03-28T16:17:26.858Z</time></trkpt><trkpt lat="43.6851862" lon="10.9345009"><ele>114.99999999999999</ele><time>2026-03-28T16:17:32.858Z</time></trkpt><trkpt lat="43.6852325" lon="10.9344393"><ele>114.99999999999999</ele><time>2026-03-28T16:17:37.857Z</time></trkpt><trkpt lat="43.6852875" lon="10.9343751"><ele>115.0</ele><time>2026-03-28T16:17:43.857Z</time></trkpt><trkpt lat="43.6853396" lon="10.9343049"><ele>114.99999999999999</ele><time>2026-03-28T16:17:49.857Z</time></trkpt><trkpt lat="43.6853887" lon="10.9342473"><ele>114.99999999999999</ele><time>2026-03-28T16:17:54.857Z</time></trkpt><trkpt lat="43.6854324" lon="10.9341821"><ele>114.99999999999999</ele><time>2026-03-28T16:17:59.857Z</time></trkpt><trkpt lat="43.6854669" lon="10.9341067"><ele>115.0</ele><time>2026-03-28T16:18:05.857Z</time></trkpt><trkpt lat="43.6854501" lon="10.9340202"><ele>114.99999999999999</ele><time>2026-03-28T16:18:14.857Z</time></trkpt><trkpt lat="43.685433" lon="10.9339355"><ele>114.99999999999999</ele><time>2026-03-28T16:18:19.858Z</time></trkpt><trkpt lat="43.6854097" lon="10.9338474"><ele>115.0</ele><time>2026-03-28T16:18:24.858Z</time></trkpt><trkpt lat="43.68539" lon="10.9337634"><ele>114.99999999999999</ele><time>2026-03-28T16:18:29.858Z</time></trkpt><trkpt lat="43.685371" lon="10.9336781"><ele>114.99999999999999</ele><time>2026-03-28T16:18:34.857Z</time></trkpt><trkpt lat="43.6853572" lon="10.9335799"><ele>114.99999999999999</ele><time>2026-03-28T16:18:40.857Z</time></trkpt><trkpt lat="43.6853413" lon="10.933484"><ele>115.0</ele><time>2026-03-28T16:18:46.857Z</time></trkpt><trkpt lat="43.6853336" lon="10.9333967"><ele>114.99999999999999</ele><time>2026-03-28T16:18:52.857Z</time></trkpt><trkpt lat="43.6853121" lon="10.9332963"><ele>114.99999999999999</ele><time>2026-03-28T16:18:58.858Z</time></trkpt><trkpt lat="43.6852986" lon="10.933209"><ele>115.0</ele><time>2026-03-28T16:19:03.857Z</time></trkpt><trkpt lat="43.6852829" lon="10.9331211"><ele>114.99999999999999</ele><time>2026-03-28T16:19:08.857Z</time></trkpt><trkpt lat="43.6852613" lon="10.9330365"><ele>114.99999999999999</ele><time>2026-03-28T16:19:13.857Z</time></trkpt><trkpt lat="43.6852394" lon="10.932954"><ele>116.85714285714283</ele><time>2026-03-28T16:19:18.857Z</time></trkpt><trkpt lat="43.6852229" lon="10.9328565"><ele>118.71428571428571</ele><time>2026-03-28T16:19:24.857Z</time></trkpt><trkpt lat="43.6852041" lon="10.9327608"><ele>120.57142857142856</ele><time>2026-03-28T16:19:30.857Z</time></trkpt><trkpt lat="43.6851892" lon="10.9326594"><ele>122.42857142857142</ele><time>2026-03-28T16:19:36.857Z</time></trkpt><trkpt lat="43.6851705" lon="10.9325749"><ele>124.28571428571428</ele><time>2026-03-28T16:19:41.857Z</time></trkpt><trkpt lat="43.6851551" lon="10.9324893"><ele>126.14285714285714</ele><time>2026-03-28T16:19:46.857Z</time></trkpt><trkpt lat="43.6851402" lon="10.9323909"><ele>128.0</ele><time>2026-03-28T16:19:52.858Z</time></trkpt><trkpt lat="43.685124" lon="10.9323043"><ele>128.0</ele><time>2026-03-28T16:19:57.857Z</time></trkpt><trkpt lat="43.6851118" lon="10.9322039"><ele>127.99999999999999</ele><time>2026-03-28T16:20:03.857Z</time></trkpt><trkpt lat="43.6851417" lon="10.9321197"><ele>128.0</ele><time>2026-03-28T16:20:09.858Z</time></trkpt><trkpt lat="43.6851759" lon="10.9320354"><ele>128.0</ele><time>2026-03-28T16:20:14.857Z</time></trkpt><trkpt lat="43.6852054" lon="10.9319518"><ele>127.99999999999999</ele><time>2026-03-28T16:20:19.857Z</time></trkpt><trkpt lat="43.6852367" lon="10.9318717"><ele>128.0</ele><time>2026-03-28T16:20:24.857Z</time></trkpt><trkpt lat="43.6852639" lon="10.9317928"><ele>128.0</ele><time>2026-03-28T16:20:29.857Z</time></trkpt><trkpt lat="43.6852976" lon="10.9317007"><ele>125.42857142857142</ele><time>2026-03-28T16:20:35.857Z</time></trkpt><trkpt lat="43.6853261" lon="10.9316163"><ele>122.85714285714285</ele><time>2026-03-28T16:20:41.115Z</time></trkpt><trkpt lat="43.6853621" lon="10.9315434"><ele>120.28571428571428</ele><time>2026-03-28T16:20:46.524Z</time></trkpt><trkpt lat="43.6853927" lon="10.9314489"><ele>117.71428571428571</ele><time>2026-03-28T16:20:51.762Z</time></trkpt><trkpt lat="43.6854283" lon="10.9313633"><ele>115.14285714285714</ele><time>2026-03-28T16:20:57.826Z</time></trkpt><trkpt lat="43.6854678" lon="10.931295"><ele>112.57142857142856</ele><time>2026-03-28T16:21:02.784Z</time></trkpt><trkpt lat="43.6855354" lon="10.9312681"><ele>110.0</ele><time>2026-03-28T16:21:07.862Z</time></trkpt><trkpt lat="43.6856036" lon="10.9312938"><ele>109.99999999999999</ele><time>2026-03-28T16:21:12.862Z</time></trkpt><trkpt lat="43.6856715" lon="10.9313241"><ele>110.0</ele><time>2026-03-28T16:21:17.862Z</time></trkpt><trkpt lat="43.6857394" lon="10.9313552"><ele>110.0</ele><time>2026-03-28T16:21:22.786Z</time></trkpt><trkpt lat="43.6858106" lon="10.931371"><ele>110.0</ele><time>2026-03-28T16:21:28.863Z</time></trkpt><trkpt lat="43.6858772" lon="10.9314141"><ele>110.0</ele><time>2026-03-28T16:21:33.862Z</time></trkpt><trkpt lat="43.6859435" lon="10.9314512"><ele>109.99999999999999</ele><time>2026-03-28T16:21:38.862Z</time></trkpt><trkpt lat="43.6859961" lon="10.9315065"><ele>110.0</ele><time>2026-03-28T16:21:43.863Z</time></trkpt><trkpt lat="43.6860447" lon="10.9315732"><ele>109.42857142857142</ele><time>2026-03-28T16:21:48.848Z</time></trkpt><trkpt lat="43.6860956" lon="10.9316473"><ele>108.85714285714286</ele><time>2026-03-28T16:21:54.869Z</time></trkpt><trkpt lat="43.6861484" lon="10.9317142"><ele>108.28571428571428</ele><time>2026-03-28T16:22:00.863Z</time></trkpt><trkpt lat="43.6862038" lon="10.9317816"><ele>107.71428571428571</ele><time>2026-03-28T16:22:06.863Z</time></trkpt><trkpt lat="43.6862585" lon="10.9318517"><ele>107.14285714285714</ele><time>2026-03-28T16:22:12.862Z</time></trkpt><trkpt lat="43.6863075" lon="10.9319079"><ele>106.57142857142857</ele><time>2026-03-28T16:22:17.862Z</time></trkpt><trkpt lat="43.6863533" lon="10.9319683"><ele>106.0</ele><time>2026-03-28T16:22:22.862Z</time></trkpt><trkpt lat="43.6863989" lon="10.9320317"><ele>105.71428571428572</ele><time>2026-03-28T16:22:27.863Z</time></trkpt><trkpt lat="43.6864422" lon="10.9320966"><ele>105.42857142857142</ele><time>2026-03-28T16:22:32.862Z</time></trkpt><trkpt lat="43.6864935" lon="10.9321561"><ele>105.14285714285714</ele><time>2026-03-28T16:22:37.862Z</time></trkpt><trkpt lat="43.6865409" lon="10.9322356"><ele>104.85714285714286</ele><time>2026-03-28T16:22:43.862Z</time></trkpt><trkpt lat="43.6865855" lon="10.9323005"><ele>104.57142857142858</ele><time>2026-03-28T16:22:48.863Z</time></trkpt><trkpt lat="43.6866323" lon="10.9323634"><ele>104.28571428571428</ele><time>2026-03-28T16:22:53.862Z</time></trkpt><trkpt lat="43.6866827" lon="10.9324166"><ele>104.0</ele><time>2026-03-28T16:22:58.862Z</time></trkpt><trkpt lat="43.6867376" lon="10.9324673"><ele>104.0</ele><time>2026-03-28T16:23:03.862Z</time></trkpt><trkpt lat="43.6868079" lon="10.9325051"><ele>104.0</ele><time>2026-03-28T16:23:09.862Z</time></trkpt><trkpt lat="43.6868717" lon="10.9325186"><ele>104.0</ele><time>2026-03-28T16:23:14.862Z</time></trkpt><trkpt lat="43.6869377" lon="10.9325236"><ele>104.0</ele><time>2026-03-28T16:23:19.862Z</time></trkpt><trkpt lat="43.6870007" lon="10.9325281"><ele>104.0</ele><time>2026-03-28T16:23:24.862Z</time></trkpt><trkpt lat="43.6870748" lon="10.9325268"><ele>104.0</ele><time>2026-03-28T16:23:30.863Z</time></trkpt><trkpt lat="43.687139" lon="10.9325196"><ele>104.0</ele><time>2026-03-28T16:23:35.863Z</time></trkpt><trkpt lat="43.6872028" lon="10.9325076"><ele>104.14285714285714</ele><time>2026-03-28T16:23:40.862Z</time></trkpt><trkpt lat="43.6872679" lon="10.9324966"><ele>104.28571428571429</ele><time>2026-03-28T16:23:45.862Z</time></trkpt><trkpt lat="43.6873318" lon="10.9324906"><ele>104.42857142857143</ele><time>2026-03-28T16:23:50.862Z</time></trkpt><trkpt lat="43.6873999" lon="10.9324644"><ele>104.57142857142857</ele><time>2026-03-28T16:23:56.862Z</time></trkpt><trkpt lat="43.6874693" lon="10.9324398"><ele>104.71428571428572</ele><time>2026-03-28T16:24:02.862Z</time></trkpt><trkpt lat="43.6875413" lon="10.9324129"><ele>104.85714285714286</ele><time>2026-03-28T16:24:08.862Z</time></trkpt><trkpt lat="43.6876115" lon="10.9323822"><ele>105.0</ele><time>2026-03-28T16:24:14.862Z</time></trkpt><trkpt lat="43.687675" lon="10.9323626"><ele>105.0</ele><time>2026-03-28T16:24:19.863Z</time></trkpt><trkpt lat="43.6877354" lon="10.9323264"><ele>105.0</ele><time>2026-03-28T16:24:24.863Z</time></trkpt><trkpt lat="43.6877984" lon="10.9322972"><ele>105.0</ele><time>2026-03-28T16:24:29.862Z</time></trkpt><trkpt lat="43.6878613" lon="10.932276"><ele>105.0</ele><time>2026-03-28T16:24:34.862Z</time></trkpt><trkpt lat="43.6879257" lon="10.9322398"><ele>105.0</ele><time>2026-03-28T16:24:39.761Z</time></trkpt><trkpt lat="43.6879909" lon="10.9322131"><ele>105.0</ele><time>2026-03-28T16:24:44.793Z</time></trkpt><trkpt lat="43.6880551" lon="10.9321946"><ele>105.0</ele><time>2026-03-28T16:24:49.862Z</time></trkpt><trkpt lat="43.6881185" lon="10.9321729"><ele>104.85714285714286</ele><time>2026-03-28T16:24:54.826Z</time></trkpt><trkpt lat="43.6881792" lon="10.9321403"><ele>104.71428571428572</ele><time>2026-03-28T16:24:59.811Z</time></trkpt><trkpt lat="43.6882432" lon="10.9321165"><ele>104.57142857142857</ele><time>2026-03-28T16:25:04.863Z</time></trkpt><trkpt lat="43.6883076" lon="10.9321098"><ele>104.42857142857143</ele><time>2026-03-28T16:25:09.853Z</time></trkpt><trkpt lat="43.6883716" lon="10.9320906"><ele>104.28571428571429</ele><time>2026-03-28T16:25:14.849Z</time></trkpt><trkpt lat="43.6884408" lon="10.9320521"><ele>104.14285714285714</ele><time>2026-03-28T16:25:20.862Z</time></trkpt><trkpt lat="43.6885095" lon="10.9320216"><ele>104.0</ele><time>2026-03-28T16:25:26.874Z</time></trkpt><trkpt lat="43.688576" lon="10.9320086"><ele>102.42857142857143</ele><time>2026-03-28T16:25:32.862Z</time></trkpt><trkpt lat="43.6886483" lon="10.9319801"><ele>100.85714285714286</ele><time>2026-03-28T16:25:38.862Z</time></trkpt><trkpt lat="43.6887163" lon="10.9319493"><ele>99.28571428571429</ele><time>2026-03-28T16:25:44.862Z</time></trkpt><trkpt lat="43.688787" lon="10.9319113"><ele>97.71428571428572</ele><time>2026-03-28T16:25:50.862Z</time></trkpt><trkpt lat="43.6888481" lon="10.9318869"><ele>96.14285714285714</ele><time>2026-03-28T16:25:55.862Z</time></trkpt><trkpt lat="43.6889164" lon="10.9318559"><ele>94.57142857142858</ele><time>2026-03-28T16:26:01.863Z</time></trkpt><trkpt lat="43.688981" lon="10.9318279"><ele>93.0</ele><time>2026-03-28T16:26:07.862Z</time></trkpt><trkpt lat="43.6890535" lon="10.9318087"><ele>93.00000000000001</ele><time>2026-03-28T16:26:13.862Z</time></trkpt><trkpt lat="43.6891199" lon="10.9317921"><ele>93.0</ele><time>2026-03-28T16:26:18.862Z</time></trkpt><trkpt lat="43.6891835" lon="10.9317577"><ele>93.0</ele><time>2026-03-28T16:26:23.862Z</time></trkpt><trkpt lat="43.6892444" lon="10.9317251"><ele>93.0</ele><time>2026-03-28T16:26:28.863Z</time></trkpt><trkpt lat="43.6893107" lon="10.931692"><ele>93.0</ele><time>2026-03-28T16:26:34.863Z</time></trkpt><trkpt lat="43.6893784" lon="10.9316521"><ele>93.00000000000001</ele><time>2026-03-28T16:26:40.862Z</time></trkpt><trkpt lat="43.6894401" lon="10.931598"><ele>93.0</ele><time>2026-03-28T16:26:46.862Z</time></trkpt><trkpt lat="43.6894995" lon="10.9315435"><ele>93.14285714285715</ele><time>2026-03-28T16:26:52.863Z</time></trkpt><trkpt lat="43.6895579" lon="10.9314803"><ele>93.28571428571429</ele><time>2026-03-28T16:26:58.862Z</time></trkpt><trkpt lat="43.6896097" lon="10.931419"><ele>93.42857142857143</ele><time>2026-03-28T16:27:03.862Z</time></trkpt><trkpt lat="43.6896582" lon="10.9313446"><ele>93.57142857142858</ele><time>2026-03-28T16:27:08.862Z</time></trkpt><trkpt lat="43.6897036" lon="10.9312796"><ele>93.71428571428571</ele><time>2026-03-28T16:27:13.862Z</time></trkpt><trkpt lat="43.689755" lon="10.9312189"><ele>93.85714285714286</ele><time>2026-03-28T16:27:18.863Z</time></trkpt><trkpt lat="43.6898067" lon="10.9311607"><ele>94.0</ele><time>2026-03-28T16:27:24.863Z</time></trkpt><trkpt lat="43.6898551" lon="10.9310985"><ele>94.0</ele><time>2026-03-28T16:27:29.863Z</time></trkpt><trkpt lat="43.6899091" lon="10.931041"><ele>94.0</ele><time>2026-03-28T16:27:34.863Z</time></trkpt><trkpt lat="43.6899583" lon="10.9309761"><ele>94.0</ele><time>2026-03-28T16:27:39.863Z</time></trkpt><trkpt lat="43.6900038" lon="10.9309152"><ele>94.0</ele><time>2026-03-28T16:27:44.862Z</time></trkpt><trkpt lat="43.6900506" lon="10.9308481"><ele>94.0</ele><time>2026-03-28T16:27:50.863Z</time></trkpt><trkpt lat="43.6901013" lon="10.9307841"><ele>94.0</ele><time>2026-03-28T16:27:56.862Z</time></trkpt><trkpt lat="43.6901487" lon="10.9307231"><ele>94.0</ele><time>2026-03-28T16:28:01.863Z</time></trkpt><trkpt lat="43.6901912" lon="10.9306576"><ele>93.28571428571428</ele><time>2026-03-28T16:28:06.862Z</time></trkpt><trkpt lat="43.6902422" lon="10.930596"><ele>92.57142857142857</ele><time>2026-03-28T16:28:11.862Z</time></trkpt><trkpt lat="43.6902881" lon="10.9305352"><ele>91.85714285714286</ele><time>2026-03-28T16:28:16.862Z</time></trkpt><trkpt lat="43.6903372" lon="10.9304626"><ele>91.14285714285714</ele><time>2026-03-28T16:28:22.862Z</time></trkpt><trkpt lat="43.6903918" lon="10.9304174"><ele>90.42857142857143</ele><time>2026-03-28T16:28:28.862Z</time></trkpt><trkpt lat="43.6904614" lon="10.9303931"><ele>89.71428571428571</ele><time>2026-03-28T16:28:35.862Z</time></trkpt><trkpt lat="43.6905265" lon="10.9304075"><ele>89.0</ele><time>2026-03-28T16:28:41.862Z</time></trkpt><trkpt lat="43.6905934" lon="10.9304392"><ele>89.14285714285714</ele><time>2026-03-28T16:28:47.828Z</time></trkpt><trkpt lat="43.6906377" lon="10.9305121"><ele>89.28571428571428</ele><time>2026-03-28T16:28:53.862Z</time></trkpt><trkpt lat="43.6906707" lon="10.9305913"><ele>89.42857142857142</ele><time>2026-03-28T16:28:58.862Z</time></trkpt><trkpt lat="43.6907044" lon="10.930667"><ele>89.57142857142857</ele><time>2026-03-28T16:29:03.862Z</time></trkpt><trkpt lat="43.6907413" lon="10.9307581"><ele>89.71428571428572</ele><time>2026-03-28T16:29:09.862Z</time></trkpt><trkpt lat="43.6907762" lon="10.9308319"><ele>89.85714285714285</ele><time>2026-03-28T16:29:14.862Z</time></trkpt><trkpt lat="43.6908116" lon="10.9309075"><ele>90.0</ele><time>2026-03-28T16:29:19.862Z</time></trkpt><trkpt lat="43.6908566" lon="10.9309766"><ele>90.0</ele><time>2026-03-28T16:29:25.862Z</time></trkpt><trkpt lat="43.690899" lon="10.9310472"><ele>90.0</ele><time>2026-03-28T16:29:32.862Z</time></trkpt><trkpt lat="43.6909454" lon="10.9311212"><ele>90.0</ele><time>2026-03-28T16:29:38.863Z</time></trkpt><trkpt lat="43.6909811" lon="10.9312084"><ele>90.0</ele><time>2026-03-28T16:29:45.863Z</time></trkpt><trkpt lat="43.6910064" lon="10.9313076"><ele>90.0</ele><time>2026-03-28T16:29:51.862Z</time></trkpt><trkpt lat="43.691024" lon="10.9314035"><ele>90.0</ele><time>2026-03-28T16:29:56.862Z</time></trkpt><trkpt lat="43.6910512" lon="10.9314832"><ele>90.0</ele><time>2026-03-28T16:30:01.862Z</time></trkpt><trkpt lat="43.6910835" lon="10.9315746"><ele>89.42857142857143</ele><time>2026-03-28T16:30:07.862Z</time></trkpt><trkpt lat="43.6911209" lon="10.9316595"><ele>88.85714285714286</ele><time>2026-03-28T16:30:13.863Z</time></trkpt><trkpt lat="43.6911571" lon="10.9317516"><ele>88.28571428571429</ele><time>2026-03-28T16:30:19.863Z</time></trkpt><trkpt lat="43.6911912" lon="10.931829"><ele>87.71428571428572</ele><time>2026-03-28T16:30:24.862Z</time></trkpt><trkpt lat="43.6912325" lon="10.9319087"><ele>87.14285714285714</ele><time>2026-03-28T16:30:30.862Z</time></trkpt><trkpt lat="43.6912684" lon="10.9319899"><ele>86.57142857142858</ele><time>2026-03-28T16:30:36.862Z</time></trkpt><trkpt lat="43.6913012" lon="10.932079"><ele>86.0</ele><time>2026-03-28T16:30:42.863Z</time></trkpt><trkpt lat="43.6913377" lon="10.932167"><ele>86.00000000000001</ele><time>2026-03-28T16:30:48.862Z</time></trkpt><trkpt lat="43.6913753" lon="10.932242"><ele>86.0</ele><time>2026-03-28T16:30:53.863Z</time></trkpt><trkpt lat="43.6914082" lon="10.9323218"><ele>86.0</ele><time>2026-03-28T16:30:58.863Z</time></trkpt><trkpt lat="43.69144" lon="10.9324009"><ele>86.0</ele><time>2026-03-28T16:31:03.862Z</time></trkpt><trkpt lat="43.6914775" lon="10.9324921"><ele>86.0</ele><time>2026-03-28T16:31:09.863Z</time></trkpt><trkpt lat="43.6915102" lon="10.9325712"><ele>86.00000000000001</ele><time>2026-03-28T16:31:14.862Z</time></trkpt><trkpt lat="43.6915369" lon="10.9326509"><ele>86.0</ele><time>2026-03-28T16:31:19.862Z</time></trkpt><trkpt lat="43.6915716" lon="10.9327414"><ele>84.28571428571429</ele><time>2026-03-28T16:31:25.862Z</time></trkpt><trkpt lat="43.6916065" lon="10.9328238"><ele>82.57142857142857</ele><time>2026-03-28T16:31:31.863Z</time></trkpt><trkpt lat="43.6916395" lon="10.9329087"><ele>80.85714285714286</ele><time>2026-03-28T16:31:38.863Z</time></trkpt><trkpt lat="43.691676" lon="10.9329816"><ele>79.14285714285714</ele><time>2026-03-28T16:31:43.862Z</time></trkpt><trkpt lat="43.6917151" lon="10.9330528"><ele>77.42857142857143</ele><time>2026-03-28T16:31:48.862Z</time></trkpt><trkpt lat="43.691757" lon="10.9331233"><ele>75.71428571428572</ele><time>2026-03-28T16:31:53.862Z</time></trkpt><trkpt lat="43.691794" lon="10.9332054"><ele>74.0</ele><time>2026-03-28T16:31:59.86Z</time></trkpt><trkpt lat="43.6918267" lon="10.933282"><ele>74.0</ele><time>2026-03-28T16:32:04.861Z</time></trkpt><trkpt lat="43.6918673" lon="10.933368"><ele>74.0</ele><time>2026-03-28T16:32:10.861Z</time></trkpt><trkpt lat="43.6919241" lon="10.9334366"><ele>74.0</ele><time>2026-03-28T16:32:16.861Z</time></trkpt><trkpt lat="43.6919756" lon="10.9335101"><ele>74.0</ele><time>2026-03-28T16:32:22.862Z</time></trkpt><trkpt lat="43.6920324" lon="10.9335782"><ele>74.0</ele><time>2026-03-28T16:32:28.861Z</time></trkpt><trkpt lat="43.6920861" lon="10.9336292"><ele>74.0</ele><time>2026-03-28T16:32:33.861Z</time></trkpt><trkpt lat="43.6921443" lon="10.9336714"><ele>74.0</ele><time>2026-03-28T16:32:38.861Z</time></trkpt><trkpt lat="43.6922092" lon="10.9337196"><ele>73.85714285714286</ele><time>2026-03-28T16:32:44.861Z</time></trkpt><trkpt lat="43.6922649" lon="10.9337662"><ele>73.71428571428571</ele><time>2026-03-28T16:32:49.861Z</time></trkpt><trkpt lat="43.6923234" lon="10.9338201"><ele>73.57142857142857</ele><time>2026-03-28T16:32:55.862Z</time></trkpt><trkpt lat="43.6923774" lon="10.9338702"><ele>73.42857142857143</ele><time>2026-03-28T16:33:00.861Z</time></trkpt><trkpt lat="43.6924363" lon="10.9339296"><ele>73.28571428571429</ele><time>2026-03-28T16:33:07.861Z</time></trkpt><trkpt lat="43.6924995" lon="10.9339682"><ele>73.14285714285714</ele><time>2026-03-28T16:33:12.862Z</time></trkpt><trkpt lat="43.6925686" lon="10.9340004"><ele>73.0</ele><time>2026-03-28T16:33:17.861Z</time></trkpt><trkpt lat="43.6926339" lon="10.9340385"><ele>73.0</ele><time>2026-03-28T16:33:22.862Z</time></trkpt><trkpt lat="43.6926863" lon="10.9340949"><ele>73.0</ele><time>2026-03-28T16:33:27.862Z</time></trkpt><trkpt lat="43.6927448" lon="10.9341303"><ele>73.0</ele><time>2026-03-28T16:33:32.861Z</time></trkpt><trkpt lat="43.6928151" lon="10.9341719"><ele>73.0</ele><time>2026-03-28T16:33:38.862Z</time></trkpt><trkpt lat="43.6928747" lon="10.934207"><ele>73.0</ele><time>2026-03-28T16:33:43.861Z</time></trkpt><trkpt lat="43.6929338" lon="10.934238"><ele>73.0</ele><time>2026-03-28T16:33:48.861Z</time></trkpt><trkpt lat="43.6929957" lon="10.9342734"><ele>73.0</ele><time>2026-03-28T16:33:53.861Z</time></trkpt><trkpt lat="43.6930568" lon="10.9343019"><ele>72.42857142857143</ele><time>2026-03-28T16:33:58.862Z</time></trkpt><trkpt lat="43.6931208" lon="10.9343301"><ele>71.85714285714286</ele><time>2026-03-28T16:34:03.861Z</time></trkpt><trkpt lat="43.6931827" lon="10.9343599"><ele>71.28571428571429</ele><time>2026-03-28T16:34:08.861Z</time></trkpt><trkpt lat="43.6932453" lon="10.9343828"><ele>70.71428571428572</ele><time>2026-03-28T16:34:13.862Z</time></trkpt><trkpt lat="43.6933191" lon="10.9344082"><ele>70.14285714285715</ele><time>2026-03-28T16:34:19.861Z</time></trkpt><trkpt lat="43.6933831" lon="10.9344274"><ele>69.57142857142857</ele><time>2026-03-28T16:34:24.862Z</time></trkpt><trkpt lat="43.6934538" lon="10.9344501"><ele>69.0</ele><time>2026-03-28T16:34:30.861Z</time></trkpt><trkpt lat="43.6935157" lon="10.9344709"><ele>69.0</ele><time>2026-03-28T16:34:35.862Z</time></trkpt><trkpt lat="43.6935864" lon="10.9345009"><ele>69.0</ele><time>2026-03-28T16:34:41.861Z</time></trkpt><trkpt lat="43.693651" lon="10.9345187"><ele>69.0</ele><time>2026-03-28T16:34:46.862Z</time></trkpt><trkpt lat="43.6937126" lon="10.9345431"><ele>69.0</ele><time>2026-03-28T16:34:51.861Z</time></trkpt><trkpt lat="43.6937767" lon="10.9345652"><ele>69.0</ele><time>2026-03-28T16:34:56.861Z</time></trkpt><trkpt lat="43.6938392" lon="10.9345815"><ele>69.0</ele><time>2026-03-28T16:35:01.861Z</time></trkpt><trkpt lat="43.6939017" lon="10.934602"><ele>69.0</ele><time>2026-03-28T16:35:06.861Z</time></trkpt><trkpt lat="43.6939729" lon="10.9346301"><ele>68.71428571428572</ele><time>2026-03-28T16:35:12.861Z</time></trkpt><trkpt lat="43.6940379" lon="10.9346393"><ele>68.42857142857143</ele><time>2026-03-28T16:35:17.862Z</time></trkpt><trkpt lat="43.69411" lon="10.9346555"><ele>68.14285714285714</ele><time>2026-03-28T16:35:23.861Z</time></trkpt><trkpt lat="43.694183" lon="10.9346671"><ele>67.85714285714286</ele><time>2026-03-28T16:35:29.861Z</time></trkpt><trkpt lat="43.6942482" lon="10.9346807"><ele>67.57142857142857</ele><time>2026-03-28T16:35:34.861Z</time></trkpt><trkpt lat="43.694311" lon="10.9346891"><ele>67.28571428571429</ele><time>2026-03-28T16:35:39.861Z</time></trkpt><trkpt lat="43.6943745" lon="10.9346992"><ele>67.0</ele><time>2026-03-28T16:35:44.861Z</time></trkpt><trkpt lat="43.6944392" lon="10.9347127"><ele>67.0</ele><time>2026-03-28T16:35:49.861Z</time></trkpt><trkpt lat="43.6945033" lon="10.9347206"><ele>67.0</ele><time>2026-03-28T16:35:54.861Z</time></trkpt><trkpt lat="43.6945696" lon="10.9347318"><ele>67.0</ele><time>2026-03-28T16:35:59.861Z</time></trkpt><trkpt lat="43.694644" lon="10.9347517"><ele>67.0</ele><time>2026-03-28T16:36:05.861Z</time></trkpt><trkpt lat="43.6947163" lon="10.9347596"><ele>67.0</ele><time>2026-03-28T16:36:11.862Z</time></trkpt><trkpt lat="43.6947853" lon="10.9347812"><ele>67.0</ele><time>2026-03-28T16:36:17.861Z</time></trkpt><trkpt lat="43.6948594" lon="10.9347996"><ele>67.0</ele><time>2026-03-28T16:36:23.861Z</time></trkpt><trkpt lat="43.694931" lon="10.9348151"><ele>67.0</ele><time>2026-03-28T16:36:29.862Z</time></trkpt><trkpt lat="43.6950029" lon="10.9348256"><ele>67.0</ele><time>2026-03-28T16:36:35.861Z</time></trkpt><trkpt lat="43.6950749" lon="10.934842"><ele>67.0</ele><time>2026-03-28T16:36:41.861Z</time></trkpt><trkpt lat="43.6951453" lon="10.9348558"><ele>67.0</ele><time>2026-03-28T16:36:47.861Z</time></trkpt><trkpt lat="43.6952087" lon="10.9348732"><ele>67.0</ele><time>2026-03-28T16:36:52.861Z</time></trkpt><trkpt lat="43.6952741" lon="10.9348807"><ele>67.0</ele><time>2026-03-28T16:36:57.861Z</time></trkpt><trkpt lat="43.695343" lon="10.9348984"><ele>67.0</ele><time>2026-03-28T16:37:03.861Z</time></trkpt><trkpt lat="43.6954178" lon="10.9348964"><ele>67.0</ele><time>2026-03-28T16:37:10.862Z</time></trkpt><trkpt lat="43.6954809" lon="10.9349141"><ele>67.0</ele><time>2026-03-28T16:37:15.861Z</time></trkpt><trkpt lat="43.6955473" lon="10.934924"><ele>67.0</ele><time>2026-03-28T16:37:20.861Z</time></trkpt><trkpt lat="43.6956133" lon="10.9349328"><ele>67.0</ele><time>2026-03-28T16:37:25.861Z</time></trkpt><trkpt lat="43.6956867" lon="10.9349507"><ele>67.0</ele><time>2026-03-28T16:37:31.861Z</time></trkpt><trkpt lat="43.6957615" lon="10.9349621"><ele>67.0</ele><time>2026-03-28T16:37:37.861Z</time></trkpt><trkpt lat="43.6958265" lon="10.9349735"><ele>67.0</ele><time>2026-03-28T16:37:42.861Z</time></trkpt><trkpt lat="43.6958894" lon="10.9349892"><ele>67.0</ele><time>2026-03-28T16:37:47.862Z</time></trkpt><trkpt lat="43.6959618" lon="10.9350128"><ele>67.0</ele><time>2026-03-28T16:37:53.861Z</time></trkpt><trkpt lat="43.6960321" lon="10.935043"><ele>67.0</ele><time>2026-03-28T16:37:59.862Z</time></trkpt><trkpt lat="43.6960918" lon="10.9350734"><ele>67.0</ele><time>2026-03-28T16:38:04.861Z</time></trkpt><trkpt lat="43.6961591" lon="10.9351138"><ele>67.0</ele><time>2026-03-28T16:38:10.861Z</time></trkpt><trkpt lat="43.6962275" lon="10.9351562"><ele>67.0</ele><time>2026-03-28T16:38:16.861Z</time></trkpt><trkpt lat="43.6962946" lon="10.9351983"><ele>67.0</ele><time>2026-03-28T16:38:22.862Z</time></trkpt><trkpt lat="43.6963553" lon="10.9352341"><ele>66.42857142857143</ele><time>2026-03-28T16:38:27.861Z</time></trkpt><trkpt lat="43.6964232" lon="10.9352777"><ele>65.85714285714286</ele><time>2026-03-28T16:38:33.862Z</time></trkpt><trkpt lat="43.6964885" lon="10.935322"><ele>65.28571428571428</ele><time>2026-03-28T16:38:39.861Z</time></trkpt><trkpt lat="43.6965447" lon="10.9353723"><ele>64.71428571428572</ele><time>2026-03-28T16:38:46.862Z</time></trkpt><trkpt lat="43.6966049" lon="10.9354118"><ele>64.14285714285714</ele><time>2026-03-28T16:38:51.861Z</time></trkpt><trkpt lat="43.6966678" lon="10.9354535"><ele>63.57142857142857</ele><time>2026-03-28T16:38:56.861Z</time></trkpt><trkpt lat="43.6967265" lon="10.9354938"><ele>63.0</ele><time>2026-03-28T16:39:01.861Z</time></trkpt><trkpt lat="43.696795" lon="10.9355285"><ele>63.0</ele><time>2026-03-28T16:39:07.861Z</time></trkpt><trkpt lat="43.6968587" lon="10.9355557"><ele>63.0</ele><time>2026-03-28T16:39:12.861Z</time></trkpt><trkpt lat="43.6969284" lon="10.9355811"><ele>63.0</ele><time>2026-03-28T16:39:18.861Z</time></trkpt><trkpt lat="43.6969898" lon="10.935601"><ele>63.0</ele><time>2026-03-28T16:39:23.861Z</time></trkpt><trkpt lat="43.697054" lon="10.9356203"><ele>63.0</ele><time>2026-03-28T16:39:28.861Z</time></trkpt><trkpt lat="43.6971185" lon="10.9356316"><ele>63.0</ele><time>2026-03-28T16:39:33.861Z</time></trkpt><trkpt lat="43.6971787" lon="10.9356571"><ele>63.0</ele><time>2026-03-28T16:39:38.861Z</time></trkpt><trkpt lat="43.6972508" lon="10.9356753"><ele>62.714285714285715</ele><time>2026-03-28T16:39:44.862Z</time></trkpt><trkpt lat="43.6973136" lon="10.9356975"><ele>62.42857142857143</ele><time>2026-03-28T16:39:49.861Z</time></trkpt><trkpt lat="43.6973866" lon="10.9357198"><ele>62.14285714285714</ele><time>2026-03-28T16:39:55.861Z</time></trkpt><trkpt lat="43.6974479" lon="10.9357423"><ele>61.857142857142854</ele><time>2026-03-28T16:40:00.862Z</time></trkpt><trkpt lat="43.6975123" lon="10.9357686"><ele>61.57142857142857</ele><time>2026-03-28T16:40:05.861Z</time></trkpt><trkpt lat="43.6975753" lon="10.9358042"><ele>61.28571428571428</ele><time>2026-03-28T16:40:10.861Z</time></trkpt><trkpt lat="43.6976373" lon="10.9358406"><ele>60.99999999999999</ele><time>2026-03-28T16:40:15.861Z</time></trkpt><trkpt lat="43.6976984" lon="10.9358702"><ele>61.14285714285714</ele><time>2026-03-28T16:40:20.861Z</time></trkpt><trkpt lat="43.6977559" lon="10.9359173"><ele>61.285714285714285</ele><time>2026-03-28T16:40:25.861Z</time></trkpt><trkpt lat="43.6978092" lon="10.9359672"><ele>61.42857142857143</ele><time>2026-03-28T16:40:30.861Z</time></trkpt><trkpt lat="43.6978573" lon="10.9360257"><ele>61.57142857142857</ele><time>2026-03-28T16:40:35.862Z</time></trkpt><trkpt lat="43.6979033" lon="10.9360957"><ele>61.71428571428572</ele><time>2026-03-28T16:40:42.862Z</time></trkpt><trkpt lat="43.6979614" lon="10.9361373"><ele>61.85714285714286</ele><time>2026-03-28T16:40:48.861Z</time></trkpt><trkpt lat="43.6980234" lon="10.9361647"><ele>62.0</ele><time>2026-03-28T16:40:54.861Z</time></trkpt><trkpt lat="43.6980902" lon="10.9361971"><ele>62.0</ele><time>2026-03-28T16:41:01.861Z</time></trkpt><trkpt lat="43.6981584" lon="10.9362384"><ele>62.00000000000001</ele><time>2026-03-28T16:41:08.861Z</time></trkpt><trkpt lat="43.6982303" lon="10.9362631"><ele>62.0</ele><time>2026-03-28T16:41:13.861Z</time></trkpt><trkpt lat="43.6983032" lon="10.9362772"><ele>62.0</ele><time>2026-03-28T16:41:19.862Z</time></trkpt><trkpt lat="43.6983662" lon="10.9362965"><ele>62.00000000000001</ele><time>2026-03-28T16:41:25.861Z</time></trkpt><trkpt lat="43.6984385" lon="10.9363177"><ele>62.0</ele><time>2026-03-28T16:41:31.861Z</time></trkpt><trkpt lat="43.6985057" lon="10.9363314"><ele>62.0</ele><time>2026-03-28T16:41:36.862Z</time></trkpt><trkpt lat="43.6985773" lon="10.9363486"><ele>61.57142857142858</ele><time>2026-03-28T16:41:42.862Z</time></trkpt><trkpt lat="43.698644" lon="10.9363633"><ele>61.14285714285715</ele><time>2026-03-28T16:41:46.861Z</time></trkpt><trkpt lat="43.6987114" lon="10.9363848"><ele>60.714285714285715</ele><time>2026-03-28T16:41:51.861Z</time></trkpt><trkpt lat="43.6987772" lon="10.9364224"><ele>60.28571428571429</ele><time>2026-03-28T16:41:57.862Z</time></trkpt><trkpt lat="43.6988422" lon="10.9364591"><ele>59.85714285714286</ele><time>2026-03-28T16:42:03.862Z</time></trkpt><trkpt lat="43.6989045" lon="10.9364787"><ele>59.42857142857143</ele><time>2026-03-28T16:42:08.861Z</time></trkpt><trkpt lat="43.6989792" lon="10.9364838"><ele>59.0</ele><time>2026-03-28T16:42:13.861Z</time></trkpt><trkpt lat="43.6990442" lon="10.9364976"><ele>59.0</ele><time>2026-03-28T16:42:18.862Z</time></trkpt><trkpt lat="43.6991038" lon="10.9365407"><ele>59.0</ele><time>2026-03-28T16:42:33.861Z</time></trkpt><trkpt lat="43.6991641" lon="10.9365884"><ele>59.0</ele><time>2026-03-28T16:42:39.861Z</time></trkpt><trkpt lat="43.699203" lon="10.9366587"><ele>59.0</ele><time>2026-03-28T16:42:45.862Z</time></trkpt><trkpt lat="43.6992472" lon="10.9367332"><ele>59.0</ele><time>2026-03-28T16:42:51.861Z</time></trkpt><trkpt lat="43.6992982" lon="10.936807"><ele>59.0</ele><time>2026-03-28T16:42:57.861Z</time></trkpt><trkpt lat="43.6993563" lon="10.9368686"><ele>59.0</ele><time>2026-03-28T16:43:02.861Z</time></trkpt><trkpt lat="43.6994034" lon="10.9369488"><ele>55.857142857142854</ele><time>2026-03-28T16:43:08.869Z</time></trkpt><trkpt lat="43.6994188" lon="10.9370415"><ele>52.714285714285715</ele><time>2026-03-28T16:43:13.866Z</time></trkpt><trkpt lat="43.699426" lon="10.9371294"><ele>49.57142857142857</ele><time>2026-03-28T16:43:18.866Z</time></trkpt><trkpt lat="43.6994351" lon="10.937218"><ele>46.42857142857143</ele><time>2026-03-28T16:43:23.866Z</time></trkpt><trkpt lat="43.6994439" lon="10.9373216"><ele>43.285714285714285</ele><time>2026-03-28T16:43:29.866Z</time></trkpt><trkpt lat="43.6994506" lon="10.9374103"><ele>40.142857142857146</ele><time>2026-03-28T16:43:34.866Z</time></trkpt><trkpt lat="43.6994548" lon="10.9374984"><ele>37.0</ele><time>2026-03-28T16:43:39.866Z</time></trkpt><trkpt lat="43.6994598" lon="10.9375974"><ele>36.57142857142857</ele><time>2026-03-28T16:43:45.866Z</time></trkpt><trkpt lat="43.6994699" lon="10.9376835"><ele>36.14285714285714</ele><time>2026-03-28T16:43:50.866Z</time></trkpt><trkpt lat="43.6994899" lon="10.9377801"><ele>35.71428571428571</ele><time>2026-03-28T16:43:56.866Z</time></trkpt><trkpt lat="43.699505" lon="10.9378658"><ele>35.285714285714285</ele><time>2026-03-28T16:44:01.867Z</time></trkpt><trkpt lat="43.6995348" lon="10.9379562"><ele>34.857142857142854</ele><time>2026-03-28T16:44:07.866Z</time></trkpt><trkpt lat="43.6995557" lon="10.9380428"><ele>34.42857142857142</ele><time>2026-03-28T16:44:14.867Z</time></trkpt><trkpt lat="43.6995867" lon="10.9381225"><ele>34.0</ele><time>2026-03-28T16:44:20.866Z</time></trkpt><trkpt lat="43.699622" lon="10.9382009"><ele>33.99999999999999</ele><time>2026-03-28T16:44:25.866Z</time></trkpt><trkpt lat="43.6996608" lon="10.9382808"><ele>34.0</ele><time>2026-03-28T16:44:30.866Z</time></trkpt><trkpt lat="43.6997071" lon="10.9383581"><ele>34.0</ele><time>2026-03-28T16:44:36.867Z</time></trkpt><trkpt lat="43.6997374" lon="10.9384351"><ele>34.0</ele><time>2026-03-28T16:44:41.866Z</time></trkpt><trkpt lat="43.6997804" lon="10.9385074"><ele>34.0</ele><time>2026-03-28T16:44:47.866Z</time></trkpt><trkpt lat="43.6998072" lon="10.938589"><ele>33.99999999999999</ele><time>2026-03-28T16:44:53.866Z</time></trkpt><trkpt lat="43.6998587" lon="10.9386551"><ele>34.0</ele><time>2026-03-28T16:44:59.866Z</time></trkpt><trkpt lat="43.6999174" lon="10.9386916"><ele>33.99999999999999</ele><time>2026-03-28T16:45:31.867Z</time></trkpt><trkpt lat="43.6999691" lon="10.9387544"><ele>34.0</ele><time>2026-03-28T16:45:38.866Z</time></trkpt><trkpt lat="43.7000281" lon="10.9388127"><ele>34.0</ele><time>2026-03-28T16:45:43.867Z</time></trkpt><trkpt lat="43.7000712" lon="10.9388937"><ele>34.0</ele><time>2026-03-28T16:45:48.866Z</time></trkpt><trkpt lat="43.7001264" lon="10.9389547"><ele>34.0</ele><time>2026-03-28T16:45:53.866Z</time></trkpt><trkpt lat="43.700169" lon="10.9390189"><ele>33.99999999999999</ele><time>2026-03-28T16:45:58.866Z</time></trkpt><trkpt lat="43.7002164" lon="10.9390774"><ele>34.0</ele><time>2026-03-28T16:46:03.866Z</time></trkpt><trkpt lat="43.7002695" lon="10.9391467"><ele>33.71428571428571</ele><time>2026-03-28T16:46:09.867Z</time></trkpt><trkpt lat="43.7003122" lon="10.9392148"><ele>33.42857142857143</ele><time>2026-03-28T16:46:14.866Z</time></trkpt><trkpt lat="43.7003564" lon="10.9392779"><ele>33.14285714285714</ele><time>2026-03-28T16:46:20.866Z</time></trkpt><trkpt lat="43.7004122" lon="10.9393234"><ele>32.857142857142854</ele><time>2026-03-28T16:46:25.866Z</time></trkpt><trkpt lat="43.700476" lon="10.939381"><ele>32.57142857142857</ele><time>2026-03-28T16:46:31.866Z</time></trkpt><trkpt lat="43.7005395" lon="10.9394335"><ele>32.285714285714285</ele><time>2026-03-28T16:46:36.866Z</time></trkpt><trkpt lat="43.7005998" lon="10.9394751"><ele>32.0</ele><time>2026-03-28T16:46:41.866Z</time></trkpt><trkpt lat="43.7006595" lon="10.939528"><ele>32.0</ele><time>2026-03-28T16:46:47.866Z</time></trkpt><trkpt lat="43.7007178" lon="10.9395696"><ele>31.999999999999996</ele><time>2026-03-28T16:46:53.866Z</time></trkpt><trkpt lat="43.7007678" lon="10.939636"><ele>32.0</ele><time>2026-03-28T16:46:58.866Z</time></trkpt><trkpt lat="43.7008232" lon="10.9396814"><ele>32.0</ele><time>2026-03-28T16:47:02.866Z</time></trkpt><trkpt lat="43.7008876" lon="10.939726"><ele>31.999999999999996</ele><time>2026-03-28T16:47:08.866Z</time></trkpt><trkpt lat="43.7009488" lon="10.9397827"><ele>32.0</ele><time>2026-03-28T16:47:14.866Z</time></trkpt><trkpt lat="43.7010079" lon="10.9398215"><ele>32.0</ele><time>2026-03-28T16:47:19.867Z</time></trkpt><trkpt lat="43.7010799" lon="10.9398465"><ele>31.71428571428571</ele><time>2026-03-28T16:47:24.866Z</time></trkpt><trkpt lat="43.7011437" lon="10.9398784"><ele>31.428571428571423</ele><time>2026-03-28T16:47:29.867Z</time></trkpt><trkpt lat="43.7011979" lon="10.9399243"><ele>31.142857142857142</ele><time>2026-03-28T16:47:34.866Z</time></trkpt><trkpt lat="43.7012473" lon="10.9400004"><ele>30.857142857142854</ele><time>2026-03-28T16:47:40.866Z</time></trkpt><trkpt lat="43.7013006" lon="10.9400615"><ele>30.57142857142857</ele><time>2026-03-28T16:47:46.866Z</time></trkpt><trkpt lat="43.7013605" lon="10.940097"><ele>30.285714285714285</ele><time>2026-03-28T16:47:51.866Z</time></trkpt><trkpt lat="43.701418" lon="10.9401326"><ele>30.0</ele><time>2026-03-28T16:47:56.866Z</time></trkpt><trkpt lat="43.7014764" lon="10.9401695"><ele>30.0</ele><time>2026-03-28T16:48:04.866Z</time></trkpt><trkpt lat="43.7015443" lon="10.9401955"><ele>30.0</ele><time>2026-03-28T16:48:09.866Z</time></trkpt><trkpt lat="43.7015975" lon="10.9402432"><ele>30.0</ele><time>2026-03-28T16:48:14.866Z</time></trkpt><trkpt lat="43.7016653" lon="10.9402942"><ele>30.0</ele><time>2026-03-28T16:48:20.866Z</time></trkpt><trkpt lat="43.7017318" lon="10.9403266"><ele>30.0</ele><time>2026-03-28T16:48:25.866Z</time></trkpt><trkpt lat="43.701794" lon="10.9403706"><ele>30.0</ele><time>2026-03-28T16:48:30.866Z</time></trkpt><trkpt lat="43.7018604" lon="10.9404168"><ele>30.0</ele><time>2026-03-28T16:48:36.866Z</time></trkpt><trkpt lat="43.7019316" lon="10.9404515"><ele>30.0</ele><time>2026-03-28T16:48:42.866Z</time></trkpt><trkpt lat="43.7019831" lon="10.9405152"><ele>30.0</ele><time>2026-03-28T16:48:48.867Z</time></trkpt><trkpt lat="43.7020106" lon="10.9406051"><ele>30.0</ele><time>2026-03-28T16:49:04.866Z</time></trkpt><trkpt lat="43.7020584" lon="10.9406665"><ele>30.0</ele><time>2026-03-28T16:49:10.867Z</time></trkpt><trkpt lat="43.7021187" lon="10.9407291"><ele>30.0</ele><time>2026-03-28T16:49:16.866Z</time></trkpt><trkpt lat="43.7021624" lon="10.940796"><ele>30.0</ele><time>2026-03-28T16:49:21.866Z</time></trkpt><trkpt lat="43.7022152" lon="10.9408507"><ele>30.0</ele><time>2026-03-28T16:49:26.866Z</time></trkpt><trkpt lat="43.7022781" lon="10.9409045"><ele>30.0</ele><time>2026-03-28T16:49:31.867Z</time></trkpt><trkpt lat="43.7023322" lon="10.940964"><ele>30.0</ele><time>2026-03-28T16:49:36.867Z</time></trkpt><trkpt lat="43.7022883" lon="10.9410267"><ele>30.0</ele><time>2026-03-28T16:49:45.866Z</time></trkpt><trkpt lat="43.7022229" lon="10.9410167"><ele>30.0</ele><time>2026-03-28T16:49:51.867Z</time></trkpt><trkpt lat="43.7021548" lon="10.9410391"><ele>30.0</ele><time>2026-03-28T16:49:57.866Z</time></trkpt><trkpt lat="43.7020873" lon="10.9410592"><ele>30.0</ele><time>2026-03-28T16:50:04.866Z</time></trkpt><trkpt lat="43.7020169" lon="10.9410815"><ele>30.0</ele><time>2026-03-28T16:50:10.866Z</time></trkpt><trkpt lat="43.7019475" lon="10.9411005"><ele>30.0</ele><time>2026-03-28T16:50:15.866Z</time></trkpt><trkpt lat="43.7018772" lon="10.9411202"><ele>30.0</ele><time>2026-03-28T16:50:20.866Z</time></trkpt><trkpt lat="43.7018146" lon="10.9411343"><ele>30.0</ele><time>2026-03-28T16:50:25.866Z</time></trkpt><trkpt lat="43.7017422" lon="10.9411538"><ele>30.0</ele><time>2026-03-28T16:50:31.866Z</time></trkpt><trkpt lat="43.7016725" lon="10.9411617"><ele>30.0</ele><time>2026-03-28T16:50:37.866Z</time></trkpt><trkpt lat="43.7016084" lon="10.9411783"><ele>30.0</ele><time>2026-03-28T16:50:42.866Z</time></trkpt><trkpt lat="43.7015421" lon="10.9411895"><ele>30.0</ele><time>2026-03-28T16:50:47.867Z</time></trkpt><trkpt lat="43.7014777" lon="10.9412136"><ele>30.0</ele><time>2026-03-28T16:50:52.866Z</time></trkpt><trkpt lat="43.7014116" lon="10.9412412"><ele>30.0</ele><time>2026-03-28T16:50:57.866Z</time></trkpt><trkpt lat="43.7013506" lon="10.9412694"><ele>30.0</ele><time>2026-03-28T16:51:02.866Z</time></trkpt><trkpt lat="43.7012863" lon="10.9413037"><ele>30.0</ele><time>2026-03-28T16:51:12.867Z</time></trkpt><trkpt lat="43.7012161" lon="10.9413209"><ele>30.0</ele><time>2026-03-28T16:51:17.866Z</time></trkpt><trkpt lat="43.7011466" lon="10.9413335"><ele>30.0</ele><time>2026-03-28T16:51:22.866Z</time></trkpt><trkpt lat="43.7010859" lon="10.9413632"><ele>30.0</ele><time>2026-03-28T16:51:27.866Z</time></trkpt><trkpt lat="43.7010333" lon="10.9414219"><ele>30.142857142857146</ele><time>2026-03-28T16:51:32.867Z</time></trkpt><trkpt lat="43.7009639" lon="10.9414635"><ele>30.285714285714285</ele><time>2026-03-28T16:51:38.867Z</time></trkpt><trkpt lat="43.7008957" lon="10.941468"><ele>30.42857142857143</ele><time>2026-03-28T16:51:43.867Z</time></trkpt><trkpt lat="43.7008289" lon="10.9414946"><ele>30.571428571428573</ele><time>2026-03-28T16:51:48.866Z</time></trkpt><trkpt lat="43.7007634" lon="10.9415167"><ele>30.714285714285715</ele><time>2026-03-28T16:51:53.866Z</time></trkpt><trkpt lat="43.7006939" lon="10.941539"><ele>30.857142857142858</ele><time>2026-03-28T16:51:58.866Z</time></trkpt><trkpt lat="43.700627" lon="10.9415558"><ele>31.0</ele><time>2026-03-28T16:52:03.866Z</time></trkpt><trkpt lat="43.7005609" lon="10.9415762"><ele>31.0</ele><time>2026-03-28T16:52:08.867Z</time></trkpt><trkpt lat="43.700494" lon="10.9415953"><ele>31.000000000000004</ele><time>2026-03-28T16:52:13.866Z</time></trkpt><trkpt lat="43.7004287" lon="10.9416177"><ele>31.0</ele><time>2026-03-28T16:52:18.866Z</time></trkpt><trkpt lat="43.7003638" lon="10.9416259"><ele>31.0</ele><time>2026-03-28T16:52:23.866Z</time></trkpt><trkpt lat="43.7002993" lon="10.9416441"><ele>31.000000000000004</ele><time>2026-03-28T16:52:28.867Z</time></trkpt><trkpt lat="43.7002491" lon="10.9416993"><ele>31.0</ele><time>2026-03-28T16:52:33.866Z</time></trkpt><trkpt lat="43.7002286" lon="10.9417876"><ele>31.0</ele><time>2026-03-28T16:52:38.866Z</time></trkpt><trkpt lat="43.7002373" lon="10.9418757"><ele>31.0</ele><time>2026-03-28T16:52:43.866Z</time></trkpt><trkpt lat="43.7002474" lon="10.9419793"><ele>31.000000000000004</ele><time>2026-03-28T16:52:49.866Z</time></trkpt><trkpt lat="43.7002623" lon="10.9420697"><ele>31.0</ele><time>2026-03-28T16:52:54.866Z</time></trkpt><trkpt lat="43.7002702" lon="10.942161"><ele>31.0</ele><time>2026-03-28T16:52:59.866Z</time></trkpt><trkpt lat="43.7002871" lon="10.9422502"><ele>31.000000000000004</ele><time>2026-03-28T16:53:04.867Z</time></trkpt><trkpt lat="43.7003023" lon="10.9423415"><ele>31.0</ele><time>2026-03-28T16:53:09.866Z</time></trkpt><trkpt lat="43.7003052" lon="10.942435"><ele>31.0</ele><time>2026-03-28T16:53:14.867Z</time></trkpt><trkpt lat="43.7003023" lon="10.9425365"><ele>30.857142857142858</ele><time>2026-03-28T16:53:20.867Z</time></trkpt><trkpt lat="43.7002895" lon="10.942636"><ele>30.714285714285715</ele><time>2026-03-28T16:53:25.868Z</time></trkpt><trkpt lat="43.7002806" lon="10.9427282"><ele>30.571428571428573</ele><time>2026-03-28T16:53:30.868Z</time></trkpt><trkpt lat="43.7002682" lon="10.9428178"><ele>30.42857142857143</ele><time>2026-03-28T16:53:35.869Z</time></trkpt><trkpt lat="43.7002495" lon="10.9429054"><ele>30.285714285714285</ele><time>2026-03-28T16:53:40.868Z</time></trkpt><trkpt lat="43.7002298" lon="10.942993"><ele>30.142857142857146</ele><time>2026-03-28T16:53:45.868Z</time></trkpt><trkpt lat="43.7002004" lon="10.9430703"><ele>30.0</ele><time>2026-03-28T16:53:50.869Z</time></trkpt><trkpt lat="43.7001526" lon="10.943132"><ele>30.0</ele><time>2026-03-28T16:53:55.868Z</time></trkpt><trkpt lat="43.7001004" lon="10.9431849"><ele>30.0</ele><time>2026-03-28T16:54:01.869Z</time></trkpt><trkpt lat="43.7000414" lon="10.9432444"><ele>30.0</ele><time>2026-03-28T16:54:07.868Z</time></trkpt><trkpt lat="43.6999884" lon="10.9433016"><ele>30.0</ele><time>2026-03-28T16:54:12.868Z</time></trkpt><trkpt lat="43.6999296" lon="10.9433667"><ele>30.0</ele><time>2026-03-28T16:54:18.868Z</time></trkpt><trkpt lat="43.6998726" lon="10.9434292"><ele>30.0</ele><time>2026-03-28T16:54:23.868Z</time></trkpt><trkpt lat="43.6998165" lon="10.9434945"><ele>30.0</ele><time>2026-03-28T16:54:28.869Z</time></trkpt><trkpt lat="43.6997636" lon="10.9435629"><ele>30.142857142857146</ele><time>2026-03-28T16:54:33.868Z</time></trkpt><trkpt lat="43.6997199" lon="10.9436309"><ele>30.285714285714285</ele><time>2026-03-28T16:54:38.869Z</time></trkpt><trkpt lat="43.6996863" lon="10.9437118"><ele>30.42857142857143</ele><time>2026-03-28T16:54:43.869Z</time></trkpt><trkpt lat="43.6996428" lon="10.9437919"><ele>30.571428571428573</ele><time>2026-03-28T16:54:49.868Z</time></trkpt><trkpt lat="43.6996074" lon="10.9438758"><ele>30.714285714285715</ele><time>2026-03-28T16:54:55.868Z</time></trkpt><trkpt lat="43.6995849" lon="10.9439585"><ele>30.857142857142858</ele><time>2026-03-28T16:55:00.868Z</time></trkpt><trkpt lat="43.6995547" lon="10.9440481"><ele>31.0</ele><time>2026-03-28T16:55:06.868Z</time></trkpt><trkpt lat="43.6995315" lon="10.944146"><ele>31.0</ele><time>2026-03-28T16:55:12.868Z</time></trkpt><trkpt lat="43.6995128" lon="10.9442307"><ele>31.000000000000004</ele><time>2026-03-28T16:55:17.868Z</time></trkpt><trkpt lat="43.6994968" lon="10.9443278"><ele>31.0</ele><time>2026-03-28T16:55:23.868Z</time></trkpt><trkpt lat="43.6994894" lon="10.9444286"><ele>31.0</ele><time>2026-03-28T16:55:29.868Z</time></trkpt><trkpt lat="43.6994786" lon="10.9445163"><ele>31.000000000000004</ele><time>2026-03-28T16:55:34.868Z</time></trkpt><trkpt lat="43.6994661" lon="10.9446073"><ele>31.0</ele><time>2026-03-28T16:55:39.868Z</time></trkpt><trkpt lat="43.699453" lon="10.944696"><ele>31.0</ele><time>2026-03-28T16:55:44.869Z</time></trkpt><trkpt lat="43.6994391" lon="10.9447812"><ele>31.0</ele><time>2026-03-28T16:55:49.868Z</time></trkpt><trkpt lat="43.6994284" lon="10.9448687"><ele>31.000000000000004</ele><time>2026-03-28T16:55:54.868Z</time></trkpt><trkpt lat="43.6994119" lon="10.9449592"><ele>31.0</ele><time>2026-03-28T16:55:59.869Z</time></trkpt><trkpt lat="43.6993866" lon="10.945046"><ele>31.0</ele><time>2026-03-28T16:56:04.869Z</time></trkpt><trkpt lat="43.6993534" lon="10.9451268"><ele>31.000000000000004</ele><time>2026-03-28T16:56:09.869Z</time></trkpt><trkpt lat="43.6993232" lon="10.9452088"><ele>31.0</ele><time>2026-03-28T16:56:14.869Z</time></trkpt><trkpt lat="43.6992866" lon="10.9452996"><ele>31.0</ele><time>2026-03-28T16:56:20.868Z</time></trkpt><trkpt lat="43.6992608" lon="10.9453797"><ele>31.571428571428573</ele><time>2026-03-28T16:56:25.868Z</time></trkpt><trkpt lat="43.6992361" lon="10.9454735"><ele>32.142857142857146</ele><time>2026-03-28T16:56:31.868Z</time></trkpt><trkpt lat="43.699215" lon="10.9455691"><ele>32.714285714285715</ele><time>2026-03-28T16:56:37.868Z</time></trkpt><trkpt lat="43.6991918" lon="10.945664"><ele>33.285714285714285</ele><time>2026-03-28T16:56:43.868Z</time></trkpt><trkpt lat="43.6991733" lon="10.9457624"><ele>33.85714285714286</ele><time>2026-03-28T16:56:49.868Z</time></trkpt><trkpt lat="43.6991591" lon="10.9458476"><ele>34.42857142857143</ele><time>2026-03-28T16:56:54.869Z</time></trkpt><trkpt lat="43.6991412" lon="10.9459323"><ele>35.0</ele><time>2026-03-28T16:56:59.868Z</time></trkpt><trkpt lat="43.6991277" lon="10.9460181"><ele>35.0</ele><time>2026-03-28T16:57:04.868Z</time></trkpt><trkpt lat="43.699109" lon="10.9461178"><ele>35.0</ele><time>2026-03-28T16:57:10.868Z</time></trkpt><trkpt lat="43.6990911" lon="10.9462166"><ele>35.0</ele><time>2026-03-28T16:57:16.868Z</time></trkpt><trkpt lat="43.6990774" lon="10.9463194"><ele>35.0</ele><time>2026-03-28T16:57:22.869Z</time></trkpt><trkpt lat="43.6990666" lon="10.9464064"><ele>35.0</ele><time>2026-03-28T16:57:27.868Z</time></trkpt><trkpt lat="43.6990526" lon="10.9464931"><ele>35.0</ele><time>2026-03-28T16:57:32.869Z</time></trkpt><trkpt lat="43.699027" lon="10.9465746"><ele>35.0</ele><time>2026-03-28T16:57:37.868Z</time></trkpt><trkpt lat="43.6989946" lon="10.9466685"><ele>34.857142857142854</ele><time>2026-03-28T16:57:43.869Z</time></trkpt><trkpt lat="43.6989638" lon="10.946745"><ele>34.714285714285715</ele><time>2026-03-28T16:57:48.868Z</time></trkpt><trkpt lat="43.6989259" lon="10.946821"><ele>34.57142857142857</ele><time>2026-03-28T16:57:53.869Z</time></trkpt><trkpt lat="43.6988854" lon="10.9468922"><ele>34.42857142857143</ele><time>2026-03-28T16:57:58.869Z</time></trkpt><trkpt lat="43.6988451" lon="10.9469592"><ele>34.285714285714285</ele><time>2026-03-28T16:58:03.868Z</time></trkpt><trkpt lat="43.6987998" lon="10.9470233"><ele>34.14285714285714</ele><time>2026-03-28T16:58:08.869Z</time></trkpt><trkpt lat="43.6987566" lon="10.9470878"><ele>34.0</ele><time>2026-03-28T16:58:13.868Z</time></trkpt><trkpt lat="43.6987154" lon="10.9471547"><ele>33.99999999999999</ele><time>2026-03-28T16:58:18.868Z</time></trkpt><trkpt lat="43.6986716" lon="10.9472379"><ele>34.0</ele><time>2026-03-28T16:58:24.868Z</time></trkpt><trkpt lat="43.6986314" lon="10.9473219"><ele>34.0</ele><time>2026-03-28T16:58:30.868Z</time></trkpt><trkpt lat="43.6986024" lon="10.9474016"><ele>34.0</ele><time>2026-03-28T16:58:35.868Z</time></trkpt><trkpt lat="43.6985765" lon="10.9474818"><ele>34.0</ele><time>2026-03-28T16:58:40.869Z</time></trkpt><trkpt lat="43.6985531" lon="10.947563"><ele>33.99999999999999</ele><time>2026-03-28T16:58:45.868Z</time></trkpt><trkpt lat="43.6985353" lon="10.94765"><ele>34.0</ele><time>2026-03-28T16:58:50.868Z</time></trkpt><trkpt lat="43.698513" lon="10.9477474"><ele>34.14285714285714</ele><time>2026-03-28T16:58:56.869Z</time></trkpt><trkpt lat="43.6985022" lon="10.9478344"><ele>34.285714285714285</ele><time>2026-03-28T16:59:01.868Z</time></trkpt><trkpt lat="43.698501" lon="10.9479246"><ele>34.42857142857143</ele><time>2026-03-28T16:59:06.869Z</time></trkpt><trkpt lat="43.6985036" lon="10.9480168"><ele>34.57142857142857</ele><time>2026-03-28T16:59:11.868Z</time></trkpt><trkpt lat="43.6985086" lon="10.9481218"><ele>34.714285714285715</ele><time>2026-03-28T16:59:17.868Z</time></trkpt><trkpt lat="43.6985147" lon="10.9482145"><ele>34.857142857142854</ele><time>2026-03-28T16:59:22.869Z</time></trkpt><trkpt lat="43.698518" lon="10.9483077"><ele>35.0</ele><time>2026-03-28T16:59:27.868Z</time></trkpt><trkpt lat="43.6985217" lon="10.948396"><ele>34.714285714285715</ele><time>2026-03-28T16:59:32.868Z</time></trkpt><trkpt lat="43.6985247" lon="10.948485"><ele>34.42857142857143</ele><time>2026-03-28T16:59:37.868Z</time></trkpt><trkpt lat="43.6985282" lon="10.9485731"><ele>34.14285714285714</ele><time>2026-03-28T16:59:42.869Z</time></trkpt><trkpt lat="43.6985212" lon="10.9486662"><ele>33.85714285714286</ele><time>2026-03-28T16:59:47.868Z</time></trkpt><trkpt lat="43.6985129" lon="10.9487552"><ele>33.57142857142857</ele><time>2026-03-28T16:59:52.869Z</time></trkpt><trkpt lat="43.6985033" lon="10.9488439"><ele>33.285714285714285</ele><time>2026-03-28T16:59:57.868Z</time></trkpt><trkpt lat="43.6984845" lon="10.9489285"><ele>33.0</ele><time>2026-03-28T17:00:02.868Z</time></trkpt><trkpt lat="43.6984552" lon="10.9490179"><ele>33.0</ele><time>2026-03-28T17:00:09.869Z</time></trkpt><trkpt lat="43.6984237" lon="10.9491084"><ele>33.0</ele><time>2026-03-28T17:00:15.868Z</time></trkpt><trkpt lat="43.6983777" lon="10.9491912"><ele>33.0</ele><time>2026-03-28T17:00:21.868Z</time></trkpt><trkpt lat="43.698358" lon="10.9492844"><ele>33.0</ele><time>2026-03-28T17:00:26.868Z</time></trkpt><trkpt lat="43.6983371" lon="10.949368"><ele>33.0</ele><time>2026-03-28T17:00:31.868Z</time></trkpt><trkpt lat="43.6983156" lon="10.9494502"><ele>33.0</ele><time>2026-03-28T17:00:36.868Z</time></trkpt><trkpt lat="43.6982963" lon="10.9495354"><ele>33.0</ele><time>2026-03-28T17:00:41.868Z</time></trkpt><trkpt lat="43.6982824" lon="10.949625"><ele>32.857142857142854</ele><time>2026-03-28T17:00:46.869Z</time></trkpt><trkpt lat="43.6982703" lon="10.9497111"><ele>32.714285714285715</ele><time>2026-03-28T17:00:51.868Z</time></trkpt><trkpt lat="43.6982633" lon="10.9497991"><ele>32.57142857142857</ele><time>2026-03-28T17:00:56.868Z</time></trkpt><trkpt lat="43.6982581" lon="10.9498948"><ele>32.42857142857143</ele><time>2026-03-28T17:01:01.868Z</time></trkpt><trkpt lat="43.6982455" lon="10.9499816"><ele>32.285714285714285</ele><time>2026-03-28T17:01:06.869Z</time></trkpt><trkpt lat="43.6982312" lon="10.9500778"><ele>32.14285714285714</ele><time>2026-03-28T17:01:12.868Z</time></trkpt><trkpt lat="43.6982045" lon="10.9501732"><ele>32.0</ele><time>2026-03-28T17:01:18.869Z</time></trkpt><trkpt lat="43.698165" lon="10.9502629"><ele>32.0</ele><time>2026-03-28T17:01:24.868Z</time></trkpt><trkpt lat="43.6981286" lon="10.9503362"><ele>31.999999999999996</ele><time>2026-03-28T17:01:29.868Z</time></trkpt><trkpt lat="43.6980867" lon="10.9504088"><ele>32.0</ele><time>2026-03-28T17:01:35.868Z</time></trkpt><trkpt lat="43.6980533" lon="10.9504861"><ele>32.0</ele><time>2026-03-28T17:01:40.868Z</time></trkpt><trkpt lat="43.6980089" lon="10.9505674"><ele>31.999999999999996</ele><time>2026-03-28T17:01:46.868Z</time></trkpt><trkpt lat="43.6979783" lon="10.9506456"><ele>32.0</ele><time>2026-03-28T17:01:51.869Z</time></trkpt><trkpt lat="43.6979382" lon="10.9507336"><ele>32.0</ele><time>2026-03-28T17:01:57.869Z</time></trkpt><trkpt lat="43.6978983" lon="10.9508141"><ele>32.0</ele><time>2026-03-28T17:02:03.868Z</time></trkpt><trkpt lat="43.6978657" lon="10.9509067"><ele>31.999999999999996</ele><time>2026-03-28T17:02:09.869Z</time></trkpt><trkpt lat="43.6978315" lon="10.9509954"><ele>32.0</ele><time>2026-03-28T17:02:15.868Z</time></trkpt><trkpt lat="43.6977942" lon="10.9510831"><ele>32.0</ele><time>2026-03-28T17:02:21.868Z</time></trkpt><trkpt lat="43.6977712" lon="10.9511657"><ele>31.999999999999996</ele><time>2026-03-28T17:02:26.868Z</time></trkpt><trkpt lat="43.6977514" lon="10.9512629"><ele>32.0</ele><time>2026-03-28T17:02:32.868Z</time></trkpt><trkpt lat="43.6977413" lon="10.9513552"><ele>32.0</ele><time>2026-03-28T17:02:37.868Z</time></trkpt><trkpt lat="43.697714" lon="10.9514482"><ele>32.0</ele><time>2026-03-28T17:02:43.869Z</time></trkpt><trkpt lat="43.6976997" lon="10.9515475"><ele>31.999999999999996</ele><time>2026-03-28T17:02:49.868Z</time></trkpt><trkpt lat="43.6976908" lon="10.9516344"><ele>32.0</ele><time>2026-03-28T17:02:54.868Z</time></trkpt><trkpt lat="43.6976755" lon="10.9517189"><ele>32.0</ele><time>2026-03-28T17:02:59.868Z</time></trkpt><trkpt lat="43.6976679" lon="10.951809"><ele>31.999999999999996</ele><time>2026-03-28T17:03:04.869Z</time></trkpt><trkpt lat="43.6976726" lon="10.951898"><ele>32.0</ele><time>2026-03-28T17:03:09.869Z</time></trkpt><trkpt lat="43.6976634" lon="10.951994"><ele>32.0</ele><time>2026-03-28T17:03:14.868Z</time></trkpt><trkpt lat="43.6976621" lon="10.9520856"><ele>32.285714285714285</ele><time>2026-03-28T17:03:19.869Z</time></trkpt><trkpt lat="43.6976552" lon="10.9521834"><ele>32.57142857142857</ele><time>2026-03-28T17:03:25.868Z</time></trkpt><trkpt lat="43.6976458" lon="10.952283"><ele>32.857142857142854</ele><time>2026-03-28T17:03:31.868Z</time></trkpt><trkpt lat="43.6976456" lon="10.9523811"><ele>33.14285714285714</ele><time>2026-03-28T17:03:37.868Z</time></trkpt><trkpt lat="43.6976496" lon="10.9524815"><ele>33.42857142857143</ele><time>2026-03-28T17:03:43.868Z</time></trkpt><trkpt lat="43.6976549" lon="10.9525697"><ele>33.71428571428571</ele><time>2026-03-28T17:03:48.868Z</time></trkpt><trkpt lat="43.6976654" lon="10.9526731"><ele>34.0</ele><time>2026-03-28T17:03:54.868Z</time></trkpt><trkpt lat="43.6976801" lon="10.9527613"><ele>33.99999999999999</ele><time>2026-03-28T17:03:59.868Z</time></trkpt><trkpt lat="43.6976999" lon="10.9528457"><ele>34.0</ele><time>2026-03-28T17:04:04.868Z</time></trkpt><trkpt lat="43.6977208" lon="10.9529439"><ele>34.0</ele><time>2026-03-28T17:04:10.868Z</time></trkpt><trkpt lat="43.6977326" lon="10.9530371"><ele>34.0</ele><time>2026-03-28T17:04:16.868Z</time></trkpt><trkpt lat="43.6977502" lon="10.9531347"><ele>34.0</ele><time>2026-03-28T17:04:22.868Z</time></trkpt><trkpt lat="43.6977795" lon="10.9532301"><ele>33.99999999999999</ele><time>2026-03-28T17:04:28.872Z</time></trkpt><trkpt lat="43.697796" lon="10.9533297"><ele>34.0</ele><time>2026-03-28T17:04:34.873Z</time></trkpt><trkpt lat="43.6978068" lon="10.9534197"><ele>33.99999999999999</ele><time>2026-03-28T17:04:39.874Z</time></trkpt><trkpt lat="43.6978119" lon="10.95351"><ele>34.0</ele><time>2026-03-28T17:04:44.873Z</time></trkpt><trkpt lat="43.6978108" lon="10.9536006"><ele>34.0</ele><time>2026-03-28T17:04:49.873Z</time></trkpt><trkpt lat="43.6977898" lon="10.9536855"><ele>34.0</ele><time>2026-03-28T17:04:55.87Z</time></trkpt><trkpt lat="43.6977656" lon="10.9537703"><ele>34.0</ele><time>2026-03-28T17:05:00.869Z</time></trkpt><trkpt lat="43.6977482" lon="10.9538635"><ele>33.99999999999999</ele><time>2026-03-28T17:05:06.869Z</time></trkpt><trkpt lat="43.697751" lon="10.9539528"><ele>34.0</ele><time>2026-03-28T17:05:24.869Z</time></trkpt><trkpt lat="43.6978079" lon="10.9540023"><ele>33.99999999999999</ele><time>2026-03-28T17:05:30.869Z</time></trkpt><trkpt lat="43.6978675" lon="10.9540399"><ele>34.0</ele><time>2026-03-28T17:05:36.87Z</time></trkpt><trkpt lat="43.6979275" lon="10.954086"><ele>34.0</ele><time>2026-03-28T17:05:42.87Z</time></trkpt><trkpt lat="43.6979944" lon="10.9541309"><ele>34.0</ele><time>2026-03-28T17:05:49.869Z</time></trkpt><trkpt lat="43.6980608" lon="10.9541724"><ele>34.0</ele><time>2026-03-28T17:05:55.87Z</time></trkpt><trkpt lat="43.6981267" lon="10.9541997"><ele>33.99999999999999</ele><time>2026-03-28T17:06:00.869Z</time></trkpt><trkpt lat="43.6981406" lon="10.9542849"><ele>34.0</ele><time>2026-03-28T17:06:09.869Z</time></trkpt><trkpt lat="43.6980801" lon="10.9543202"><ele>33.99999999999999</ele><time>2026-03-28T17:06:15.869Z</time></trkpt><trkpt lat="43.6980199" lon="10.9543478"><ele>34.0</ele><time>2026-03-28T17:06:21.869Z</time></trkpt><trkpt lat="43.6979518" lon="10.9543773"><ele>34.0</ele><time>2026-03-28T17:06:28.869Z</time></trkpt><trkpt lat="43.6978798" lon="10.9544131"><ele>34.0</ele><time>2026-03-28T17:06:35.87Z</time></trkpt><trkpt lat="43.6978265" lon="10.9544856"><ele>34.0</ele><time>2026-03-28T17:06:41.87Z</time></trkpt><trkpt lat="43.6977744" lon="10.9545421"><ele>33.99999999999999</ele><time>2026-03-28T17:06:47.869Z</time></trkpt><trkpt lat="43.6977072" lon="10.9545706"><ele>34.0</ele><time>2026-03-28T17:06:53.869Z</time></trkpt><trkpt lat="43.6976411" lon="10.9546083"><ele>33.99999999999999</ele><time>2026-03-28T17:06:58.869Z</time></trkpt><trkpt lat="43.6975676" lon="10.9546407"><ele>34.0</ele><time>2026-03-28T17:07:04.87Z</time></trkpt><trkpt lat="43.6975071" lon="10.9546792"><ele>34.0</ele><time>2026-03-28T17:07:10.87Z</time></trkpt><trkpt lat="43.6974457" lon="10.9547114"><ele>34.0</ele><time>2026-03-28T17:07:15.869Z</time></trkpt><trkpt lat="43.6973839" lon="10.9547681"><ele>34.0</ele><time>2026-03-28T17:07:20.869Z</time></trkpt><trkpt lat="43.6973182" lon="10.9548226"><ele>33.99999999999999</ele><time>2026-03-28T17:07:26.869Z</time></trkpt><trkpt lat="43.6972572" lon="10.9548714"><ele>34.0</ele><time>2026-03-28T17:07:31.87Z</time></trkpt><trkpt lat="43.6971983" lon="10.9549103"><ele>33.99999999999999</ele><time>2026-03-28T17:07:36.87Z</time></trkpt><trkpt lat="43.6971324" lon="10.9549582"><ele>34.0</ele><time>2026-03-28T17:07:41.869Z</time></trkpt><trkpt lat="43.6970698" lon="10.9550098"><ele>34.0</ele><time>2026-03-28T17:07:46.87Z</time></trkpt><trkpt lat="43.697008" lon="10.9550573"><ele>34.0</ele><time>2026-03-28T17:07:51.87Z</time></trkpt><trkpt lat="43.6969411" lon="10.9550867"><ele>34.0</ele><time>2026-03-28T17:07:58.869Z</time></trkpt><trkpt lat="43.6968775" lon="10.9551139"><ele>33.99999999999999</ele><time>2026-03-28T17:08:04.869Z</time></trkpt><trkpt lat="43.69682" lon="10.955159"><ele>34.0</ele><time>2026-03-28T17:08:10.869Z</time></trkpt><trkpt lat="43.6967615" lon="10.9552052"><ele>33.857142857142854</ele><time>2026-03-28T17:08:16.87Z</time></trkpt><trkpt lat="43.6966975" lon="10.9552577"><ele>33.714285714285715</ele><time>2026-03-28T17:08:23.87Z</time></trkpt><trkpt lat="43.6966367" lon="10.9553055"><ele>33.57142857142857</ele><time>2026-03-28T17:08:28.87Z</time></trkpt><trkpt lat="43.6965791" lon="10.9553566"><ele>33.42857142857143</ele><time>2026-03-28T17:08:33.869Z</time></trkpt><trkpt lat="43.6965232" lon="10.9554032"><ele>33.285714285714285</ele><time>2026-03-28T17:08:38.869Z</time></trkpt><trkpt lat="43.6964652" lon="10.9554622"><ele>33.14285714285714</ele><time>2026-03-28T17:08:44.869Z</time></trkpt><trkpt lat="43.6964059" lon="10.9555221"><ele>33.0</ele><time>2026-03-28T17:08:50.87Z</time></trkpt><trkpt lat="43.6963473" lon="10.9555829"><ele>33.0</ele><time>2026-03-28T17:08:56.87Z</time></trkpt><trkpt lat="43.6962884" lon="10.9556365"><ele>33.0</ele><time>2026-03-28T17:09:02.87Z</time></trkpt><trkpt lat="43.6962276" lon="10.9556977"><ele>33.0</ele><time>2026-03-28T17:09:08.869Z</time></trkpt><trkpt lat="43.6961752" lon="10.9557508"><ele>33.0</ele><time>2026-03-28T17:09:13.869Z</time></trkpt><trkpt lat="43.6961149" lon="10.9558128"><ele>33.0</ele><time>2026-03-28T17:09:19.869Z</time></trkpt><trkpt lat="43.6960538" lon="10.9558675"><ele>33.0</ele><time>2026-03-28T17:09:25.869Z</time></trkpt><trkpt lat="43.6959977" lon="10.9559228"><ele>33.0</ele><time>2026-03-28T17:09:32.869Z</time></trkpt><trkpt lat="43.6959375" lon="10.9559716"><ele>33.285714285714285</ele><time>2026-03-28T17:09:38.87Z</time></trkpt><trkpt lat="43.6958805" lon="10.9560344"><ele>33.57142857142857</ele><time>2026-03-28T17:09:44.869Z</time></trkpt><trkpt lat="43.6958235" lon="10.9560871"><ele>33.85714285714286</ele><time>2026-03-28T17:09:50.87Z</time></trkpt><trkpt lat="43.6957645" lon="10.9561341"><ele>34.14285714285714</ele><time>2026-03-28T17:09:57.869Z</time></trkpt><trkpt lat="43.6956998" lon="10.9561705"><ele>34.42857142857143</ele><time>2026-03-28T17:10:02.869Z</time></trkpt><trkpt lat="43.6956377" lon="10.9562148"><ele>34.714285714285715</ele><time>2026-03-28T17:10:07.869Z</time></trkpt><trkpt lat="43.6955816" lon="10.9562565"><ele>35.0</ele><time>2026-03-28T17:10:12.869Z</time></trkpt><trkpt lat="43.695525" lon="10.9563047"><ele>35.0</ele><time>2026-03-28T17:10:18.869Z</time></trkpt><trkpt lat="43.6954655" lon="10.9563404"><ele>35.0</ele><time>2026-03-28T17:10:24.869Z</time></trkpt><trkpt lat="43.6954071" lon="10.9563966"><ele>35.0</ele><time>2026-03-28T17:10:29.869Z</time></trkpt><trkpt lat="43.695356" lon="10.956449"><ele>35.0</ele><time>2026-03-28T17:10:34.869Z</time></trkpt><trkpt lat="43.6953019" lon="10.9564996"><ele>35.0</ele><time>2026-03-28T17:10:39.869Z</time></trkpt><trkpt lat="43.6952374" lon="10.956542"><ele>35.0</ele><time>2026-03-28T17:10:46.87Z</time></trkpt><trkpt lat="43.6951653" lon="10.9565583"><ele>35.0</ele><time>2026-03-28T17:10:53.87Z</time></trkpt><trkpt lat="43.6951113" lon="10.956614"><ele>35.0</ele><time>2026-03-28T17:10:58.87Z</time></trkpt><trkpt lat="43.6950523" lon="10.9566727"><ele>35.0</ele><time>2026-03-28T17:11:04.869Z</time></trkpt><trkpt lat="43.6949955" lon="10.9567292"><ele>35.0</ele><time>2026-03-28T17:11:10.869Z</time></trkpt><trkpt lat="43.6949386" lon="10.95678"><ele>35.0</ele><time>2026-03-28T17:11:15.87Z</time></trkpt><trkpt lat="43.6948817" lon="10.9568299"><ele>35.0</ele><time>2026-03-28T17:11:20.869Z</time></trkpt><trkpt lat="43.694826" lon="10.9568855"><ele>35.0</ele><time>2026-03-28T17:11:25.869Z</time></trkpt><trkpt lat="43.6947726" lon="10.9569423"><ele>35.0</ele><time>2026-03-28T17:11:30.869Z</time></trkpt><trkpt lat="43.6947166" lon="10.9569932"><ele>35.0</ele><time>2026-03-28T17:11:35.869Z</time></trkpt><trkpt lat="43.6946606" lon="10.9570405"><ele>35.0</ele><time>2026-03-28T17:11:40.869Z</time></trkpt><trkpt lat="43.6946026" lon="10.9570981"><ele>35.0</ele><time>2026-03-28T17:11:46.869Z</time></trkpt><trkpt lat="43.69457" lon="10.9571767"><ele>35.0</ele><time>2026-03-28T17:11:51.869Z</time></trkpt><trkpt lat="43.6945256" lon="10.9572422"><ele>35.0</ele><time>2026-03-28T17:11:57.87Z</time></trkpt><trkpt lat="43.6944626" lon="10.9572787"><ele>35.0</ele><time>2026-03-28T17:12:02.869Z</time></trkpt><trkpt lat="43.6944013" lon="10.9573175"><ele>35.0</ele><time>2026-03-28T17:12:07.869Z</time></trkpt><trkpt lat="43.6943466" lon="10.9573631"><ele>35.0</ele><time>2026-03-28T17:12:12.869Z</time></trkpt><trkpt lat="43.694288" lon="10.9574041"><ele>35.0</ele><time>2026-03-28T17:12:17.87Z</time></trkpt><trkpt lat="43.6942308" lon="10.9574451"><ele>35.0</ele><time>2026-03-28T17:12:22.869Z</time></trkpt><trkpt lat="43.694168" lon="10.9574805"><ele>35.0</ele><time>2026-03-28T17:12:27.869Z</time></trkpt><trkpt lat="43.6941077" lon="10.9575232"><ele>35.0</ele><time>2026-03-28T17:12:32.869Z</time></trkpt><trkpt lat="43.6940527" lon="10.9575677"><ele>35.0</ele><time>2026-03-28T17:12:37.869Z</time></trkpt><trkpt lat="43.6939887" lon="10.9576223"><ele>35.0</ele><time>2026-03-28T17:12:43.87Z</time></trkpt><trkpt lat="43.693928" lon="10.9576741"><ele>35.0</ele><time>2026-03-28T17:12:49.869Z</time></trkpt><trkpt lat="43.6938686" lon="10.9577375"><ele>35.0</ele><time>2026-03-28T17:12:55.869Z</time></trkpt><trkpt lat="43.6938052" lon="10.9577795"><ele>35.0</ele><time>2026-03-28T17:13:01.869Z</time></trkpt><trkpt lat="43.6937454" lon="10.9578076"><ele>35.0</ele><time>2026-03-28T17:13:06.87Z</time></trkpt><trkpt lat="43.6936768" lon="10.9578452"><ele>35.0</ele><time>2026-03-28T17:13:12.869Z</time></trkpt><trkpt lat="43.6936178" lon="10.9579036"><ele>35.0</ele><time>2026-03-28T17:13:18.87Z</time></trkpt><trkpt lat="43.6935553" lon="10.9579341"><ele>35.0</ele><time>2026-03-28T17:13:42.87Z</time></trkpt><trkpt lat="43.6934915" lon="10.9579494"><ele>35.42857142857143</ele><time>2026-03-28T17:13:47.869Z</time></trkpt><trkpt lat="43.6934254" lon="10.957988"><ele>35.85714285714286</ele><time>2026-03-28T17:13:52.87Z</time></trkpt><trkpt lat="43.6933639" lon="10.9580282"><ele>36.285714285714285</ele><time>2026-03-28T17:13:57.869Z</time></trkpt><trkpt lat="43.6932988" lon="10.9580656"><ele>36.714285714285715</ele><time>2026-03-28T17:14:02.869Z</time></trkpt><trkpt lat="43.6932327" lon="10.9581042"><ele>37.142857142857146</ele><time>2026-03-28T17:14:07.87Z</time></trkpt><trkpt lat="43.6931723" lon="10.9581473"><ele>37.57142857142857</ele><time>2026-03-28T17:14:12.869Z</time></trkpt><trkpt lat="43.6931113" lon="10.9581847"><ele>38.0</ele><time>2026-03-28T17:14:17.869Z</time></trkpt><trkpt lat="43.6930561" lon="10.9582342"><ele>38.0</ele><time>2026-03-28T17:14:22.869Z</time></trkpt><trkpt lat="43.6930022" lon="10.9582889"><ele>38.0</ele><time>2026-03-28T17:14:27.869Z</time></trkpt><trkpt lat="43.69293" lon="10.9583108"><ele>38.0</ele><time>2026-03-28T17:14:32.869Z</time></trkpt><trkpt lat="43.6928727" lon="10.9583571"><ele>38.0</ele><time>2026-03-28T17:14:37.87Z</time></trkpt><trkpt lat="43.6928094" lon="10.958395"><ele>38.0</ele><time>2026-03-28T17:14:42.869Z</time></trkpt><trkpt lat="43.692746" lon="10.9584305"><ele>38.0</ele><time>2026-03-28T17:14:47.869Z</time></trkpt><trkpt lat="43.692671" lon="10.9584267"><ele>38.0</ele><time>2026-03-28T17:14:53.869Z</time></trkpt><trkpt lat="43.6926047" lon="10.9584381"><ele>38.0</ele><time>2026-03-28T17:14:58.869Z</time></trkpt><trkpt lat="43.6925391" lon="10.9584456"><ele>38.0</ele><time>2026-03-28T17:15:03.869Z</time></trkpt><trkpt lat="43.6924668" lon="10.9584335"><ele>38.0</ele><time>2026-03-28T17:15:09.869Z</time></trkpt><trkpt lat="43.6923985" lon="10.9584317"><ele>38.0</ele><time>2026-03-28T17:15:14.869Z</time></trkpt><trkpt lat="43.6923233" lon="10.9584402"><ele>38.0</ele><time>2026-03-28T17:15:20.869Z</time></trkpt><trkpt lat="43.6922615" lon="10.9584599"><ele>38.0</ele><time>2026-03-28T17:15:25.869Z</time></trkpt><trkpt lat="43.6921904" lon="10.9584952"><ele>38.0</ele><time>2026-03-28T17:15:31.87Z</time></trkpt><trkpt lat="43.6921191" lon="10.9584941"><ele>38.0</ele><time>2026-03-28T17:15:37.869Z</time></trkpt><trkpt lat="43.6920461" lon="10.9584785"><ele>38.0</ele><time>2026-03-28T17:15:42.869Z</time></trkpt><trkpt lat="43.6919814" lon="10.9584891"><ele>38.0</ele><time>2026-03-28T17:15:47.869Z</time></trkpt><trkpt lat="43.6919182" lon="10.958507"><ele>38.0</ele><time>2026-03-28T17:15:52.869Z</time></trkpt><trkpt lat="43.6918516" lon="10.9585043"><ele>38.0</ele><time>2026-03-28T17:15:58.869Z</time></trkpt><trkpt lat="43.6917803" lon="10.958507"><ele>38.0</ele><time>2026-03-28T17:16:05.869Z</time></trkpt><trkpt lat="43.6917281" lon="10.9585629"><ele>38.0</ele><time>2026-03-28T17:16:09.87Z</time></trkpt><trkpt lat="43.69167" lon="10.9586213"><ele>38.14285714285714</ele><time>2026-03-28T17:16:14.869Z</time></trkpt><trkpt lat="43.691617" lon="10.9587011"><ele>38.28571428571429</ele><time>2026-03-28T17:16:19.869Z</time></trkpt><trkpt lat="43.6915619" lon="10.9587725"><ele>38.42857142857143</ele><time>2026-03-28T17:16:24.869Z</time></trkpt><trkpt lat="43.6915073" lon="10.9588334"><ele>38.57142857142857</ele><time>2026-03-28T17:16:29.869Z</time></trkpt><trkpt lat="43.6914554" lon="10.9588889"><ele>38.71428571428571</ele><time>2026-03-28T17:16:34.869Z</time></trkpt><trkpt lat="43.6913979" lon="10.9589301"><ele>38.85714285714286</ele><time>2026-03-28T17:16:39.869Z</time></trkpt><trkpt lat="43.69134" lon="10.9589752"><ele>39.0</ele><time>2026-03-28T17:16:44.87Z</time></trkpt><trkpt lat="43.6912794" lon="10.9590287"><ele>39.0</ele><time>2026-03-28T17:16:51.874Z</time></trkpt><trkpt lat="43.6912152" lon="10.9590831"><ele>39.0</ele><time>2026-03-28T17:16:57.875Z</time></trkpt><trkpt lat="43.6911591" lon="10.9591287"><ele>39.0</ele><time>2026-03-28T17:17:02.876Z</time></trkpt><trkpt lat="43.6910964" lon="10.9591708"><ele>39.0</ele><time>2026-03-28T17:17:07.876Z</time></trkpt><trkpt lat="43.6910288" lon="10.9592061"><ele>39.0</ele><time>2026-03-28T17:17:12.875Z</time></trkpt><trkpt lat="43.6909647" lon="10.959225"><ele>39.0</ele><time>2026-03-28T17:17:17.876Z</time></trkpt><trkpt lat="43.6908896" lon="10.959219"><ele>39.0</ele><time>2026-03-28T17:17:23.875Z</time></trkpt><trkpt lat="43.6908284" lon="10.9591967"><ele>39.0</ele><time>2026-03-28T17:17:28.875Z</time></trkpt><trkpt lat="43.6907667" lon="10.9591686"><ele>39.0</ele><time>2026-03-28T17:17:33.876Z</time></trkpt><trkpt lat="43.6907052" lon="10.9591398"><ele>39.0</ele><time>2026-03-28T17:17:38.876Z</time></trkpt><trkpt lat="43.6906355" lon="10.9591068"><ele>39.0</ele><time>2026-03-28T17:17:44.876Z</time></trkpt><trkpt lat="43.6905647" lon="10.9590711"><ele>39.0</ele><time>2026-03-28T17:17:50.875Z</time></trkpt><trkpt lat="43.6905003" lon="10.9590248"><ele>39.0</ele><time>2026-03-28T17:17:56.875Z</time></trkpt><trkpt lat="43.6904427" lon="10.9589851"><ele>39.0</ele><time>2026-03-28T17:18:01.876Z</time></trkpt><trkpt lat="43.6903802" lon="10.9589575"><ele>39.0</ele><time>2026-03-28T17:18:06.875Z</time></trkpt><trkpt lat="43.6903194" lon="10.9589296"><ele>39.0</ele><time>2026-03-28T17:18:11.876Z</time></trkpt><trkpt lat="43.6902578" lon="10.9589053"><ele>39.0</ele><time>2026-03-28T17:18:16.875Z</time></trkpt><trkpt lat="43.6901919" lon="10.9588807"><ele>39.0</ele><time>2026-03-28T17:18:21.875Z</time></trkpt><trkpt lat="43.6901289" lon="10.9588524"><ele>39.0</ele><time>2026-03-28T17:18:26.875Z</time></trkpt><trkpt lat="43.6900678" lon="10.958824"><ele>39.0</ele><time>2026-03-28T17:18:31.875Z</time></trkpt><trkpt lat="43.6900048" lon="10.958799"><ele>39.0</ele><time>2026-03-28T17:18:36.875Z</time></trkpt><trkpt lat="43.6899344" lon="10.9587666"><ele>39.142857142857146</ele><time>2026-03-28T17:18:42.875Z</time></trkpt><trkpt lat="43.6898626" lon="10.9587357"><ele>39.285714285714285</ele><time>2026-03-28T17:18:48.875Z</time></trkpt><trkpt lat="43.6897937" lon="10.9587031"><ele>39.42857142857143</ele><time>2026-03-28T17:18:54.875Z</time></trkpt><trkpt lat="43.6897251" lon="10.9586654"><ele>39.57142857142857</ele><time>2026-03-28T17:19:00.876Z</time></trkpt><trkpt lat="43.6896637" lon="10.95864"><ele>39.714285714285715</ele><time>2026-03-28T17:19:05.875Z</time></trkpt><trkpt lat="43.6895928" lon="10.9586068"><ele>39.857142857142854</ele><time>2026-03-28T17:19:11.875Z</time></trkpt><trkpt lat="43.6895338" lon="10.9585761"><ele>40.0</ele><time>2026-03-28T17:19:16.876Z</time></trkpt><trkpt lat="43.6894627" lon="10.9585422"><ele>40.0</ele><time>2026-03-28T17:19:22.875Z</time></trkpt><trkpt lat="43.6894019" lon="10.9585184"><ele>40.0</ele><time>2026-03-28T17:19:27.876Z</time></trkpt><trkpt lat="43.6893313" lon="10.9584826"><ele>40.0</ele><time>2026-03-28T17:19:33.875Z</time></trkpt><trkpt lat="43.689262" lon="10.9584435"><ele>40.0</ele><time>2026-03-28T17:19:39.875Z</time></trkpt><trkpt lat="43.6891922" lon="10.9584072"><ele>40.0</ele><time>2026-03-28T17:19:51.876Z</time></trkpt><trkpt lat="43.6891283" lon="10.9583771"><ele>40.0</ele><time>2026-03-28T17:19:56.876Z</time></trkpt><trkpt lat="43.6890669" lon="10.9583464"><ele>40.0</ele><time>2026-03-28T17:20:01.875Z</time></trkpt><trkpt lat="43.689007" lon="10.9583147"><ele>39.857142857142854</ele><time>2026-03-28T17:20:06.875Z</time></trkpt><trkpt lat="43.6889468" lon="10.9582796"><ele>39.714285714285715</ele><time>2026-03-28T17:20:11.875Z</time></trkpt><trkpt lat="43.6888852" lon="10.9582495"><ele>39.57142857142857</ele><time>2026-03-28T17:20:16.875Z</time></trkpt><trkpt lat="43.6888218" lon="10.9582182"><ele>39.42857142857143</ele><time>2026-03-28T17:20:21.875Z</time></trkpt><trkpt lat="43.688762" lon="10.9581901"><ele>39.285714285714285</ele><time>2026-03-28T17:20:26.875Z</time></trkpt><trkpt lat="43.6887" lon="10.9581728"><ele>39.142857142857146</ele><time>2026-03-28T17:20:31.875Z</time></trkpt><trkpt lat="43.6886285" lon="10.9581414"><ele>39.0</ele><time>2026-03-28T17:20:37.875Z</time></trkpt><trkpt lat="43.6885656" lon="10.9581183"><ele>39.0</ele><time>2026-03-28T17:20:42.876Z</time></trkpt><trkpt lat="43.6884908" lon="10.9581033"><ele>39.0</ele><time>2026-03-28T17:20:48.876Z</time></trkpt><trkpt lat="43.6884157" lon="10.9580908"><ele>39.0</ele><time>2026-03-28T17:20:54.876Z</time></trkpt><trkpt lat="43.6883506" lon="10.9580904"><ele>39.0</ele><time>2026-03-28T17:20:59.876Z</time></trkpt><trkpt lat="43.6882805" lon="10.9580917"><ele>39.0</ele><time>2026-03-28T17:21:05.875Z</time></trkpt><trkpt lat="43.6882103" lon="10.9580932"><ele>39.0</ele><time>2026-03-28T17:21:10.875Z</time></trkpt><trkpt lat="43.6881427" lon="10.9580898"><ele>39.0</ele><time>2026-03-28T17:21:15.875Z</time></trkpt><trkpt lat="43.6880784" lon="10.9580885"><ele>39.0</ele><time>2026-03-28T17:21:20.875Z</time></trkpt><trkpt lat="43.6880139" lon="10.9580804"><ele>39.0</ele><time>2026-03-28T17:21:25.874Z</time></trkpt><trkpt lat="43.6879389" lon="10.9580824"><ele>39.0</ele><time>2026-03-28T17:21:31.875Z</time></trkpt><trkpt lat="43.6878679" lon="10.9580928"><ele>39.0</ele><time>2026-03-28T17:21:37.875Z</time></trkpt><trkpt lat="43.6877944" lon="10.9580862"><ele>39.0</ele><time>2026-03-28T17:21:43.875Z</time></trkpt><trkpt lat="43.6877292" lon="10.9580922"><ele>39.0</ele><time>2026-03-28T17:21:48.876Z</time></trkpt><trkpt lat="43.6876653" lon="10.9580916"><ele>39.0</ele><time>2026-03-28T17:21:53.876Z</time></trkpt><trkpt lat="43.6875942" lon="10.9581061"><ele>39.285714285714285</ele><time>2026-03-28T17:21:59.876Z</time></trkpt><trkpt lat="43.6875206" lon="10.9581125"><ele>39.57142857142857</ele><time>2026-03-28T17:22:05.876Z</time></trkpt><trkpt lat="43.6874487" lon="10.9581392"><ele>39.857142857142854</ele><time>2026-03-28T17:22:11.875Z</time></trkpt><trkpt lat="43.6873879" lon="10.9581653"><ele>40.14285714285714</ele><time>2026-03-28T17:22:16.875Z</time></trkpt><trkpt lat="43.6873177" lon="10.9582055"><ele>40.42857142857143</ele><time>2026-03-28T17:22:22.875Z</time></trkpt><trkpt lat="43.6872509" lon="10.9582469"><ele>40.71428571428571</ele><time>2026-03-28T17:22:28.875Z</time></trkpt><trkpt lat="43.6871822" lon="10.9582905"><ele>41.0</ele><time>2026-03-28T17:22:34.875Z</time></trkpt><trkpt lat="43.6871236" lon="10.9583276"><ele>40.99999999999999</ele><time>2026-03-28T17:22:39.875Z</time></trkpt><trkpt lat="43.6870633" lon="10.9583586"><ele>41.0</ele><time>2026-03-28T17:22:44.875Z</time></trkpt><trkpt lat="43.6869939" lon="10.9583978"><ele>41.0</ele><time>2026-03-28T17:22:50.875Z</time></trkpt><trkpt lat="43.6869353" lon="10.9584419"><ele>41.0</ele><time>2026-03-28T17:22:55.875Z</time></trkpt><trkpt lat="43.686876" lon="10.9584777"><ele>41.0</ele><time>2026-03-28T17:23:00.875Z</time></trkpt><trkpt lat="43.6868177" lon="10.9585169"><ele>40.99999999999999</ele><time>2026-03-28T17:23:05.876Z</time></trkpt><trkpt lat="43.6867479" lon="10.9585572"><ele>41.0</ele><time>2026-03-28T17:23:11.875Z</time></trkpt><trkpt lat="43.6866879" lon="10.9585856"><ele>40.857142857142854</ele><time>2026-03-28T17:23:16.876Z</time></trkpt><trkpt lat="43.686617" lon="10.958619"><ele>40.714285714285715</ele><time>2026-03-28T17:23:22.876Z</time></trkpt><trkpt lat="43.6865569" lon="10.9586466"><ele>40.57142857142857</ele><time>2026-03-28T17:23:27.876Z</time></trkpt><trkpt lat="43.6864852" lon="10.9586786"><ele>40.42857142857143</ele><time>2026-03-28T17:23:33.875Z</time></trkpt><trkpt lat="43.6864259" lon="10.9587109"><ele>40.285714285714285</ele><time>2026-03-28T17:23:38.875Z</time></trkpt><trkpt lat="43.6863674" lon="10.9587432"><ele>40.14285714285714</ele><time>2026-03-28T17:23:43.875Z</time></trkpt><trkpt lat="43.6862979" lon="10.9587797"><ele>40.0</ele><time>2026-03-28T17:23:49.875Z</time></trkpt><trkpt lat="43.6862271" lon="10.9588075"><ele>40.0</ele><time>2026-03-28T17:23:55.91Z</time></trkpt><trkpt lat="43.6861669" lon="10.9588569"><ele>40.0</ele><time>2026-03-28T17:24:01.878Z</time></trkpt><trkpt lat="43.6861031" lon="10.9588921"><ele>40.0</ele><time>2026-03-28T17:24:07.875Z</time></trkpt><trkpt lat="43.6860411" lon="10.958935"><ele>40.0</ele><time>2026-03-28T17:24:13.875Z</time></trkpt><trkpt lat="43.6859718" lon="10.9589765"><ele>40.0</ele><time>2026-03-28T17:24:19.876Z</time></trkpt><trkpt lat="43.6859076" lon="10.9589986"><ele>40.0</ele><time>2026-03-28T17:24:24.783Z</time></trkpt><trkpt lat="43.6858473" lon="10.9590271"><ele>40.0</ele><time>2026-03-28T17:24:29.875Z</time></trkpt><trkpt lat="43.6857861" lon="10.9590525"><ele>40.285714285714285</ele><time>2026-03-28T17:24:34.879Z</time></trkpt><trkpt lat="43.6857195" lon="10.959087"><ele>40.57142857142857</ele><time>2026-03-28T17:24:40.639Z</time></trkpt><trkpt lat="43.6856571" lon="10.9591041"><ele>40.85714285714286</ele><time>2026-03-28T17:24:45.875Z</time></trkpt><trkpt lat="43.6855856" lon="10.9591246"><ele>41.14285714285714</ele><time>2026-03-28T17:24:51.88Z</time></trkpt><trkpt lat="43.6855161" lon="10.9591527"><ele>41.42857142857143</ele><time>2026-03-28T17:24:57.875Z</time></trkpt><trkpt lat="43.6854564" lon="10.9591861"><ele>41.714285714285715</ele><time>2026-03-28T17:25:02.875Z</time></trkpt><trkpt lat="43.6853934" lon="10.9591913"><ele>42.0</ele><time>2026-03-28T17:25:07.808Z</time></trkpt><trkpt lat="43.6853203" lon="10.9591973"><ele>42.0</ele><time>2026-03-28T17:25:13.876Z</time></trkpt><trkpt lat="43.6852561" lon="10.9591641"><ele>42.0</ele><time>2026-03-28T17:25:18.875Z</time></trkpt><trkpt lat="43.6851937" lon="10.9591447"><ele>42.0</ele><time>2026-03-28T17:25:23.875Z</time></trkpt><trkpt lat="43.6851279" lon="10.9591372"><ele>42.0</ele><time>2026-03-28T17:25:28.875Z</time></trkpt><trkpt lat="43.6850642" lon="10.9591278"><ele>42.0</ele><time>2026-03-28T17:25:33.902Z</time></trkpt><trkpt lat="43.6849969" lon="10.9591299"><ele>42.0</ele><time>2026-03-28T17:25:39.882Z</time></trkpt><trkpt lat="43.6849319" lon="10.9591282"><ele>42.0</ele><time>2026-03-28T17:25:44.876Z</time></trkpt><trkpt lat="43.6848649" lon="10.9590941"><ele>42.0</ele><time>2026-03-28T17:25:50.876Z</time></trkpt><trkpt lat="43.6848006" lon="10.9590908"><ele>42.0</ele><time>2026-03-28T17:25:55.876Z</time></trkpt><trkpt lat="43.6847374" lon="10.9591067"><ele>42.0</ele><time>2026-03-28T17:26:00.875Z</time></trkpt><trkpt lat="43.6846644" lon="10.9591252"><ele>42.0</ele><time>2026-03-28T17:26:06.875Z</time></trkpt><trkpt lat="43.6845904" lon="10.9591204"><ele>42.0</ele><time>2026-03-28T17:26:12.792Z</time></trkpt><trkpt lat="43.6845238" lon="10.9591237"><ele>42.0</ele><time>2026-03-28T17:26:17.875Z</time></trkpt><trkpt lat="43.6844539" lon="10.9591376"><ele>42.0</ele><time>2026-03-28T17:26:22.921Z</time></trkpt><trkpt lat="43.6843866" lon="10.9591518"><ele>42.285714285714285</ele><time>2026-03-28T17:26:27.876Z</time></trkpt><trkpt lat="43.6843112" lon="10.9591599"><ele>42.57142857142857</ele><time>2026-03-28T17:26:33.875Z</time></trkpt><trkpt lat="43.684237" lon="10.9591566"><ele>42.85714285714286</ele><time>2026-03-28T17:26:39.875Z</time></trkpt><trkpt lat="43.6841721" lon="10.959164"><ele>43.14285714285714</ele><time>2026-03-28T17:26:44.875Z</time></trkpt><trkpt lat="43.684109" lon="10.9591588"><ele>43.42857142857143</ele><time>2026-03-28T17:26:49.875Z</time></trkpt><trkpt lat="43.684034" lon="10.9591467"><ele>43.714285714285715</ele><time>2026-03-28T17:26:55.876Z</time></trkpt><trkpt lat="43.6839684" lon="10.9591303"><ele>44.0</ele><time>2026-03-28T17:27:00.876Z</time></trkpt><trkpt lat="43.6839029" lon="10.9591083"><ele>44.0</ele><time>2026-03-28T17:27:05.875Z</time></trkpt><trkpt lat="43.6838372" lon="10.9590639"><ele>44.0</ele><time>2026-03-28T17:27:11.875Z</time></trkpt><trkpt lat="43.6837873" lon="10.95901"><ele>44.0</ele><time>2026-03-28T17:27:16.876Z</time></trkpt><trkpt lat="43.6837292" lon="10.9589486"><ele>44.0</ele><time>2026-03-28T17:27:22.875Z</time></trkpt><trkpt lat="43.6836664" lon="10.9588893"><ele>44.0</ele><time>2026-03-28T17:27:28.875Z</time></trkpt><trkpt lat="43.6836109" lon="10.9588225"><ele>44.0</ele><time>2026-03-28T17:27:34.875Z</time></trkpt><trkpt lat="43.6835544" lon="10.9587607"><ele>44.0</ele><time>2026-03-28T17:27:40.876Z</time></trkpt><trkpt lat="43.683497" lon="10.9586952"><ele>44.0</ele><time>2026-03-28T17:27:46.876Z</time></trkpt><trkpt lat="43.6834534" lon="10.9586295"><ele>44.0</ele><time>2026-03-28T17:27:51.875Z</time></trkpt><trkpt lat="43.6834188" lon="10.9585481"><ele>44.0</ele><time>2026-03-28T17:27:56.875Z</time></trkpt><trkpt lat="43.6833814" lon="10.9584604"><ele>44.0</ele><time>2026-03-28T17:28:02.876Z</time></trkpt><trkpt lat="43.6833188" lon="10.9584053"><ele>44.0</ele><time>2026-03-28T17:28:08.875Z</time></trkpt><trkpt lat="43.6832625" lon="10.9583381"><ele>44.0</ele><time>2026-03-28T17:28:14.875Z</time></trkpt><trkpt lat="43.6832114" lon="10.9582852"><ele>44.0</ele><time>2026-03-28T17:28:19.876Z</time></trkpt><trkpt lat="43.6831561" lon="10.958226"><ele>44.0</ele><time>2026-03-28T17:28:25.875Z</time></trkpt><trkpt lat="43.6831098" lon="10.9581663"><ele>44.0</ele><time>2026-03-28T17:28:31.081Z</time></trkpt><trkpt lat="43.6830418" lon="10.9581379"><ele>44.0</ele><time>2026-03-28T17:28:37.079Z</time></trkpt><trkpt lat="43.6829803" lon="10.9580931"><ele>44.0</ele><time>2026-03-28T17:28:42.872Z</time></trkpt><trkpt lat="43.6829172" lon="10.9580407"><ele>44.0</ele><time>2026-03-28T17:28:48.872Z</time></trkpt><trkpt lat="43.6828633" lon="10.9579955"><ele>44.0</ele><time>2026-03-28T17:28:53.873Z</time></trkpt><trkpt lat="43.682792" lon="10.9579597"><ele>44.0</ele><time>2026-03-28T17:28:59.881Z</time></trkpt><trkpt lat="43.6827346" lon="10.9579148"><ele>43.714285714285715</ele><time>2026-03-28T17:29:04.872Z</time></trkpt><trkpt lat="43.6826746" lon="10.9578715"><ele>43.42857142857143</ele><time>2026-03-28T17:29:09.841Z</time></trkpt><trkpt lat="43.6826156" lon="10.9578346"><ele>43.14285714285714</ele><time>2026-03-28T17:29:14.872Z</time></trkpt><trkpt lat="43.6825597" lon="10.9577931"><ele>42.85714285714286</ele><time>2026-03-28T17:29:19.872Z</time></trkpt><trkpt lat="43.6825033" lon="10.957749"><ele>42.57142857142857</ele><time>2026-03-28T17:29:24.858Z</time></trkpt><trkpt lat="43.6824502" lon="10.9576989"><ele>42.285714285714285</ele><time>2026-03-28T17:29:29.878Z</time></trkpt><trkpt lat="43.682391" lon="10.9576423"><ele>42.0</ele><time>2026-03-28T17:29:35.885Z</time></trkpt><trkpt lat="43.6823381" lon="10.9575923"><ele>42.57142857142857</ele><time>2026-03-28T17:29:40.912Z</time></trkpt><trkpt lat="43.6822813" lon="10.9575326"><ele>43.14285714285714</ele><time>2026-03-28T17:29:46.872Z</time></trkpt><trkpt lat="43.6822222" lon="10.9574681"><ele>43.714285714285715</ele><time>2026-03-28T17:29:52.873Z</time></trkpt><trkpt lat="43.6821735" lon="10.9574067"><ele>44.285714285714285</ele><time>2026-03-28T17:29:57.872Z</time></trkpt><trkpt lat="43.6821274" lon="10.9573473"><ele>44.857142857142854</ele><time>2026-03-28T17:30:02.873Z</time></trkpt><trkpt lat="43.6820679" lon="10.9572837"><ele>45.42857142857143</ele><time>2026-03-28T17:30:08.873Z</time></trkpt><trkpt lat="43.682012" lon="10.9572146"><ele>46.0</ele><time>2026-03-28T17:30:14.872Z</time></trkpt><trkpt lat="43.6819549" lon="10.9571505"><ele>45.57142857142858</ele><time>2026-03-28T17:30:20.872Z</time></trkpt><trkpt lat="43.6818987" lon="10.9570824"><ele>45.14285714285714</ele><time>2026-03-28T17:30:26.873Z</time></trkpt><trkpt lat="43.6818405" lon="10.9570209"><ele>44.714285714285715</ele><time>2026-03-28T17:30:32.872Z</time></trkpt><trkpt lat="43.6817816" lon="10.9569614"><ele>44.28571428571429</ele><time>2026-03-28T17:30:38.873Z</time></trkpt><trkpt lat="43.6817214" lon="10.9568993"><ele>43.85714285714286</ele><time>2026-03-28T17:30:44.872Z</time></trkpt><trkpt lat="43.6816602" lon="10.9568375"><ele>43.42857142857143</ele><time>2026-03-28T17:30:50.873Z</time></trkpt><trkpt lat="43.6816011" lon="10.9567773"><ele>43.0</ele><time>2026-03-28T17:30:56.872Z</time></trkpt><trkpt lat="43.6815401" lon="10.9567185"><ele>43.57142857142858</ele><time>2026-03-28T17:31:02.872Z</time></trkpt><trkpt lat="43.6814785" lon="10.9566622"><ele>44.142857142857146</ele><time>2026-03-28T17:31:08.873Z</time></trkpt><trkpt lat="43.6814178" lon="10.9566014"><ele>44.714285714285715</ele><time>2026-03-28T17:31:14.872Z</time></trkpt><trkpt lat="43.6813653" lon="10.9565521"><ele>45.28571428571429</ele><time>2026-03-28T17:31:19.872Z</time></trkpt><trkpt lat="43.6813019" lon="10.9565004"><ele>45.857142857142854</ele><time>2026-03-28T17:31:25.872Z</time></trkpt><trkpt lat="43.6812393" lon="10.9564436"><ele>46.42857142857143</ele><time>2026-03-28T17:31:31.872Z</time></trkpt><trkpt lat="43.681183" lon="10.9563789"><ele>47.0</ele><time>2026-03-28T17:31:37.873Z</time></trkpt><trkpt lat="43.6811346" lon="10.9563205"><ele>46.57142857142857</ele><time>2026-03-28T17:31:42.872Z</time></trkpt><trkpt lat="43.6810892" lon="10.956259"><ele>46.14285714285714</ele><time>2026-03-28T17:31:47.872Z</time></trkpt><trkpt lat="43.6810363" lon="10.9561906"><ele>45.714285714285715</ele><time>2026-03-28T17:31:53.873Z</time></trkpt><trkpt lat="43.6809897" lon="10.9561273"><ele>45.285714285714285</ele><time>2026-03-28T17:31:58.872Z</time></trkpt><trkpt lat="43.680943" lon="10.9560669"><ele>44.857142857142854</ele><time>2026-03-28T17:32:03.873Z</time></trkpt><trkpt lat="43.6808943" lon="10.9560105"><ele>44.42857142857143</ele><time>2026-03-28T17:32:08.872Z</time></trkpt><trkpt lat="43.6808437" lon="10.9559563"><ele>44.0</ele><time>2026-03-28T17:32:13.872Z</time></trkpt><trkpt lat="43.6807842" lon="10.9558939"><ele>44.42857142857143</ele><time>2026-03-28T17:32:19.872Z</time></trkpt><trkpt lat="43.6807258" lon="10.9558291"><ele>44.857142857142854</ele><time>2026-03-28T17:32:25.872Z</time></trkpt><trkpt lat="43.6806782" lon="10.9557681"><ele>45.285714285714285</ele><time>2026-03-28T17:32:30.872Z</time></trkpt><trkpt lat="43.6806232" lon="10.9557022"><ele>45.714285714285715</ele><time>2026-03-28T17:32:36.872Z</time></trkpt><trkpt lat="43.6805793" lon="10.9556268"><ele>46.14285714285714</ele><time>2026-03-28T17:32:42.873Z</time></trkpt><trkpt lat="43.6805408" lon="10.9555429"><ele>46.57142857142857</ele><time>2026-03-28T17:32:48.872Z</time></trkpt><trkpt lat="43.6805039" lon="10.9554568"><ele>47.0</ele><time>2026-03-28T17:32:54.872Z</time></trkpt><trkpt lat="43.6804691" lon="10.9553651"><ele>47.0</ele><time>2026-03-28T17:33:00.872Z</time></trkpt><trkpt lat="43.6804452" lon="10.955284"><ele>47.0</ele><time>2026-03-28T17:33:05.872Z</time></trkpt><trkpt lat="43.6804189" lon="10.9551912"><ele>47.0</ele><time>2026-03-28T17:33:11.872Z</time></trkpt><trkpt lat="43.680391" lon="10.9550964"><ele>47.0</ele><time>2026-03-28T17:33:17.872Z</time></trkpt><trkpt lat="43.680363" lon="10.9550023"><ele>47.0</ele><time>2026-03-28T17:33:23.872Z</time></trkpt><trkpt lat="43.6803421" lon="10.9549196"><ele>47.0</ele><time>2026-03-28T17:33:28.873Z</time></trkpt><trkpt lat="43.6803235" lon="10.9548356"><ele>47.0</ele><time>2026-03-28T17:33:33.872Z</time></trkpt><trkpt lat="43.680307" lon="10.9547353"><ele>47.0</ele><time>2026-03-28T17:33:39.872Z</time></trkpt><trkpt lat="43.680292" lon="10.9546353"><ele>47.0</ele><time>2026-03-28T17:33:45.872Z</time></trkpt><trkpt lat="43.6802721" lon="10.9545372"><ele>47.0</ele><time>2026-03-28T17:33:51.872Z</time></trkpt><trkpt lat="43.6802545" lon="10.9544392"><ele>47.0</ele><time>2026-03-28T17:33:57.873Z</time></trkpt><trkpt lat="43.6802306" lon="10.9543447"><ele>47.0</ele><time>2026-03-28T17:34:03.872Z</time></trkpt><trkpt lat="43.6802095" lon="10.9542499"><ele>47.0</ele><time>2026-03-28T17:34:09.873Z</time></trkpt><trkpt lat="43.6801852" lon="10.9541572"><ele>47.0</ele><time>2026-03-28T17:34:15.872Z</time></trkpt><trkpt lat="43.6801597" lon="10.9540607"><ele>47.0</ele><time>2026-03-28T17:34:21.872Z</time></trkpt><trkpt lat="43.6801319" lon="10.9539665"><ele>47.0</ele><time>2026-03-28T17:34:27.872Z</time></trkpt><trkpt lat="43.6801012" lon="10.9538827"><ele>47.0</ele><time>2026-03-28T17:34:33.873Z</time></trkpt><trkpt lat="43.6800621" lon="10.9537992"><ele>47.0</ele><time>2026-03-28T17:34:39.872Z</time></trkpt><trkpt lat="43.6800146" lon="10.9537226"><ele>47.0</ele><time>2026-03-28T17:34:45.872Z</time></trkpt><trkpt lat="43.679973" lon="10.9536561"><ele>47.0</ele><time>2026-03-28T17:34:50.873Z</time></trkpt><trkpt lat="43.6799259" lon="10.9535967"><ele>47.0</ele><time>2026-03-28T17:34:55.872Z</time></trkpt><trkpt lat="43.6798755" lon="10.9535435"><ele>47.0</ele><time>2026-03-28T17:35:00.872Z</time></trkpt><trkpt lat="43.6798183" lon="10.953484"><ele>47.0</ele><time>2026-03-28T17:35:06.872Z</time></trkpt><trkpt lat="43.6797602" lon="10.9534246"><ele>47.0</ele><time>2026-03-28T17:35:12.872Z</time></trkpt><trkpt lat="43.6796996" lon="10.9533684"><ele>47.0</ele><time>2026-03-28T17:35:18.873Z</time></trkpt><trkpt lat="43.6796385" lon="10.9533189"><ele>47.0</ele><time>2026-03-28T17:35:24.872Z</time></trkpt><trkpt lat="43.6795809" lon="10.9532663"><ele>47.0</ele><time>2026-03-28T17:35:30.872Z</time></trkpt><trkpt lat="43.6795222" lon="10.9532072"><ele>47.0</ele><time>2026-03-28T17:35:36.872Z</time></trkpt><trkpt lat="43.6794667" lon="10.9531617"><ele>46.857142857142854</ele><time>2026-03-28T17:35:41.872Z</time></trkpt><trkpt lat="43.6794069" lon="10.9531018"><ele>46.71428571428571</ele><time>2026-03-28T17:35:47.872Z</time></trkpt><trkpt lat="43.67935" lon="10.9530349"><ele>46.57142857142857</ele><time>2026-03-28T17:35:53.873Z</time></trkpt><trkpt lat="43.679291" lon="10.9529772"><ele>46.42857142857143</ele><time>2026-03-28T17:35:59.872Z</time></trkpt><trkpt lat="43.6792292" lon="10.9529239"><ele>46.285714285714285</ele><time>2026-03-28T17:36:05.872Z</time></trkpt><trkpt lat="43.679167" lon="10.9528781"><ele>46.142857142857146</ele><time>2026-03-28T17:36:11.873Z</time></trkpt><trkpt lat="43.6790942" lon="10.9528549"><ele>46.0</ele><time>2026-03-28T17:36:17.872Z</time></trkpt><trkpt lat="43.6790269" lon="10.9528505"><ele>46.0</ele><time>2026-03-28T17:36:22.872Z</time></trkpt><trkpt lat="43.6789616" lon="10.9528454"><ele>46.0</ele><time>2026-03-28T17:36:27.872Z</time></trkpt><trkpt lat="43.6788898" lon="10.9528395"><ele>46.0</ele><time>2026-03-28T17:36:33.872Z</time></trkpt><trkpt lat="43.6788161" lon="10.9528245"><ele>46.0</ele><time>2026-03-28T17:36:39.872Z</time></trkpt><trkpt lat="43.6787605" lon="10.9527783"><ele>46.0</ele><time>2026-03-28T17:36:57.873Z</time></trkpt><trkpt lat="43.678737" lon="10.9526955"><ele>46.0</ele><time>2026-03-28T17:37:02.872Z</time></trkpt><trkpt lat="43.6787209" lon="10.9526002"><ele>46.0</ele><time>2026-03-28T17:37:08.872Z</time></trkpt><trkpt lat="43.6787237" lon="10.9525046"><ele>46.714285714285715</ele><time>2026-03-28T17:37:14.872Z</time></trkpt><trkpt lat="43.678755" lon="10.9524117"><ele>47.42857142857142</ele><time>2026-03-28T17:37:20.873Z</time></trkpt><trkpt lat="43.6787931" lon="10.9523419"><ele>48.14285714285714</ele><time>2026-03-28T17:37:25.872Z</time></trkpt><trkpt lat="43.6788433" lon="10.9522714"><ele>48.85714285714286</ele><time>2026-03-28T17:37:31.872Z</time></trkpt><trkpt lat="43.6788935" lon="10.9521974"><ele>49.57142857142857</ele><time>2026-03-28T17:37:37.871Z</time></trkpt><trkpt lat="43.6789395" lon="10.9521313"><ele>50.285714285714285</ele><time>2026-03-28T17:37:43.881Z</time></trkpt><trkpt lat="43.6789868" lon="10.9520595"><ele>51.0</ele><time>2026-03-28T17:37:49.872Z</time></trkpt><trkpt lat="43.6790409" lon="10.9519916"><ele>51.0</ele><time>2026-03-28T17:37:56.872Z</time></trkpt><trkpt lat="43.6790875" lon="10.9519256"><ele>51.0</ele><time>2026-03-28T17:38:02.872Z</time></trkpt><trkpt lat="43.6791417" lon="10.951856"><ele>51.0</ele><time>2026-03-28T17:38:08.872Z</time></trkpt><trkpt lat="43.6791791" lon="10.9517827"><ele>51.0</ele><time>2026-03-28T17:38:14.872Z</time></trkpt><trkpt lat="43.6792268" lon="10.9517152"><ele>51.0</ele><time>2026-03-28T17:38:20.873Z</time></trkpt><trkpt lat="43.6792747" lon="10.9516467"><ele>51.0</ele><time>2026-03-28T17:38:26.906Z</time></trkpt><trkpt lat="43.6793136" lon="10.9515709"><ele>51.0</ele><time>2026-03-28T17:38:32.812Z</time></trkpt><trkpt lat="43.679335" lon="10.9514776"><ele>52.57142857142857</ele><time>2026-03-28T17:38:38.878Z</time></trkpt><trkpt lat="43.6793479" lon="10.951381"><ele>54.142857142857146</ele><time>2026-03-28T17:38:44.879Z</time></trkpt><trkpt lat="43.6793634" lon="10.9512928"><ele>55.714285714285715</ele><time>2026-03-28T17:38:49.878Z</time></trkpt><trkpt lat="43.6793813" lon="10.9512082"><ele>57.28571428571429</ele><time>2026-03-28T17:38:55.888Z</time></trkpt><trkpt lat="43.679386" lon="10.9511144"><ele>58.85714285714286</ele><time>2026-03-28T17:39:01.888Z</time></trkpt><trkpt lat="43.679388" lon="10.9510223"><ele>60.42857142857143</ele><time>2026-03-28T17:39:07.878Z</time></trkpt><trkpt lat="43.6793931" lon="10.9509322"><ele>62.0</ele><time>2026-03-28T17:39:13.878Z</time></trkpt><trkpt lat="43.6793831" lon="10.9508326"><ele>63.57142857142858</ele><time>2026-03-28T17:39:20.878Z</time></trkpt><trkpt lat="43.679387" lon="10.95073"><ele>65.14285714285715</ele><time>2026-03-28T17:39:27.879Z</time></trkpt><trkpt lat="43.6793732" lon="10.9506354"><ele>66.71428571428572</ele><time>2026-03-28T17:39:33.878Z</time></trkpt><trkpt lat="43.6793551" lon="10.9505365"><ele>68.28571428571429</ele><time>2026-03-28T17:39:40.878Z</time></trkpt><trkpt lat="43.6793235" lon="10.9504473"><ele>69.85714285714286</ele><time>2026-03-28T17:39:47.878Z</time></trkpt><trkpt lat="43.6792849" lon="10.9503754"><ele>71.42857142857143</ele><time>2026-03-28T17:39:54.888Z</time></trkpt><trkpt lat="43.6792258" lon="10.9503359"><ele>73.0</ele><time>2026-03-28T17:40:00.878Z</time></trkpt><trkpt lat="43.6791645" lon="10.9503007"><ele>73.0</ele><time>2026-03-28T17:40:06.878Z</time></trkpt><trkpt lat="43.6791325" lon="10.9502161"><ele>73.0</ele><time>2026-03-28T17:40:12.815Z</time></trkpt><trkpt lat="43.6791126" lon="10.9501217"><ele>73.0</ele><time>2026-03-28T17:40:18.879Z</time></trkpt><trkpt lat="43.6791044" lon="10.95002"><ele>73.0</ele><time>2026-03-28T17:40:25.878Z</time></trkpt><trkpt lat="43.6791003" lon="10.94993"><ele>73.0</ele><time>2026-03-28T17:40:31.878Z</time></trkpt><trkpt lat="43.6791039" lon="10.9498387"><ele>73.0</ele><time>2026-03-28T17:40:37.878Z</time></trkpt><trkpt lat="43.6791154" lon="10.9497508"><ele>73.0</ele><time>2026-03-28T17:40:43.879Z</time></trkpt><trkpt lat="43.6791366" lon="10.9496592"><ele>73.85714285714286</ele><time>2026-03-28T17:40:49.848Z</time></trkpt><trkpt lat="43.6791608" lon="10.9495718"><ele>74.71428571428572</ele><time>2026-03-28T17:40:55.879Z</time></trkpt><trkpt lat="43.6791962" lon="10.9494911"><ele>75.57142857142858</ele><time>2026-03-28T17:41:01.879Z</time></trkpt><trkpt lat="43.6792558" lon="10.9494339"><ele>76.42857142857143</ele><time>2026-03-28T17:41:07.879Z</time></trkpt><trkpt lat="43.6792868" lon="10.9493473"><ele>77.28571428571429</ele><time>2026-03-28T17:41:13.878Z</time></trkpt><trkpt lat="43.6793109" lon="10.9492639"><ele>78.14285714285715</ele><time>2026-03-28T17:41:19.878Z</time></trkpt><trkpt lat="43.6793301" lon="10.9491798"><ele>79.0</ele><time>2026-03-28T17:41:25.879Z</time></trkpt><trkpt lat="43.6793374" lon="10.9490831"><ele>79.71428571428572</ele><time>2026-03-28T17:41:31.879Z</time></trkpt><trkpt lat="43.6793385" lon="10.9489884"><ele>80.42857142857143</ele><time>2026-03-28T17:41:37.879Z</time></trkpt><trkpt lat="43.6793383" lon="10.9488999"><ele>81.14285714285714</ele><time>2026-03-28T17:41:43.878Z</time></trkpt><trkpt lat="43.6793412" lon="10.9488096"><ele>81.85714285714286</ele><time>2026-03-28T17:41:49.879Z</time></trkpt><trkpt lat="43.6793341" lon="10.9487185"><ele>82.57142857142857</ele><time>2026-03-28T17:41:55.879Z</time></trkpt><trkpt lat="43.6793254" lon="10.9486194"><ele>83.28571428571429</ele><time>2026-03-28T17:42:01.879Z</time></trkpt><trkpt lat="43.6793205" lon="10.9485217"><ele>84.0</ele><time>2026-03-28T17:42:07.879Z</time></trkpt><trkpt lat="43.6793228" lon="10.9484238"><ele>84.71428571428571</ele><time>2026-03-28T17:42:13.852Z</time></trkpt><trkpt lat="43.6793238" lon="10.9483322"><ele>85.42857142857143</ele><time>2026-03-28T17:42:19.639Z</time></trkpt><trkpt lat="43.679323" lon="10.9482348"><ele>86.14285714285714</ele><time>2026-03-28T17:42:25.879Z</time></trkpt><trkpt lat="43.6793225" lon="10.9481372"><ele>86.85714285714286</ele><time>2026-03-28T17:42:31.879Z</time></trkpt><trkpt lat="43.6793228" lon="10.9480456"><ele>87.57142857142857</ele><time>2026-03-28T17:42:37.779Z</time></trkpt><trkpt lat="43.6793247" lon="10.9479486"><ele>88.28571428571428</ele><time>2026-03-28T17:42:43.879Z</time></trkpt><trkpt lat="43.6793116" lon="10.9478564"><ele>89.0</ele><time>2026-03-28T17:42:49.878Z</time></trkpt><trkpt lat="43.6793063" lon="10.9477612"><ele>88.99999999999999</ele><time>2026-03-28T17:42:55.879Z</time></trkpt><trkpt lat="43.6793058" lon="10.9476698"><ele>89.0</ele><time>2026-03-28T17:43:01.878Z</time></trkpt><trkpt lat="43.6793139" lon="10.9475787"><ele>89.0</ele><time>2026-03-28T17:43:07.878Z</time></trkpt><trkpt lat="43.6793337" lon="10.9474923"><ele>89.0</ele><time>2026-03-28T17:43:13.878Z</time></trkpt><trkpt lat="43.6793583" lon="10.947401"><ele>89.0</ele><time>2026-03-28T17:43:20.784Z</time></trkpt><trkpt lat="43.6793821" lon="10.947306"><ele>88.99999999999999</ele><time>2026-03-28T17:43:27.866Z</time></trkpt><trkpt lat="43.6794003" lon="10.9472085"><ele>89.0</ele><time>2026-03-28T17:43:34.879Z</time></trkpt><trkpt lat="43.6794224" lon="10.9471221"><ele>90.42857142857142</ele><time>2026-03-28T17:43:40.878Z</time></trkpt><trkpt lat="43.6794455" lon="10.9470391"><ele>91.85714285714286</ele><time>2026-03-28T17:43:46.905Z</time></trkpt><trkpt lat="43.6794708" lon="10.9469505"><ele>93.28571428571428</ele><time>2026-03-28T17:43:52.879Z</time></trkpt><trkpt lat="43.679496" lon="10.9468645"><ele>94.71428571428571</ele><time>2026-03-28T17:43:58.848Z</time></trkpt><trkpt lat="43.6795143" lon="10.9467689"><ele>96.14285714285714</ele><time>2026-03-28T17:44:04.879Z</time></trkpt><trkpt lat="43.6795296" lon="10.9466801"><ele>97.57142857142857</ele><time>2026-03-28T17:44:10.79Z</time></trkpt><trkpt lat="43.6795515" lon="10.946597"><ele>99.0</ele><time>2026-03-28T17:44:16.868Z</time></trkpt><trkpt lat="43.6795806" lon="10.9465137"><ele>99.85714285714286</ele><time>2026-03-28T17:44:22.854Z</time></trkpt><trkpt lat="43.6796102" lon="10.9464144"><ele>100.71428571428571</ele><time>2026-03-28T17:44:29.878Z</time></trkpt><trkpt lat="43.6796331" lon="10.9463209"><ele>101.57142857142857</ele><time>2026-03-28T17:44:35.878Z</time></trkpt><trkpt lat="43.6796544" lon="10.9462327"><ele>102.42857142857143</ele><time>2026-03-28T17:44:41.878Z</time></trkpt><trkpt lat="43.6796738" lon="10.9461442"><ele>103.28571428571428</ele><time>2026-03-28T17:44:47.878Z</time></trkpt><trkpt lat="43.679699" lon="10.9460506"><ele>104.14285714285714</ele><time>2026-03-28T17:44:53.878Z</time></trkpt><trkpt lat="43.6797293" lon="10.9459684"><ele>105.0</ele><time>2026-03-28T17:44:59.878Z</time></trkpt><trkpt lat="43.6797675" lon="10.9458898"><ele>105.57142857142857</ele><time>2026-03-28T17:45:05.872Z</time></trkpt><trkpt lat="43.6798106" lon="10.9458177"><ele>106.14285714285714</ele><time>2026-03-28T17:45:11.748Z</time></trkpt><trkpt lat="43.6798494" lon="10.9457455"><ele>106.71428571428572</ele><time>2026-03-28T17:45:17.878Z</time></trkpt><trkpt lat="43.6798873" lon="10.9456712"><ele>107.28571428571428</ele><time>2026-03-28T17:45:23.878Z</time></trkpt><trkpt lat="43.6799259" lon="10.9455993"><ele>107.85714285714286</ele><time>2026-03-28T17:45:29.878Z</time></trkpt><trkpt lat="43.6799698" lon="10.9455304"><ele>108.42857142857143</ele><time>2026-03-28T17:45:35.806Z</time></trkpt><trkpt lat="43.680017" lon="10.9454594"><ele>109.0</ele><time>2026-03-28T17:45:41.878Z</time></trkpt><trkpt lat="43.6800661" lon="10.9453858"><ele>109.0</ele><time>2026-03-28T17:45:47.799Z</time></trkpt><trkpt lat="43.6801149" lon="10.9453249"><ele>109.0</ele><time>2026-03-28T17:45:53.826Z</time></trkpt><trkpt lat="43.6801676" lon="10.9452688"><ele>109.0</ele><time>2026-03-28T17:45:59.878Z</time></trkpt><trkpt lat="43.6802192" lon="10.9452099"><ele>109.0</ele><time>2026-03-28T17:46:05.878Z</time></trkpt><trkpt lat="43.6802794" lon="10.9451611"><ele>109.0</ele><time>2026-03-28T17:46:11.878Z</time></trkpt><trkpt lat="43.6803347" lon="10.9451156"><ele>109.0</ele><time>2026-03-28T17:46:17.879Z</time></trkpt><trkpt lat="43.6803875" lon="10.9450523"><ele>109.0</ele><time>2026-03-28T17:46:23.91Z</time></trkpt><trkpt lat="43.680439" lon="10.9449872"><ele>108.85714285714286</ele><time>2026-03-28T17:46:29.804Z</time></trkpt><trkpt lat="43.6804852" lon="10.9449184"><ele>108.71428571428572</ele><time>2026-03-28T17:46:35.878Z</time></trkpt><trkpt lat="43.6805276" lon="10.9448431"><ele>108.57142857142857</ele><time>2026-03-28T17:46:42.878Z</time></trkpt><trkpt lat="43.6805642" lon="10.944772"><ele>108.42857142857143</ele><time>2026-03-28T17:46:49.878Z</time></trkpt><trkpt lat="43.6805914" lon="10.9446845"><ele>108.28571428571428</ele><time>2026-03-28T17:46:55.878Z</time></trkpt><trkpt lat="43.6806063" lon="10.9445954"><ele>108.14285714285714</ele><time>2026-03-28T17:47:00.879Z</time></trkpt><trkpt lat="43.6806168" lon="10.9444998"><ele>108.0</ele><time>2026-03-28T17:47:07.879Z</time></trkpt><trkpt lat="43.6806206" lon="10.9444075"><ele>108.0</ele><time>2026-03-28T17:47:13.878Z</time></trkpt><trkpt lat="43.6805925" lon="10.9442956"><ele>108.0</ele><time>2026-03-28T17:47:34.879Z</time></trkpt><trkpt lat="43.6805631" lon="10.9442107"><ele>117.0</ele><time>2026-03-28T17:47:38.892Z</time></trkpt><trkpt lat="43.6805246" lon="10.944132"><ele>117.0</ele><time>2026-03-28T17:47:43.878Z</time></trkpt></trkseg></trk></gpx>